PWSweather.com
Personal Weather Stations
Station Observations
KOHAMHER7
Amherst, OH 44001

Amherst, OH 44001

Lat: 41.403497, Lon: -82.25041499999998

Elevation: 679

Station Type: Ambient WS1001

Latest ConditionsUpdated 6:57:59 PM EST Tuesday, Jan 23, 2018
Currently Today's Max Today's Min Today's Average
Temperature 34.9°F1.6°C 54.5°F12.5°C 34.7°F1.5°C 40.9°F4.9°C
Dew Point 27.0°F-2.8°C 46.0°F7.8°C 27.0°F-2.8°C 35.3°F1.8°C
Winds 7.6 mph W12.2 kmh W 17.0 mph NNW27.4 kmh NNW - 4.6 mph 7.4 kmh
Wind Gusts 9.8 mph15.8 kmh 24.8 mph39.9 kmh - -
Humidity 73% 90% 71% 80%
Pressure 29.85 in1010.8 mb 29.85 in1010.8 mb 29.57 in1001.4 mb -
Precipitation - 0.18 in4.6 mm - -
Hour Temp Dew Point Humidity Winds Wind Gusts Pressure Precip Precip Rate Daily Precip Total
06:57 PM 34.9°F1.6°C 27.0°F-2.8°C 73% 7.6 mph W12.2 kmh W 9.8 mph15.8 kmh 29.85 in1010.8 mb 0.00 in0.0 mm 0.00 in0.0 mm 0.18 in4.6 mm
06:56 PM 34.9°F1.6°C 27.0°F-2.8°C 73% 7.6 mph W12.2 kmh W 9.8 mph15.8 kmh 29.85 in1010.8 mb 0.00 in0.0 mm 0.00 in0.0 mm 0.18 in4.6 mm
06:55 PM 34.9°F1.6°C 27.0°F-2.8°C 73% 7.6 mph W12.2 kmh W 9.8 mph15.8 kmh 29.85 in1010.8 mb 0.00 in0.0 mm 0.00 in0.0 mm 0.18 in4.6 mm
06:54 PM 34.9°F1.6°C 27.0°F-2.8°C 73% 7.6 mph W12.2 kmh W 9.8 mph15.8 kmh 29.85 in1010.8 mb 0.00 in0.0 mm 0.00 in0.0 mm 0.18 in4.6 mm
06:53 PM 34.9°F1.6°C 27.0°F-2.8°C 73% 7.6 mph W12.2 kmh W 9.8 mph15.8 kmh 29.85 in1010.8 mb 0.00 in0.0 mm 0.00 in0.0 mm 0.18 in4.6 mm
06:52 PM 34.9°F1.6°C 27.0°F-2.8°C 73% 6.5 mph WSW10.5 kmh WSW 9.8 mph15.8 kmh 29.85 in1010.8 mb 0.00 in0.0 mm 0.00 in0.0 mm 0.18 in4.6 mm
06:51 PM 34.9°F1.6°C 27.0°F-2.8°C 73% 6.5 mph WSW10.5 kmh WSW 9.8 mph15.8 kmh 29.85 in1010.8 mb 0.00 in0.0 mm 0.00 in0.0 mm 0.18 in4.6 mm
06:50 PM 34.9°F1.6°C 27.0°F-2.8°C 73% 6.5 mph WSW10.5 kmh WSW 9.8 mph15.8 kmh 29.85 in1010.8 mb 0.00 in0.0 mm 0.00 in0.0 mm 0.18 in4.6 mm
06:49 PM 34.9°F1.6°C 27.0°F-2.8°C 73% 6.5 mph WSW10.5 kmh WSW 9.8 mph15.8 kmh 29.85 in1010.8 mb 0.00 in0.0 mm 0.00 in0.0 mm 0.18 in4.6 mm
06:48 PM 34.9°F1.6°C 27.0°F-2.8°C 73% 6.5 mph WSW10.5 kmh WSW 9.8 mph15.8 kmh 29.85 in1010.8 mb 0.00 in0.0 mm 0.00 in0.0 mm 0.18 in4.6 mm
06:47 PM 34.9°F1.6°C 27.0°F-2.8°C 73% 6.5 mph WSW10.5 kmh WSW 7.4 mph11.9 kmh 29.85 in1010.8 mb 0.00 in0.0 mm 0.00 in0.0 mm 0.29 in7.4 mm
06:46 PM 34.9°F1.6°C 27.0°F-2.8°C 73% 6.5 mph WSW10.5 kmh WSW 7.4 mph11.9 kmh 29.85 in1010.8 mb 0.00 in0.0 mm 0.00 in0.0 mm 0.29 in7.4 mm
06:45 PM 34.9°F1.6°C 27.0°F-2.8°C 73% 6.5 mph WSW10.5 kmh WSW 7.4 mph11.9 kmh 29.85 in1010.8 mb 0.00 in0.0 mm 0.00 in0.0 mm 0.29 in7.4 mm
06:44 PM 34.9°F1.6°C 27.0°F-2.8°C 73% 6.5 mph WSW10.5 kmh WSW 7.4 mph11.9 kmh 29.85 in1010.8 mb 0.00 in0.0 mm 0.00 in0.0 mm 0.29 in7.4 mm
06:43 PM 34.9°F1.6°C 27.0°F-2.8°C 73% 6.5 mph WSW10.5 kmh WSW 7.4 mph11.9 kmh 29.85 in1010.8 mb 0.00 in0.0 mm 0.00 in0.0 mm 0.29 in7.4 mm
06:42 PM 34.7°F1.5°C 27.0°F-2.8°C 73% 15.4 mph WSW24.8 kmh WSW 22.4 mph36.0 kmh 29.85 in1010.8 mb 0.00 in0.0 mm 0.00 in0.0 mm 0.18 in4.6 mm
06:41 PM 34.7°F1.5°C 27.0°F-2.8°C 73% 15.4 mph WSW24.8 kmh WSW 22.4 mph36.0 kmh 29.85 in1010.8 mb 0.00 in0.0 mm 0.00 in0.0 mm 0.18 in4.6 mm
06:40 PM 34.7°F1.5°C 27.0°F-2.8°C 73% 15.4 mph WSW24.8 kmh WSW 22.4 mph36.0 kmh 29.85 in1010.8 mb 0.00 in0.0 mm 0.00 in0.0 mm 0.18 in4.6 mm
06:39 PM 34.7°F1.5°C 27.0°F-2.8°C 73% 15.4 mph WSW24.8 kmh WSW 22.4 mph36.0 kmh 29.85 in1010.8 mb 0.00 in0.0 mm 0.00 in0.0 mm 0.18 in4.6 mm
06:38 PM 34.7°F1.5°C 27.0°F-2.8°C 73% 15.4 mph WSW24.8 kmh WSW 22.4 mph36.0 kmh 29.85 in1010.8 mb 0.00 in0.0 mm 0.00 in0.0 mm 0.18 in4.6 mm
06:37 PM 34.7°F1.5°C 27.0°F-2.8°C 74% 2.7 mph SW4.3 kmh SW 4.9 mph7.9 kmh 29.85 in1010.8 mb 0.00 in0.0 mm 0.00 in0.0 mm 0.18 in4.6 mm
06:36 PM 34.7°F1.5°C 27.0°F-2.8°C 74% 2.7 mph SW4.3 kmh SW 4.9 mph7.9 kmh 29.85 in1010.8 mb 0.00 in0.0 mm 0.00 in0.0 mm 0.18 in4.6 mm
06:35 PM 34.7°F1.5°C 27.0°F-2.8°C 74% 2.7 mph SW4.3 kmh SW 4.9 mph7.9 kmh 29.85 in1010.8 mb 0.00 in0.0 mm 0.00 in0.0 mm 0.18 in4.6 mm
06:34 PM 34.7°F1.5°C 27.0°F-2.8°C 74% 2.7 mph SW4.3 kmh SW 4.9 mph7.9 kmh 29.85 in1010.8 mb 0.00 in0.0 mm 0.00 in0.0 mm 0.18 in4.6 mm
06:33 PM 34.7°F1.5°C 27.0°F-2.8°C 74% 2.7 mph SW4.3 kmh SW 4.9 mph7.9 kmh 29.85 in1010.8 mb 0.00 in0.0 mm 0.00 in0.0 mm 0.18 in4.6 mm
06:32 PM 34.7°F1.5°C 27.0°F-2.8°C 74% 2.7 mph SW4.3 kmh SW 4.9 mph7.9 kmh 29.85 in1010.8 mb 0.00 in0.0 mm 0.00 in0.0 mm 0.18 in4.6 mm
06:31 PM 34.7°F1.5°C 28.0°F-2.2°C 76% 17.0 mph NNW27.4 kmh NNW 24.8 mph39.9 kmh 29.85 in1010.8 mb 0.00 in0.0 mm 0.00 in0.0 mm 0.18 in4.6 mm
06:30 PM 34.7°F1.5°C 28.0°F-2.2°C 76% 17.0 mph NNW27.4 kmh NNW 24.8 mph39.9 kmh 29.85 in1010.8 mb 0.00 in0.0 mm 0.00 in0.0 mm 0.18 in4.6 mm
06:29 PM 34.7°F1.5°C 28.0°F-2.2°C 76% 17.0 mph NNW27.4 kmh NNW 24.8 mph39.9 kmh 29.85 in1010.8 mb 0.00 in0.0 mm 0.00 in0.0 mm 0.18 in4.6 mm
06:28 PM 34.7°F1.5°C 28.0°F-2.2°C 76% 17.0 mph NNW27.4 kmh NNW 24.8 mph39.9 kmh 29.85 in1010.8 mb 0.00 in0.0 mm 0.00 in0.0 mm 0.18 in4.6 mm
06:27 PM 34.7°F1.5°C 28.0°F-2.2°C 76% 17.0 mph NNW27.4 kmh NNW 24.8 mph39.9 kmh 29.85 in1010.8 mb 0.00 in0.0 mm 0.00 in0.0 mm 0.18 in4.6 mm
06:26 PM 34.7°F1.5°C 29.0°F-1.7°C 78% 4.3 mph NW6.9 kmh NW 4.9 mph7.9 kmh 29.85 in1010.8 mb 0.00 in0.0 mm 0.00 in0.0 mm 0.18 in4.6 mm
06:25 PM 34.7°F1.5°C 29.0°F-1.7°C 78% 4.3 mph NW6.9 kmh NW 4.9 mph7.9 kmh 29.85 in1010.8 mb 0.00 in0.0 mm 0.00 in0.0 mm 0.18 in4.6 mm
06:24 PM 34.7°F1.5°C 29.0°F-1.7°C 78% 4.3 mph NW6.9 kmh NW 4.9 mph7.9 kmh 29.85 in1010.8 mb 0.00 in0.0 mm 0.00 in0.0 mm 0.18 in4.6 mm
06:23 PM 34.7°F1.5°C 29.0°F-1.7°C 78% 4.3 mph NW6.9 kmh NW 4.9 mph7.9 kmh 29.85 in1010.8 mb 0.00 in0.0 mm 0.00 in0.0 mm 0.18 in4.6 mm
06:22 PM 34.7°F1.5°C 29.0°F-1.7°C 78% 4.3 mph NW6.9 kmh NW 4.9 mph7.9 kmh 29.85 in1010.8 mb 0.00 in0.0 mm 0.00 in0.0 mm 0.18 in4.6 mm
06:21 PM 34.7°F1.5°C 29.0°F-1.7°C 78% 7.2 mph WSW11.6 kmh WSW 7.4 mph11.9 kmh 29.85 in1010.8 mb 0.00 in0.0 mm 0.00 in0.0 mm 0.18 in4.6 mm
06:20 PM 34.7°F1.5°C 29.0°F-1.7°C 78% 7.2 mph WSW11.6 kmh WSW 7.4 mph11.9 kmh 29.85 in1010.8 mb 0.00 in0.0 mm 0.00 in0.0 mm 0.18 in4.6 mm
06:19 PM 34.7°F1.5°C 29.0°F-1.7°C 78% 7.2 mph WSW11.6 kmh WSW 7.4 mph11.9 kmh 29.85 in1010.8 mb 0.00 in0.0 mm 0.00 in0.0 mm 0.18 in4.6 mm
06:18 PM 34.7°F1.5°C 29.0°F-1.7°C 78% 7.2 mph WSW11.6 kmh WSW 7.4 mph11.9 kmh 29.85 in1010.8 mb 0.00 in0.0 mm 0.00 in0.0 mm 0.18 in4.6 mm
06:17 PM 34.7°F1.5°C 29.0°F-1.7°C 78% 7.2 mph WSW11.6 kmh WSW 7.4 mph11.9 kmh 29.85 in1010.8 mb 0.00 in0.0 mm 0.00 in0.0 mm 0.18 in4.6 mm
06:16 PM 34.9°F1.6°C 28.0°F-2.2°C 77% 5.8 mph WSW9.3 kmh WSW 7.4 mph11.9 kmh 29.85 in1010.8 mb 0.00 in0.0 mm 0.00 in0.0 mm 0.18 in4.6 mm
06:15 PM 34.9°F1.6°C 28.0°F-2.2°C 77% 5.8 mph WSW9.3 kmh WSW 7.4 mph11.9 kmh 29.85 in1010.8 mb 0.00 in0.0 mm 0.00 in0.0 mm 0.18 in4.6 mm
06:14 PM 34.9°F1.6°C 28.0°F-2.2°C 77% 5.8 mph WSW9.3 kmh WSW 7.4 mph11.9 kmh 29.85 in1010.8 mb 0.00 in0.0 mm 0.00 in0.0 mm 0.18 in4.6 mm
06:13 PM 34.9°F1.6°C 28.0°F-2.2°C 77% 5.8 mph WSW9.3 kmh WSW 7.4 mph11.9 kmh 29.85 in1010.8 mb 0.00 in0.0 mm 0.00 in0.0 mm 0.18 in4.6 mm
06:12 PM 34.9°F1.6°C 28.0°F-2.2°C 77% 5.8 mph WSW9.3 kmh WSW 7.4 mph11.9 kmh 29.85 in1010.8 mb 0.00 in0.0 mm 0.00 in0.0 mm 0.18 in4.6 mm
06:11 PM 34.9°F1.6°C 28.0°F-2.2°C 77% 8.7 mph W14.0 kmh W 9.8 mph15.8 kmh 29.85 in1010.8 mb 0.00 in0.0 mm 0.00 in0.0 mm 0.18 in4.6 mm
06:10 PM 34.9°F1.6°C 28.0°F-2.2°C 77% 8.7 mph W14.0 kmh W 9.8 mph15.8 kmh 29.85 in1010.8 mb 0.00 in0.0 mm 0.00 in0.0 mm 0.18 in4.6 mm
06:09 PM 34.9°F1.6°C 28.0°F-2.2°C 77% 8.7 mph W14.0 kmh W 9.8 mph15.8 kmh 29.85 in1010.8 mb 0.00 in0.0 mm 0.00 in0.0 mm 0.18 in4.6 mm
06:08 PM 34.9°F1.6°C 28.0°F-2.2°C 77% 8.7 mph W14.0 kmh W 9.8 mph15.8 kmh 29.85 in1010.8 mb 0.00 in0.0 mm 0.00 in0.0 mm 0.18 in4.6 mm
06:07 PM 34.9°F1.6°C 28.0°F-2.2°C 77% 8.7 mph W14.0 kmh W 9.8 mph15.8 kmh 29.85 in1010.8 mb 0.00 in0.0 mm 0.00 in0.0 mm 0.18 in4.6 mm
06:06 PM 35.1°F1.7°C 29.0°F-1.7°C 77% 5.8 mph WSW9.3 kmh WSW 7.4 mph11.9 kmh 29.85 in1010.8 mb 0.00 in0.0 mm 0.00 in0.0 mm 0.18 in4.6 mm
06:05 PM 35.1°F1.7°C 29.0°F-1.7°C 77% 5.8 mph WSW9.3 kmh WSW 7.4 mph11.9 kmh 29.85 in1010.8 mb 0.00 in0.0 mm 0.00 in0.0 mm 0.18 in4.6 mm
06:04 PM 35.1°F1.7°C 29.0°F-1.7°C 77% 5.8 mph WSW9.3 kmh WSW 7.4 mph11.9 kmh 29.85 in1010.8 mb 0.00 in0.0 mm 0.00 in0.0 mm 0.18 in4.6 mm
06:03 PM 35.1°F1.7°C 29.0°F-1.7°C 77% 5.8 mph WSW9.3 kmh WSW 7.4 mph11.9 kmh 29.85 in1010.8 mb 0.00 in0.0 mm 0.00 in0.0 mm 0.18 in4.6 mm
06:02 PM 35.1°F1.7°C 29.0°F-1.7°C 77% 5.8 mph WSW9.3 kmh WSW 7.4 mph11.9 kmh 29.85 in1010.8 mb 0.00 in0.0 mm 0.00 in0.0 mm 0.18 in4.6 mm
06:01 PM 35.1°F1.7°C 29.0°F-1.7°C 77% 5.8 mph WSW9.3 kmh WSW 7.4 mph11.9 kmh 29.85 in1010.8 mb 0.00 in0.0 mm 0.00 in0.0 mm 0.18 in4.6 mm
06:00 PM 35.1°F1.7°C 29.0°F-1.7°C 77% 10.3 mph SW16.6 kmh SW 15.0 mph24.1 kmh 29.85 in1010.8 mb 0.00 in0.0 mm 0.00 in0.0 mm 0.18 in4.6 mm
05:59 PM 35.1°F1.7°C 29.0°F-1.7°C 77% 10.3 mph SW16.6 kmh SW 15.0 mph24.1 kmh 29.85 in1010.8 mb 0.00 in0.0 mm 0.00 in0.0 mm 0.18 in4.6 mm
05:58 PM 35.1°F1.7°C 29.0°F-1.7°C 77% 10.3 mph SW16.6 kmh SW 15.0 mph24.1 kmh 29.85 in1010.8 mb 0.00 in0.0 mm 0.00 in0.0 mm 0.18 in4.6 mm
05:57 PM 35.1°F1.7°C 29.0°F-1.7°C 77% 10.3 mph SW16.6 kmh SW 15.0 mph24.1 kmh 29.85 in1010.8 mb 0.00 in0.0 mm 0.00 in0.0 mm 0.18 in4.6 mm
05:56 PM 35.1°F1.7°C 29.0°F-1.7°C 77% 10.3 mph SW16.6 kmh SW 15.0 mph24.1 kmh 29.85 in1010.8 mb 0.00 in0.0 mm 0.00 in0.0 mm 0.18 in4.6 mm
05:55 PM 35.2°F1.8°C 29.0°F-1.7°C 78% 8.3 mph W13.4 kmh W 9.8 mph15.8 kmh 29.80 in1009.1 mb 0.00 in0.0 mm 0.00 in0.0 mm 0.18 in4.6 mm
05:54 PM 35.2°F1.8°C 29.0°F-1.7°C 78% 8.3 mph W13.4 kmh W 9.8 mph15.8 kmh 29.80 in1009.1 mb 0.00 in0.0 mm 0.00 in0.0 mm 0.18 in4.6 mm
05:53 PM 35.2°F1.8°C 29.0°F-1.7°C 78% 8.3 mph W13.4 kmh W 9.8 mph15.8 kmh 29.80 in1009.1 mb 0.00 in0.0 mm 0.00 in0.0 mm 0.18 in4.6 mm
05:52 PM 35.2°F1.8°C 29.0°F-1.7°C 78% 8.3 mph W13.4 kmh W 9.8 mph15.8 kmh 29.80 in1009.1 mb 0.00 in0.0 mm 0.00 in0.0 mm 0.18 in4.6 mm
05:51 PM 35.2°F1.8°C 29.0°F-1.7°C 78% 8.3 mph W13.4 kmh W 9.8 mph15.8 kmh 29.80 in1009.1 mb 0.00 in0.0 mm 0.00 in0.0 mm 0.18 in4.6 mm
05:50 PM 35.2°F1.8°C 29.0°F-1.7°C 78% 3.4 mph WSW5.5 kmh WSW 4.9 mph7.9 kmh 29.80 in1009.1 mb 0.00 in0.0 mm 0.00 in0.0 mm 0.18 in4.6 mm
05:49 PM 35.2°F1.8°C 29.0°F-1.7°C 78% 3.4 mph WSW5.5 kmh WSW 4.9 mph7.9 kmh 29.80 in1009.1 mb 0.00 in0.0 mm 0.00 in0.0 mm 0.18 in4.6 mm
05:48 PM 35.2°F1.8°C 29.0°F-1.7°C 78% 3.4 mph WSW5.5 kmh WSW 4.9 mph7.9 kmh 29.80 in1009.1 mb 0.00 in0.0 mm 0.00 in0.0 mm 0.18 in4.6 mm
05:47 PM 35.2°F1.8°C 29.0°F-1.7°C 78% 3.4 mph WSW5.5 kmh WSW 4.9 mph7.9 kmh 29.80 in1009.1 mb 0.00 in0.0 mm 0.00 in0.0 mm 0.18 in4.6 mm
05:46 PM 35.2°F1.8°C 29.0°F-1.7°C 78% 3.4 mph WSW5.5 kmh WSW 4.9 mph7.9 kmh 29.80 in1009.1 mb 0.00 in0.0 mm 0.00 in0.0 mm 0.18 in4.6 mm
05:45 PM 35.4°F1.9°C 29.0°F-1.7°C 77% 12.8 mph W20.6 kmh W 15.0 mph24.1 kmh 29.80 in1009.1 mb 0.00 in0.0 mm 0.00 in0.0 mm 0.18 in4.6 mm
05:44 PM 35.4°F1.9°C 29.0°F-1.7°C 77% 12.8 mph W20.6 kmh W 15.0 mph24.1 kmh 29.80 in1009.1 mb 0.00 in0.0 mm 0.00 in0.0 mm 0.18 in4.6 mm
05:43 PM 35.4°F1.9°C 29.0°F-1.7°C 77% 12.8 mph W20.6 kmh W 15.0 mph24.1 kmh 29.80 in1009.1 mb 0.00 in0.0 mm 0.00 in0.0 mm 0.18 in4.6 mm
05:42 PM 35.4°F1.9°C 29.0°F-1.7°C 77% 12.8 mph W20.6 kmh W 15.0 mph24.1 kmh 29.80 in1009.1 mb 0.00 in0.0 mm 0.00 in0.0 mm 0.18 in4.6 mm
05:41 PM 35.4°F1.9°C 29.0°F-1.7°C 77% 12.8 mph W20.6 kmh W 15.0 mph24.1 kmh 29.80 in1009.1 mb 0.00 in0.0 mm 0.00 in0.0 mm 0.18 in4.6 mm
05:40 PM 35.4°F1.9°C 29.0°F-1.7°C 76% 2.7 mph WSW4.3 kmh WSW 4.9 mph7.9 kmh 29.80 in1009.1 mb 0.00 in0.0 mm 0.00 in0.0 mm 0.18 in4.6 mm
05:39 PM 35.4°F1.9°C 29.0°F-1.7°C 76% 2.7 mph WSW4.3 kmh WSW 4.9 mph7.9 kmh 29.80 in1009.1 mb 0.00 in0.0 mm 0.00 in0.0 mm 0.18 in4.6 mm
05:38 PM 35.4°F1.9°C 29.0°F-1.7°C 76% 2.7 mph WSW4.3 kmh WSW 4.9 mph7.9 kmh 29.80 in1009.1 mb 0.00 in0.0 mm 0.00 in0.0 mm 0.18 in4.6 mm
05:37 PM 35.4°F1.9°C 29.0°F-1.7°C 76% 2.7 mph WSW4.3 kmh WSW 4.9 mph7.9 kmh 29.80 in1009.1 mb 0.00 in0.0 mm 0.00 in0.0 mm 0.18 in4.6 mm
05:36 PM 35.4°F1.9°C 29.0°F-1.7°C 76% 2.7 mph WSW4.3 kmh WSW 4.9 mph7.9 kmh 29.80 in1009.1 mb 0.00 in0.0 mm 0.00 in0.0 mm 0.18 in4.6 mm
05:35 PM 35.6°F2.0°C 29.0°F-1.7°C 76% 6.7 mph SW10.8 kmh SW 7.4 mph11.9 kmh 29.80 in1009.1 mb 0.00 in0.0 mm 0.00 in0.0 mm 0.18 in4.6 mm
05:34 PM 35.6°F2.0°C 29.0°F-1.7°C 76% 6.7 mph SW10.8 kmh SW 7.4 mph11.9 kmh 29.80 in1009.1 mb 0.00 in0.0 mm 0.00 in0.0 mm 0.18 in4.6 mm
05:33 PM 35.6°F2.0°C 29.0°F-1.7°C 76% 6.7 mph SW10.8 kmh SW 7.4 mph11.9 kmh 29.80 in1009.1 mb 0.00 in0.0 mm 0.00 in0.0 mm 0.18 in4.6 mm
05:32 PM 35.6°F2.0°C 29.0°F-1.7°C 76% 6.7 mph SW10.8 kmh SW 7.4 mph11.9 kmh 29.80 in1009.1 mb 0.00 in0.0 mm 0.00 in0.0 mm 0.18 in4.6 mm
05:31 PM 35.6°F2.0°C 29.0°F-1.7°C 76% 6.7 mph SW10.8 kmh SW 7.4 mph11.9 kmh 29.80 in1009.1 mb 0.00 in0.0 mm 0.00 in0.0 mm 0.18 in4.6 mm
05:30 PM 35.6°F2.0°C 28.0°F-2.2°C 75% 5.6 mph SW9.0 kmh SW 7.4 mph11.9 kmh 29.80 in1009.1 mb 0.00 in0.0 mm 0.00 in0.0 mm 0.18 in4.6 mm
05:29 PM 35.6°F2.0°C 28.0°F-2.2°C 75% 5.6 mph SW9.0 kmh SW 7.4 mph11.9 kmh 29.80 in1009.1 mb 0.00 in0.0 mm 0.00 in0.0 mm 0.18 in4.6 mm
05:28 PM 35.6°F2.0°C 28.0°F-2.2°C 75% 5.6 mph SW9.0 kmh SW 7.4 mph11.9 kmh 29.80 in1009.1 mb 0.00 in0.0 mm 0.00 in0.0 mm 0.18 in4.6 mm
05:27 PM 35.6°F2.0°C 28.0°F-2.2°C 75% 5.6 mph SW9.0 kmh SW 7.4 mph11.9 kmh 29.80 in1009.1 mb 0.00 in0.0 mm 0.00 in0.0 mm 0.18 in4.6 mm
05:26 PM 35.6°F2.0°C 28.0°F-2.2°C 75% 5.6 mph SW9.0 kmh SW 7.4 mph11.9 kmh 29.80 in1009.1 mb 0.00 in0.0 mm 0.00 in0.0 mm 0.18 in4.6 mm
05:25 PM 35.8°F2.1°C 28.0°F-2.2°C 74% 4.9 mph SW7.9 kmh SW 7.4 mph11.9 kmh 29.80 in1009.1 mb 0.00 in0.0 mm 0.00 in0.0 mm 0.18 in4.6 mm
05:24 PM 35.8°F2.1°C 28.0°F-2.2°C 74% 4.9 mph SW7.9 kmh SW 7.4 mph11.9 kmh 29.80 in1009.1 mb 0.00 in0.0 mm 0.00 in0.0 mm 0.18 in4.6 mm
05:23 PM 35.8°F2.1°C 28.0°F-2.2°C 74% 4.9 mph SW7.9 kmh SW 7.4 mph11.9 kmh 29.80 in1009.1 mb 0.00 in0.0 mm 0.00 in0.0 mm 0.18 in4.6 mm
05:22 PM 35.8°F2.1°C 28.0°F-2.2°C 74% 4.9 mph SW7.9 kmh SW 7.4 mph11.9 kmh 29.80 in1009.1 mb 0.00 in0.0 mm 0.00 in0.0 mm 0.18 in4.6 mm
05:21 PM 35.8°F2.1°C 28.0°F-2.2°C 74% 4.9 mph SW7.9 kmh SW 7.4 mph11.9 kmh 29.80 in1009.1 mb 0.00 in0.0 mm 0.00 in0.0 mm 0.18 in4.6 mm
05:20 PM 36.0°F2.2°C 28.0°F-2.2°C 74% 0.2 mph S0.3 kmh S 2.5 mph4.0 kmh 29.80 in1009.1 mb 0.00 in0.0 mm 0.00 in0.0 mm 0.18 in4.6 mm
05:19 PM 36.0°F2.2°C 28.0°F-2.2°C 74% 0.2 mph S0.3 kmh S 2.5 mph4.0 kmh 29.80 in1009.1 mb 0.00 in0.0 mm 0.00 in0.0 mm 0.18 in4.6 mm
05:18 PM 36.0°F2.2°C 28.0°F-2.2°C 74% 0.2 mph S0.3 kmh S 2.5 mph4.0 kmh 29.80 in1009.1 mb 0.00 in0.0 mm 0.00 in0.0 mm 0.18 in4.6 mm
05:17 PM 36.0°F2.2°C 28.0°F-2.2°C 74% 0.2 mph S0.3 kmh S 2.5 mph4.0 kmh 29.80 in1009.1 mb 0.00 in0.0 mm 0.00 in0.0 mm 0.18 in4.6 mm
05:16 PM 36.0°F2.2°C 28.0°F-2.2°C 74% 0.2 mph S0.3 kmh S 2.5 mph4.0 kmh 29.80 in1009.1 mb 0.00 in0.0 mm 0.00 in0.0 mm 0.18 in4.6 mm
05:15 PM 36.0°F2.2°C 28.0°F-2.2°C 74% 11.9 mph WSW19.2 kmh WSW 17.4 mph28.0 kmh 29.80 in1009.1 mb 0.00 in0.0 mm 0.00 in0.0 mm 0.18 in4.6 mm
05:14 PM 36.0°F2.2°C 28.0°F-2.2°C 74% 11.9 mph WSW19.2 kmh WSW 17.4 mph28.0 kmh 29.80 in1009.1 mb 0.00 in0.0 mm 0.00 in0.0 mm 0.18 in4.6 mm
05:13 PM 36.0°F2.2°C 28.0°F-2.2°C 74% 11.9 mph WSW19.2 kmh WSW 17.4 mph28.0 kmh 29.80 in1009.1 mb 0.00 in0.0 mm 0.00 in0.0 mm 0.18 in4.6 mm
05:12 PM 36.0°F2.2°C 28.0°F-2.2°C 74% 11.9 mph WSW19.2 kmh WSW 17.4 mph28.0 kmh 29.80 in1009.1 mb 0.00 in0.0 mm 0.00 in0.0 mm 0.18 in4.6 mm
05:11 PM 36.0°F2.2°C 28.0°F-2.2°C 74% 11.9 mph WSW19.2 kmh WSW 17.4 mph28.0 kmh 29.80 in1009.1 mb 0.00 in0.0 mm 0.00 in0.0 mm 0.18 in4.6 mm
05:10 PM 36.0°F2.2°C 28.0°F-2.2°C 73% 3.4 mph W5.5 kmh W 7.4 mph11.9 kmh 29.80 in1009.1 mb 0.00 in0.0 mm 0.00 in0.0 mm 0.18 in4.6 mm
05:09 PM 36.0°F2.2°C 28.0°F-2.2°C 73% 3.4 mph W5.5 kmh W 7.4 mph11.9 kmh 29.80 in1009.1 mb 0.00 in0.0 mm 0.00 in0.0 mm 0.18 in4.6 mm
05:08 PM 36.0°F2.2°C 28.0°F-2.2°C 73% 3.4 mph W5.5 kmh W 7.4 mph11.9 kmh 29.80 in1009.1 mb 0.00 in0.0 mm 0.00 in0.0 mm 0.18 in4.6 mm
05:07 PM 36.0°F2.2°C 28.0°F-2.2°C 73% 3.4 mph W5.5 kmh W 7.4 mph11.9 kmh 29.80 in1009.1 mb 0.00 in0.0 mm 0.00 in0.0 mm 0.18 in4.6 mm
05:06 PM 36.0°F2.2°C 28.0°F-2.2°C 73% 3.4 mph W5.5 kmh W 7.4 mph11.9 kmh 29.80 in1009.1 mb 0.00 in0.0 mm 0.00 in0.0 mm 0.18 in4.6 mm
05:05 PM 36.1°F2.3°C 28.0°F-2.2°C 73% 10.5 mph WSW16.9 kmh WSW 12.3 mph19.8 kmh 29.80 in1009.1 mb 0.00 in0.0 mm 0.00 in0.0 mm 0.18 in4.6 mm
05:04 PM 36.1°F2.3°C 28.0°F-2.2°C 73% 10.5 mph WSW16.9 kmh WSW 12.3 mph19.8 kmh 29.80 in1009.1 mb 0.00 in0.0 mm 0.00 in0.0 mm 0.18 in4.6 mm
05:03 PM 36.1°F2.3°C 28.0°F-2.2°C 73% 10.5 mph WSW16.9 kmh WSW 12.3 mph19.8 kmh 29.80 in1009.1 mb 0.00 in0.0 mm 0.00 in0.0 mm 0.18 in4.6 mm
05:02 PM 36.1°F2.3°C 28.0°F-2.2°C 73% 10.5 mph WSW16.9 kmh WSW 12.3 mph19.8 kmh 29.80 in1009.1 mb 0.00 in0.0 mm 0.00 in0.0 mm 0.18 in4.6 mm
05:01 PM 36.1°F2.3°C 28.0°F-2.2°C 73% 10.5 mph WSW16.9 kmh WSW 12.3 mph19.8 kmh 29.80 in1009.1 mb 0.00 in0.0 mm 0.00 in0.0 mm 0.18 in4.6 mm
05:00 PM 36.1°F2.3°C 28.0°F-2.2°C 73% 4.9 mph WSW7.9 kmh WSW 7.4 mph11.9 kmh 29.75 in1007.5 mb 0.00 in0.0 mm 0.00 in0.0 mm 0.18 in4.6 mm
04:59 PM 36.1°F2.3°C 28.0°F-2.2°C 73% 4.9 mph WSW7.9 kmh WSW 7.4 mph11.9 kmh 29.75 in1007.5 mb 0.00 in0.0 mm 0.00 in0.0 mm 0.18 in4.6 mm
04:58 PM 36.1°F2.3°C 28.0°F-2.2°C 73% 4.9 mph WSW7.9 kmh WSW 7.4 mph11.9 kmh 29.75 in1007.5 mb 0.00 in0.0 mm 0.00 in0.0 mm 0.18 in4.6 mm
04:57 PM 36.1°F2.3°C 28.0°F-2.2°C 73% 4.9 mph WSW7.9 kmh WSW 7.4 mph11.9 kmh 29.75 in1007.5 mb 0.00 in0.0 mm 0.00 in0.0 mm 0.18 in4.6 mm
04:56 PM 36.1°F2.3°C 28.0°F-2.2°C 73% 4.9 mph WSW7.9 kmh WSW 7.4 mph11.9 kmh 29.75 in1007.5 mb 0.00 in0.0 mm 0.00 in0.0 mm 0.18 in4.6 mm
04:55 PM 36.1°F2.3°C 28.0°F-2.2°C 73% 4.9 mph WSW7.9 kmh WSW 7.4 mph11.9 kmh 29.75 in1007.5 mb 0.00 in0.0 mm 0.00 in0.0 mm 0.18 in4.6 mm
04:54 PM 36.3°F2.4°C 28.0°F-2.2°C 72% 6.5 mph W10.5 kmh W 7.4 mph11.9 kmh 29.75 in1007.5 mb 0.00 in0.0 mm 0.00 in0.0 mm 0.18 in4.6 mm
04:53 PM 36.3°F2.4°C 28.0°F-2.2°C 72% 6.5 mph W10.5 kmh W 7.4 mph11.9 kmh 29.75 in1007.5 mb 0.00 in0.0 mm 0.00 in0.0 mm 0.18 in4.6 mm
04:52 PM 36.3°F2.4°C 28.0°F-2.2°C 72% 6.5 mph W10.5 kmh W 7.4 mph11.9 kmh 29.75 in1007.5 mb 0.00 in0.0 mm 0.00 in0.0 mm 0.18 in4.6 mm
04:51 PM 36.3°F2.4°C 28.0°F-2.2°C 72% 6.5 mph W10.5 kmh W 7.4 mph11.9 kmh 29.75 in1007.5 mb 0.00 in0.0 mm 0.00 in0.0 mm 0.18 in4.6 mm
04:50 PM 36.3°F2.4°C 28.0°F-2.2°C 72% 6.5 mph W10.5 kmh W 7.4 mph11.9 kmh 29.75 in1007.5 mb 0.00 in0.0 mm 0.00 in0.0 mm 0.18 in4.6 mm
04:49 PM 36.3°F2.4°C 28.0°F-2.2°C 72% 10.5 mph WNW16.9 kmh WNW 12.3 mph19.8 kmh 29.75 in1007.5 mb 0.00 in0.0 mm 0.00 in0.0 mm 0.18 in4.6 mm
04:48 PM 36.3°F2.4°C 28.0°F-2.2°C 72% 10.5 mph WNW16.9 kmh WNW 12.3 mph19.8 kmh 29.75 in1007.5 mb 0.00 in0.0 mm 0.00 in0.0 mm 0.18 in4.6 mm
04:47 PM 36.3°F2.4°C 28.0°F-2.2°C 72% 10.5 mph WNW16.9 kmh WNW 12.3 mph19.8 kmh 29.75 in1007.5 mb 0.00 in0.0 mm 0.00 in0.0 mm 0.18 in4.6 mm
04:46 PM 36.3°F2.4°C 28.0°F-2.2°C 72% 10.5 mph WNW16.9 kmh WNW 12.3 mph19.8 kmh 29.75 in1007.5 mb 0.00 in0.0 mm 0.00 in0.0 mm 0.18 in4.6 mm
04:45 PM 36.3°F2.4°C 28.0°F-2.2°C 72% 10.5 mph WNW16.9 kmh WNW 12.3 mph19.8 kmh 29.75 in1007.5 mb 0.00 in0.0 mm 0.00 in0.0 mm 0.18 in4.6 mm
04:44 PM 36.3°F2.4°C 28.0°F-2.2°C 72% 4.9 mph WSW7.9 kmh WSW 7.4 mph11.9 kmh 29.75 in1007.5 mb 0.00 in0.0 mm 0.00 in0.0 mm 0.18 in4.6 mm
04:43 PM 36.3°F2.4°C 28.0°F-2.2°C 72% 4.9 mph WSW7.9 kmh WSW 7.4 mph11.9 kmh 29.75 in1007.5 mb 0.00 in0.0 mm 0.00 in0.0 mm 0.18 in4.6 mm
04:42 PM 36.3°F2.4°C 28.0°F-2.2°C 72% 4.9 mph WSW7.9 kmh WSW 7.4 mph11.9 kmh 29.75 in1007.5 mb 0.00 in0.0 mm 0.00 in0.0 mm 0.18 in4.6 mm
04:41 PM 36.3°F2.4°C 28.0°F-2.2°C 72% 4.9 mph WSW7.9 kmh WSW 7.4 mph11.9 kmh 29.75 in1007.5 mb 0.00 in0.0 mm 0.00 in0.0 mm 0.18 in4.6 mm
04:40 PM 36.3°F2.4°C 28.0°F-2.2°C 72% 4.9 mph WSW7.9 kmh WSW 7.4 mph11.9 kmh 29.75 in1007.5 mb 0.00 in0.0 mm 0.00 in0.0 mm 0.18 in4.6 mm
04:39 PM 36.5°F2.5°C 28.0°F-2.2°C 72% 9.6 mph NW15.4 kmh NW 12.3 mph19.8 kmh 29.75 in1007.5 mb 0.00 in0.0 mm 0.00 in0.0 mm 0.18 in4.6 mm
04:38 PM 36.5°F2.5°C 28.0°F-2.2°C 72% 9.6 mph NW15.4 kmh NW 12.3 mph19.8 kmh 29.75 in1007.5 mb 0.00 in0.0 mm 0.00 in0.0 mm 0.18 in4.6 mm
04:37 PM 36.5°F2.5°C 28.0°F-2.2°C 72% 9.6 mph NW15.4 kmh NW 12.3 mph19.8 kmh 29.75 in1007.5 mb 0.00 in0.0 mm 0.00 in0.0 mm 0.18 in4.6 mm
04:36 PM 36.5°F2.5°C 28.0°F-2.2°C 72% 9.6 mph NW15.4 kmh NW 12.3 mph19.8 kmh 29.75 in1007.5 mb 0.00 in0.0 mm 0.00 in0.0 mm 0.18 in4.6 mm
04:35 PM 36.5°F2.5°C 28.0°F-2.2°C 72% 9.6 mph NW15.4 kmh NW 12.3 mph19.8 kmh 29.75 in1007.5 mb 0.00 in0.0 mm 0.00 in0.0 mm 0.18 in4.6 mm
04:34 PM 36.5°F2.5°C 28.0°F-2.2°C 72% 13.9 mph WSW22.4 kmh WSW 17.4 mph28.0 kmh 29.68 in1005.1 mb 0.00 in0.0 mm 0.00 in0.0 mm 0.31 in7.9 mm
04:33 PM 36.5°F2.5°C 28.0°F-2.2°C 72% 13.9 mph WSW22.4 kmh WSW 17.4 mph28.0 kmh 29.68 in1005.1 mb 0.00 in0.0 mm 0.00 in0.0 mm 0.31 in7.9 mm
04:32 PM 36.5°F2.5°C 28.0°F-2.2°C 72% 13.9 mph WSW22.4 kmh WSW 17.4 mph28.0 kmh 29.68 in1005.1 mb 0.00 in0.0 mm 0.00 in0.0 mm 0.31 in7.9 mm
04:31 PM 36.5°F2.5°C 28.0°F-2.2°C 72% 13.9 mph WSW22.4 kmh WSW 17.4 mph28.0 kmh 29.68 in1005.1 mb 0.00 in0.0 mm 0.00 in0.0 mm 0.31 in7.9 mm
04:30 PM 36.5°F2.5°C 28.0°F-2.2°C 72% 13.9 mph WSW22.4 kmh WSW 17.4 mph28.0 kmh 29.68 in1005.1 mb 0.00 in0.0 mm 0.00 in0.0 mm 0.31 in7.9 mm
04:29 PM 36.5°F2.5°C 29.0°F-1.7°C 73% 15.4 mph W24.8 kmh W 22.4 mph36.0 kmh 29.75 in1007.5 mb 0.00 in0.0 mm 0.00 in0.0 mm 0.18 in4.6 mm
04:28 PM 36.5°F2.5°C 29.0°F-1.7°C 73% 15.4 mph W24.8 kmh W 22.4 mph36.0 kmh 29.75 in1007.5 mb 0.00 in0.0 mm 0.00 in0.0 mm 0.18 in4.6 mm
04:27 PM 36.5°F2.5°C 29.0°F-1.7°C 73% 15.4 mph W24.8 kmh W 22.4 mph36.0 kmh 29.75 in1007.5 mb 0.00 in0.0 mm 0.00 in0.0 mm 0.18 in4.6 mm
04:26 PM 36.5°F2.5°C 29.0°F-1.7°C 73% 15.4 mph W24.8 kmh W 22.4 mph36.0 kmh 29.75 in1007.5 mb 0.00 in0.0 mm 0.00 in0.0 mm 0.18 in4.6 mm
04:25 PM 36.5°F2.5°C 29.0°F-1.7°C 73% 15.4 mph W24.8 kmh W 22.4 mph36.0 kmh 29.75 in1007.5 mb 0.00 in0.0 mm 0.00 in0.0 mm 0.18 in4.6 mm
04:24 PM 36.5°F2.5°C 29.0°F-1.7°C 74% 7.6 mph WSW12.2 kmh WSW 9.8 mph15.8 kmh 29.75 in1007.5 mb 0.00 in0.0 mm 0.00 in0.0 mm 0.18 in4.6 mm
04:23 PM 36.5°F2.5°C 29.0°F-1.7°C 74% 7.6 mph WSW12.2 kmh WSW 9.8 mph15.8 kmh 29.75 in1007.5 mb 0.00 in0.0 mm 0.00 in0.0 mm 0.18 in4.6 mm
04:22 PM 36.5°F2.5°C 29.0°F-1.7°C 74% 7.6 mph WSW12.2 kmh WSW 9.8 mph15.8 kmh 29.75 in1007.5 mb 0.00 in0.0 mm 0.00 in0.0 mm 0.18 in4.6 mm
04:21 PM 36.5°F2.5°C 29.0°F-1.7°C 74% 7.6 mph WSW12.2 kmh WSW 9.8 mph15.8 kmh 29.75 in1007.5 mb 0.00 in0.0 mm 0.00 in0.0 mm 0.18 in4.6 mm
04:20 PM 36.5°F2.5°C 29.0°F-1.7°C 74% 7.6 mph WSW12.2 kmh WSW 9.8 mph15.8 kmh 29.75 in1007.5 mb 0.00 in0.0 mm 0.00 in0.0 mm 0.18 in4.6 mm
04:19 PM 36.5°F2.5°C 29.0°F-1.7°C 75% 7.6 mph WSW12.2 kmh WSW 9.8 mph15.8 kmh 29.75 in1007.5 mb 0.00 in0.0 mm 0.00 in0.0 mm 0.18 in4.6 mm
04:18 PM 36.5°F2.5°C 29.0°F-1.7°C 75% 7.6 mph WSW12.2 kmh WSW 9.8 mph15.8 kmh 29.75 in1007.5 mb 0.00 in0.0 mm 0.00 in0.0 mm 0.18 in4.6 mm
04:17 PM 36.5°F2.5°C 29.0°F-1.7°C 75% 7.6 mph WSW12.2 kmh WSW 9.8 mph15.8 kmh 29.75 in1007.5 mb 0.00 in0.0 mm 0.00 in0.0 mm 0.18 in4.6 mm
04:16 PM 36.5°F2.5°C 29.0°F-1.7°C 75% 7.6 mph WSW12.2 kmh WSW 9.8 mph15.8 kmh 29.75 in1007.5 mb 0.00 in0.0 mm 0.00 in0.0 mm 0.18 in4.6 mm
04:15 PM 36.5°F2.5°C 29.0°F-1.7°C 75% 7.6 mph WSW12.2 kmh WSW 9.8 mph15.8 kmh 29.75 in1007.5 mb 0.00 in0.0 mm 0.00 in0.0 mm 0.18 in4.6 mm
04:14 PM 36.5°F2.5°C 30.0°F-1.1°C 78% 8.3 mph WSW13.4 kmh WSW 9.8 mph15.8 kmh 29.75 in1007.5 mb 0.00 in0.0 mm 0.00 in0.0 mm 0.18 in4.6 mm
04:13 PM 36.5°F2.5°C 30.0°F-1.1°C 78% 8.3 mph WSW13.4 kmh WSW 9.8 mph15.8 kmh 29.75 in1007.5 mb 0.00 in0.0 mm 0.00 in0.0 mm 0.18 in4.6 mm
04:12 PM 36.5°F2.5°C 30.0°F-1.1°C 78% 8.3 mph WSW13.4 kmh WSW 9.8 mph15.8 kmh 29.75 in1007.5 mb 0.00 in0.0 mm 0.00 in0.0 mm 0.18 in4.6 mm
04:11 PM 36.5°F2.5°C 30.0°F-1.1°C 78% 8.3 mph WSW13.4 kmh WSW 9.8 mph15.8 kmh 29.75 in1007.5 mb 0.00 in0.0 mm 0.00 in0.0 mm 0.18 in4.6 mm
04:10 PM 36.5°F2.5°C 30.0°F-1.1°C 78% 8.3 mph WSW13.4 kmh WSW 9.8 mph15.8 kmh 29.75 in1007.5 mb 0.00 in0.0 mm 0.00 in0.0 mm 0.18 in4.6 mm
04:09 PM 36.5°F2.5°C 30.0°F-1.1°C 78% 8.3 mph WSW13.4 kmh WSW 9.8 mph15.8 kmh 29.75 in1007.5 mb 0.00 in0.0 mm 0.00 in0.0 mm 0.18 in4.6 mm
04:08 PM 36.5°F2.5°C 31.0°F-0.6°C 79% 6.7 mph WSW10.8 kmh WSW 7.4 mph11.9 kmh 29.75 in1007.5 mb 0.00 in0.0 mm 0.00 in0.0 mm 0.18 in4.6 mm
04:07 PM 36.5°F2.5°C 31.0°F-0.6°C 79% 6.7 mph WSW10.8 kmh WSW 7.4 mph11.9 kmh 29.75 in1007.5 mb 0.00 in0.0 mm 0.00 in0.0 mm 0.18 in4.6 mm
04:06 PM 36.5°F2.5°C 31.0°F-0.6°C 79% 6.7 mph WSW10.8 kmh WSW 7.4 mph11.9 kmh 29.75 in1007.5 mb 0.00 in0.0 mm 0.00 in0.0 mm 0.18 in4.6 mm
04:05 PM 36.5°F2.5°C 31.0°F-0.6°C 79% 6.7 mph WSW10.8 kmh WSW 7.4 mph11.9 kmh 29.75 in1007.5 mb 0.00 in0.0 mm 0.00 in0.0 mm 0.18 in4.6 mm
04:04 PM 36.5°F2.5°C 31.0°F-0.6°C 79% 6.7 mph WSW10.8 kmh WSW 7.4 mph11.9 kmh 29.75 in1007.5 mb 0.00 in0.0 mm 0.00 in0.0 mm 0.18 in4.6 mm
04:03 PM 36.5°F2.5°C 31.0°F-0.6°C 79% 8.1 mph WSW13.0 kmh WSW 9.8 mph15.8 kmh 29.75 in1007.5 mb 0.00 in0.0 mm 0.00 in0.0 mm 0.18 in4.6 mm
04:02 PM 36.5°F2.5°C 31.0°F-0.6°C 79% 8.1 mph WSW13.0 kmh WSW 9.8 mph15.8 kmh 29.75 in1007.5 mb 0.00 in0.0 mm 0.00 in0.0 mm 0.18 in4.6 mm
04:01 PM 36.5°F2.5°C 31.0°F-0.6°C 79% 8.1 mph WSW13.0 kmh WSW 9.8 mph15.8 kmh 29.75 in1007.5 mb 0.00 in0.0 mm 0.00 in0.0 mm 0.18 in4.6 mm
04:00 PM 36.5°F2.5°C 31.0°F-0.6°C 79% 8.1 mph WSW13.0 kmh WSW 9.8 mph15.8 kmh 29.75 in1007.5 mb 0.00 in0.0 mm 0.00 in0.0 mm 0.18 in4.6 mm
03:59 PM 36.5°F2.5°C 31.0°F-0.6°C 79% 8.1 mph WSW13.0 kmh WSW 9.8 mph15.8 kmh 29.75 in1007.5 mb 0.00 in0.0 mm 0.00 in0.0 mm 0.18 in4.6 mm
03:58 PM 36.5°F2.5°C 31.0°F-0.6°C 79% 6.5 mph W10.5 kmh W 9.8 mph15.8 kmh 29.71 in1006.1 mb 0.00 in0.0 mm 0.00 in0.0 mm 0.18 in4.6 mm
03:57 PM 36.5°F2.5°C 31.0°F-0.6°C 79% 6.5 mph W10.5 kmh W 9.8 mph15.8 kmh 29.71 in1006.1 mb 0.00 in0.0 mm 0.00 in0.0 mm 0.18 in4.6 mm
03:56 PM 36.5°F2.5°C 31.0°F-0.6°C 79% 6.5 mph W10.5 kmh W 9.8 mph15.8 kmh 29.71 in1006.1 mb 0.00 in0.0 mm 0.00 in0.0 mm 0.18 in4.6 mm
03:55 PM 36.5°F2.5°C 31.0°F-0.6°C 79% 6.5 mph W10.5 kmh W 9.8 mph15.8 kmh 29.71 in1006.1 mb 0.00 in0.0 mm 0.00 in0.0 mm 0.18 in4.6 mm
03:54 PM 36.5°F2.5°C 31.0°F-0.6°C 79% 6.5 mph W10.5 kmh W 9.8 mph15.8 kmh 29.71 in1006.1 mb 0.00 in0.0 mm 0.00 in0.0 mm 0.18 in4.6 mm
03:53 PM 36.7°F2.6°C 31.0°F-0.6°C 80% 8.1 mph WSW13.0 kmh WSW 9.8 mph15.8 kmh 29.71 in1006.1 mb 0.00 in0.0 mm 0.00 in0.0 mm 0.18 in4.6 mm
03:52 PM 36.7°F2.6°C 31.0°F-0.6°C 80% 8.1 mph WSW13.0 kmh WSW 9.8 mph15.8 kmh 29.71 in1006.1 mb 0.00 in0.0 mm 0.00 in0.0 mm 0.18 in4.6 mm
03:51 PM 36.7°F2.6°C 31.0°F-0.6°C 80% 8.1 mph WSW13.0 kmh WSW 9.8 mph15.8 kmh 29.71 in1006.1 mb 0.00 in0.0 mm 0.00 in0.0 mm 0.18 in4.6 mm
03:50 PM 36.7°F2.6°C 31.0°F-0.6°C 80% 8.1 mph WSW13.0 kmh WSW 9.8 mph15.8 kmh 29.71 in1006.1 mb 0.00 in0.0 mm 0.00 in0.0 mm 0.18 in4.6 mm
03:49 PM 36.7°F2.6°C 31.0°F-0.6°C 80% 8.1 mph WSW13.0 kmh WSW 9.8 mph15.8 kmh 29.71 in1006.1 mb 0.00 in0.0 mm 0.00 in0.0 mm 0.18 in4.6 mm
03:48 PM 37.0°F2.8°C 32.0°F0.0°C 80% 6.0 mph WSW9.7 kmh WSW 7.4 mph11.9 kmh 29.71 in1006.1 mb 0.00 in0.0 mm 0.00 in0.0 mm 0.18 in4.6 mm
03:47 PM 37.0°F2.8°C 32.0°F0.0°C 80% 6.0 mph WSW9.7 kmh WSW 7.4 mph11.9 kmh 29.71 in1006.1 mb 0.00 in0.0 mm 0.00 in0.0 mm 0.18 in4.6 mm
03:46 PM 37.0°F2.8°C 32.0°F0.0°C 80% 6.0 mph WSW9.7 kmh WSW 7.4 mph11.9 kmh 29.71 in1006.1 mb 0.00 in0.0 mm 0.00 in0.0 mm 0.18 in4.6 mm
03:45 PM 37.0°F2.8°C 32.0°F0.0°C 80% 6.0 mph WSW9.7 kmh WSW 7.4 mph11.9 kmh 29.71 in1006.1 mb 0.00 in0.0 mm 0.00 in0.0 mm 0.18 in4.6 mm
03:44 PM 37.0°F2.8°C 32.0°F0.0°C 80% 6.0 mph WSW9.7 kmh WSW 7.4 mph11.9 kmh 29.71 in1006.1 mb 0.00 in0.0 mm 0.00 in0.0 mm 0.18 in4.6 mm
03:43 PM 37.4°F3.0°C 32.0°F0.0°C 80% 4.3 mph W6.9 kmh W 7.4 mph11.9 kmh 29.71 in1006.1 mb 0.00 in0.0 mm 0.00 in0.0 mm 0.18 in4.6 mm
03:42 PM 37.4°F3.0°C 32.0°F0.0°C 80% 4.3 mph W6.9 kmh W 7.4 mph11.9 kmh 29.71 in1006.1 mb 0.00 in0.0 mm 0.00 in0.0 mm 0.18 in4.6 mm
03:41 PM 37.4°F3.0°C 32.0°F0.0°C 80% 4.3 mph W6.9 kmh W 7.4 mph11.9 kmh 29.71 in1006.1 mb 0.00 in0.0 mm 0.00 in0.0 mm 0.18 in4.6 mm
03:40 PM 37.4°F3.0°C 32.0°F0.0°C 80% 4.3 mph W6.9 kmh W 7.4 mph11.9 kmh 29.71 in1006.1 mb 0.00 in0.0 mm 0.00 in0.0 mm 0.18 in4.6 mm
03:39 PM 37.4°F3.0°C 32.0°F0.0°C 80% 4.3 mph W6.9 kmh W 7.4 mph11.9 kmh 29.71 in1006.1 mb 0.00 in0.0 mm 0.00 in0.0 mm 0.18 in4.6 mm
03:38 PM 37.8°F3.2°C 32.0°F0.0°C 79% 7.6 mph WSW12.2 kmh WSW 12.3 mph19.8 kmh 29.71 in1006.1 mb 0.00 in0.0 mm 0.00 in0.0 mm 0.18 in4.6 mm
03:37 PM 37.8°F3.2°C 32.0°F0.0°C 79% 7.6 mph WSW12.2 kmh WSW 12.3 mph19.8 kmh 29.71 in1006.1 mb 0.00 in0.0 mm 0.00 in0.0 mm 0.18 in4.6 mm
03:36 PM 37.8°F3.2°C 32.0°F0.0°C 79% 7.6 mph WSW12.2 kmh WSW 12.3 mph19.8 kmh 29.71 in1006.1 mb 0.00 in0.0 mm 0.00 in0.0 mm 0.18 in4.6 mm
03:35 PM 37.8°F3.2°C 32.0°F0.0°C 79% 7.6 mph WSW12.2 kmh WSW 12.3 mph19.8 kmh 29.71 in1006.1 mb 0.00 in0.0 mm 0.00 in0.0 mm 0.18 in4.6 mm
03:34 PM 37.8°F3.2°C 32.0°F0.0°C 79% 7.6 mph WSW12.2 kmh WSW 12.3 mph19.8 kmh 29.71 in1006.1 mb 0.00 in0.0 mm 0.00 in0.0 mm 0.18 in4.6 mm
03:33 PM 38.1°F3.4°C 32.0°F0.0°C 78% 8.3 mph WSW13.4 kmh WSW 9.8 mph15.8 kmh 29.71 in1006.1 mb 0.00 in0.0 mm 0.00 in0.0 mm 0.18 in4.6 mm
03:32 PM 38.1°F3.4°C 32.0°F0.0°C 78% 8.3 mph WSW13.4 kmh WSW 9.8 mph15.8 kmh 29.71 in1006.1 mb 0.00 in0.0 mm 0.00 in0.0 mm 0.18 in4.6 mm
03:31 PM 38.1°F3.4°C 32.0°F0.0°C 78% 8.3 mph WSW13.4 kmh WSW 9.8 mph15.8 kmh 29.71 in1006.1 mb 0.00 in0.0 mm 0.00 in0.0 mm 0.18 in4.6 mm
03:30 PM 38.1°F3.4°C 32.0°F0.0°C 78% 8.3 mph WSW13.4 kmh WSW 9.8 mph15.8 kmh 29.71 in1006.1 mb 0.00 in0.0 mm 0.00 in0.0 mm 0.18 in4.6 mm
03:29 PM 38.1°F3.4°C 32.0°F0.0°C 78% 8.3 mph WSW13.4 kmh WSW 9.8 mph15.8 kmh 29.71 in1006.1 mb 0.00 in0.0 mm 0.00 in0.0 mm 0.18 in4.6 mm
03:28 PM 38.5°F3.6°C 31.0°F-0.6°C 74% 4.5 mph WSW7.2 kmh WSW 7.4 mph11.9 kmh 29.71 in1006.1 mb 0.00 in0.0 mm 0.00 in0.0 mm 0.18 in4.6 mm
03:27 PM 38.5°F3.6°C 31.0°F-0.6°C 74% 4.5 mph WSW7.2 kmh WSW 7.4 mph11.9 kmh 29.71 in1006.1 mb 0.00 in0.0 mm 0.00 in0.0 mm 0.18 in4.6 mm
03:26 PM 38.5°F3.6°C 31.0°F-0.6°C 74% 4.5 mph WSW7.2 kmh WSW 7.4 mph11.9 kmh 29.71 in1006.1 mb 0.00 in0.0 mm 0.00 in0.0 mm 0.18 in4.6 mm
03:25 PM 38.5°F3.6°C 31.0°F-0.6°C 74% 4.5 mph WSW7.2 kmh WSW 7.4 mph11.9 kmh 29.71 in1006.1 mb 0.00 in0.0 mm 0.00 in0.0 mm 0.18 in4.6 mm
03:24 PM 38.5°F3.6°C 31.0°F-0.6°C 74% 4.5 mph WSW7.2 kmh WSW 7.4 mph11.9 kmh 29.71 in1006.1 mb 0.00 in0.0 mm 0.00 in0.0 mm 0.18 in4.6 mm
03:23 PM 38.7°F3.7°C 32.0°F0.0°C 76% 6.7 mph WSW10.8 kmh WSW 7.4 mph11.9 kmh 29.71 in1006.1 mb 0.00 in0.0 mm 0.00 in0.0 mm 0.17 in4.3 mm
03:22 PM 38.7°F3.7°C 32.0°F0.0°C 76% 6.7 mph WSW10.8 kmh WSW 7.4 mph11.9 kmh 29.71 in1006.1 mb 0.00 in0.0 mm 0.00 in0.0 mm 0.17 in4.3 mm
03:21 PM 38.7°F3.7°C 32.0°F0.0°C 76% 6.7 mph WSW10.8 kmh WSW 7.4 mph11.9 kmh 29.71 in1006.1 mb 0.00 in0.0 mm 0.00 in0.0 mm 0.17 in4.3 mm
03:20 PM 38.7°F3.7°C 32.0°F0.0°C 76% 6.7 mph WSW10.8 kmh WSW 7.4 mph11.9 kmh 29.71 in1006.1 mb 0.00 in0.0 mm 0.00 in0.0 mm 0.17 in4.3 mm
03:19 PM 38.7°F3.7°C 32.0°F0.0°C 76% 6.7 mph WSW10.8 kmh WSW 7.4 mph11.9 kmh 29.71 in1006.1 mb 0.00 in0.0 mm 0.00 in0.0 mm 0.17 in4.3 mm
03:18 PM 38.7°F3.7°C 32.0°F0.0°C 75% 5.1 mph WSW8.2 kmh WSW 7.4 mph11.9 kmh 29.71 in1006.1 mb 0.00 in0.0 mm 0.00 in0.0 mm 0.17 in4.3 mm
03:17 PM 38.7°F3.7°C 32.0°F0.0°C 75% 5.1 mph WSW8.2 kmh WSW 7.4 mph11.9 kmh 29.71 in1006.1 mb 0.00 in0.0 mm 0.00 in0.0 mm 0.17 in4.3 mm
03:16 PM 38.7°F3.7°C 32.0°F0.0°C 75% 5.1 mph WSW8.2 kmh WSW 7.4 mph11.9 kmh 29.71 in1006.1 mb 0.00 in0.0 mm 0.00 in0.0 mm 0.17 in4.3 mm
03:15 PM 38.7°F3.7°C 32.0°F0.0°C 75% 5.1 mph WSW8.2 kmh WSW 7.4 mph11.9 kmh 29.71 in1006.1 mb 0.00 in0.0 mm 0.00 in0.0 mm 0.17 in4.3 mm
03:14 PM 38.7°F3.7°C 32.0°F0.0°C 75% 5.1 mph WSW8.2 kmh WSW 7.4 mph11.9 kmh 29.71 in1006.1 mb 0.00 in0.0 mm 0.00 in0.0 mm 0.17 in4.3 mm
03:13 PM 38.5°F3.6°C 32.0°F0.0°C 76% 9.8 mph WSW15.8 kmh WSW 12.3 mph19.8 kmh 29.71 in1006.1 mb 0.00 in0.0 mm 0.00 in0.0 mm 0.17 in4.3 mm
03:12 PM 38.5°F3.6°C 32.0°F0.0°C 76% 9.8 mph WSW15.8 kmh WSW 12.3 mph19.8 kmh 29.71 in1006.1 mb 0.00 in0.0 mm 0.00 in0.0 mm 0.17 in4.3 mm
03:11 PM 38.5°F3.6°C 32.0°F0.0°C 76% 9.8 mph WSW15.8 kmh WSW 12.3 mph19.8 kmh 29.71 in1006.1 mb 0.00 in0.0 mm 0.00 in0.0 mm 0.17 in4.3 mm
03:10 PM 38.5°F3.6°C 32.0°F0.0°C 76% 9.8 mph WSW15.8 kmh WSW 12.3 mph19.8 kmh 29.71 in1006.1 mb 0.00 in0.0 mm 0.00 in0.0 mm 0.17 in4.3 mm
03:09 PM 38.5°F3.6°C 32.0°F0.0°C 76% 9.8 mph WSW15.8 kmh WSW 12.3 mph19.8 kmh 29.71 in1006.1 mb 0.00 in0.0 mm 0.00 in0.0 mm 0.17 in4.3 mm
03:08 PM 38.5°F3.6°C 32.0°F0.0°C 76% 4.5 mph WSW7.2 kmh WSW 7.4 mph11.9 kmh 29.71 in1006.1 mb 0.00 in0.0 mm 0.00 in0.0 mm 0.17 in4.3 mm
03:07 PM 38.5°F3.6°C 32.0°F0.0°C 76% 4.5 mph WSW7.2 kmh WSW 7.4 mph11.9 kmh 29.71 in1006.1 mb 0.00 in0.0 mm 0.00 in0.0 mm 0.17 in4.3 mm
03:06 PM 38.5°F3.6°C 32.0°F0.0°C 76% 4.5 mph WSW7.2 kmh WSW 7.4 mph11.9 kmh 29.71 in1006.1 mb 0.00 in0.0 mm 0.00 in0.0 mm 0.17 in4.3 mm
03:05 PM 38.5°F3.6°C 32.0°F0.0°C 76% 4.5 mph WSW7.2 kmh WSW 7.4 mph11.9 kmh 29.71 in1006.1 mb 0.00 in0.0 mm 0.00 in0.0 mm 0.17 in4.3 mm
03:04 PM 38.5°F3.6°C 32.0°F0.0°C 76% 4.5 mph WSW7.2 kmh WSW 7.4 mph11.9 kmh 29.71 in1006.1 mb 0.00 in0.0 mm 0.00 in0.0 mm 0.17 in4.3 mm
03:03 PM 38.3°F3.5°C 31.0°F-0.6°C 75% 6.5 mph WSW10.5 kmh WSW 9.8 mph15.8 kmh 29.71 in1006.1 mb 0.00 in0.0 mm 0.00 in0.0 mm 0.17 in4.3 mm
03:02 PM 38.3°F3.5°C 31.0°F-0.6°C 75% 6.5 mph WSW10.5 kmh WSW 9.8 mph15.8 kmh 29.71 in1006.1 mb 0.00 in0.0 mm 0.00 in0.0 mm 0.17 in4.3 mm
03:01 PM 38.3°F3.5°C 31.0°F-0.6°C 75% 6.5 mph WSW10.5 kmh WSW 9.8 mph15.8 kmh 29.71 in1006.1 mb 0.00 in0.0 mm 0.00 in0.0 mm 0.17 in4.3 mm
03:00 PM 38.3°F3.5°C 31.0°F-0.6°C 75% 6.5 mph WSW10.5 kmh WSW 9.8 mph15.8 kmh 29.71 in1006.1 mb 0.00 in0.0 mm 0.00 in0.0 mm 0.17 in4.3 mm
02:59 PM 38.3°F3.5°C 31.0°F-0.6°C 75% 6.5 mph WSW10.5 kmh WSW 9.8 mph15.8 kmh 29.71 in1006.1 mb 0.00 in0.0 mm 0.00 in0.0 mm 0.17 in4.3 mm
02:58 PM 38.3°F3.5°C 31.0°F-0.6°C 75% 7.2 mph WSW11.6 kmh WSW 7.4 mph11.9 kmh 29.68 in1005.1 mb 0.00 in0.0 mm 0.00 in0.0 mm 0.17 in4.3 mm
02:57 PM 38.3°F3.5°C 31.0°F-0.6°C 75% 7.2 mph WSW11.6 kmh WSW 7.4 mph11.9 kmh 29.68 in1005.1 mb 0.00 in0.0 mm 0.00 in0.0 mm 0.17 in4.3 mm
02:56 PM 38.3°F3.5°C 31.0°F-0.6°C 75% 7.2 mph WSW11.6 kmh WSW 7.4 mph11.9 kmh 29.68 in1005.1 mb 0.00 in0.0 mm 0.00 in0.0 mm 0.17 in4.3 mm
02:55 PM 38.3°F3.5°C 31.0°F-0.6°C 75% 7.2 mph WSW11.6 kmh WSW 7.4 mph11.9 kmh 29.68 in1005.1 mb 0.00 in0.0 mm 0.00 in0.0 mm 0.17 in4.3 mm
02:54 PM 38.3°F3.5°C 31.0°F-0.6°C 75% 7.2 mph WSW11.6 kmh WSW 7.4 mph11.9 kmh 29.68 in1005.1 mb 0.00 in0.0 mm 0.00 in0.0 mm 0.17 in4.3 mm
02:53 PM 38.3°F3.5°C 32.0°F0.0°C 76% 15.0 mph WNW24.1 kmh WNW 19.9 mph32.0 kmh 29.68 in1005.1 mb 0.00 in0.0 mm 0.00 in0.0 mm 0.17 in4.3 mm
02:52 PM 38.3°F3.5°C 32.0°F0.0°C 76% 15.0 mph WNW24.1 kmh WNW 19.9 mph32.0 kmh 29.68 in1005.1 mb 0.00 in0.0 mm 0.00 in0.0 mm 0.17 in4.3 mm
02:51 PM 38.3°F3.5°C 32.0°F0.0°C 76% 15.0 mph WNW24.1 kmh WNW 19.9 mph32.0 kmh 29.68 in1005.1 mb 0.00 in0.0 mm 0.00 in0.0 mm 0.17 in4.3 mm
02:50 PM 38.3°F3.5°C 32.0°F0.0°C 76% 15.0 mph WNW24.1 kmh WNW 19.9 mph32.0 kmh 29.68 in1005.1 mb 0.00 in0.0 mm 0.00 in0.0 mm 0.17 in4.3 mm
02:49 PM 38.3°F3.5°C 32.0°F0.0°C 76% 15.0 mph WNW24.1 kmh WNW 19.9 mph32.0 kmh 29.68 in1005.1 mb 0.00 in0.0 mm 0.00 in0.0 mm 0.17 in4.3 mm
02:48 PM 38.3°F3.5°C 32.0°F0.0°C 76% 15.0 mph WNW24.1 kmh WNW 19.9 mph32.0 kmh 29.68 in1005.1 mb 0.00 in0.0 mm 0.00 in0.0 mm 0.17 in4.3 mm
02:47 PM 38.3°F3.5°C 32.0°F0.0°C 76% 3.6 mph SW5.8 kmh SW 4.9 mph7.9 kmh 29.68 in1005.1 mb 0.00 in0.0 mm 0.00 in0.0 mm 0.17 in4.3 mm
02:46 PM 38.3°F3.5°C 32.0°F0.0°C 76% 3.6 mph SW5.8 kmh SW 4.9 mph7.9 kmh 29.68 in1005.1 mb 0.00 in0.0 mm 0.00 in0.0 mm 0.17 in4.3 mm
02:45 PM 38.3°F3.5°C 32.0°F0.0°C 76% 3.6 mph SW5.8 kmh SW 4.9 mph7.9 kmh 29.68 in1005.1 mb 0.00 in0.0 mm 0.00 in0.0 mm 0.17 in4.3 mm
02:44 PM 38.3°F3.5°C 32.0°F0.0°C 76% 3.6 mph SW5.8 kmh SW 4.9 mph7.9 kmh 29.68 in1005.1 mb 0.00 in0.0 mm 0.00 in0.0 mm 0.17 in4.3 mm
02:43 PM 38.3°F3.5°C 32.0°F0.0°C 76% 3.6 mph SW5.8 kmh SW 4.9 mph7.9 kmh 29.68 in1005.1 mb 0.00 in0.0 mm 0.00 in0.0 mm 0.17 in4.3 mm
02:42 PM 38.3°F3.5°C 32.0°F0.0°C 76% 8.1 mph WSW13.0 kmh WSW 9.8 mph15.8 kmh 29.68 in1005.1 mb 0.00 in0.0 mm 0.00 in0.0 mm 0.17 in4.3 mm
02:41 PM 38.3°F3.5°C 32.0°F0.0°C 76% 8.1 mph WSW13.0 kmh WSW 9.8 mph15.8 kmh 29.68 in1005.1 mb 0.00 in0.0 mm 0.00 in0.0 mm 0.17 in4.3 mm
02:40 PM 38.3°F3.5°C 32.0°F0.0°C 76% 8.1 mph WSW13.0 kmh WSW 9.8 mph15.8 kmh 29.68 in1005.1 mb 0.00 in0.0 mm 0.00 in0.0 mm 0.17 in4.3 mm
02:39 PM 38.3°F3.5°C 32.0°F0.0°C 76% 8.1 mph WSW13.0 kmh WSW 9.8 mph15.8 kmh 29.68 in1005.1 mb 0.00 in0.0 mm 0.00 in0.0 mm 0.17 in4.3 mm
02:38 PM 38.3°F3.5°C 32.0°F0.0°C 76% 8.1 mph WSW13.0 kmh WSW 9.8 mph15.8 kmh 29.68 in1005.1 mb 0.00 in0.0 mm 0.00 in0.0 mm 0.17 in4.3 mm
02:37 PM 38.3°F3.5°C 32.0°F0.0°C 76% 6.7 mph WSW10.8 kmh WSW 9.8 mph15.8 kmh 29.68 in1005.1 mb 0.00 in0.0 mm 0.00 in0.0 mm 0.17 in4.3 mm
02:35 PM 38.3°F3.5°C 32.0°F0.0°C 76% 6.7 mph WSW10.8 kmh WSW 9.8 mph15.8 kmh 29.68 in1005.1 mb 0.00 in0.0 mm 0.00 in0.0 mm 0.17 in4.3 mm
02:34 PM 38.3°F3.5°C 32.0°F0.0°C 76% 6.7 mph WSW10.8 kmh WSW 9.8 mph15.8 kmh 29.68 in1005.1 mb 0.00 in0.0 mm 0.00 in0.0 mm 0.17 in4.3 mm
02:33 PM 38.3°F3.5°C 32.0°F0.0°C 76% 4.9 mph WSW7.9 kmh WSW 7.4 mph11.9 kmh 29.68 in1005.1 mb 0.00 in0.0 mm 0.00 in0.0 mm 0.17 in4.3 mm
02:32 PM 38.3°F3.5°C 32.0°F0.0°C 76% 4.9 mph WSW7.9 kmh WSW 7.4 mph11.9 kmh 29.68 in1005.1 mb 0.00 in0.0 mm 0.00 in0.0 mm 0.17 in4.3 mm
02:31 PM 38.3°F3.5°C 32.0°F0.0°C 76% 4.9 mph WSW7.9 kmh WSW 7.4 mph11.9 kmh 29.68 in1005.1 mb 0.00 in0.0 mm 0.00 in0.0 mm 0.17 in4.3 mm
02:30 PM 38.3°F3.5°C 32.0°F0.0°C 76% 4.9 mph WSW7.9 kmh WSW 7.4 mph11.9 kmh 29.68 in1005.1 mb 0.00 in0.0 mm 0.00 in0.0 mm 0.17 in4.3 mm
02:29 PM 38.3°F3.5°C 32.0°F0.0°C 76% 4.9 mph WSW7.9 kmh WSW 7.4 mph11.9 kmh 29.68 in1005.1 mb 0.00 in0.0 mm 0.00 in0.0 mm 0.17 in4.3 mm
02:28 PM 38.5°F3.6°C 32.0°F0.0°C 76% 3.6 mph WSW5.8 kmh WSW 4.9 mph7.9 kmh 29.68 in1005.1 mb 0.00 in0.0 mm 0.00 in0.0 mm 0.17 in4.3 mm
02:27 PM 38.5°F3.6°C 32.0°F0.0°C 76% 3.6 mph WSW5.8 kmh WSW 4.9 mph7.9 kmh 29.68 in1005.1 mb 0.00 in0.0 mm 0.00 in0.0 mm 0.17 in4.3 mm
02:26 PM 38.5°F3.6°C 32.0°F0.0°C 76% 3.6 mph WSW5.8 kmh WSW 4.9 mph7.9 kmh 29.68 in1005.1 mb 0.00 in0.0 mm 0.00 in0.0 mm 0.17 in4.3 mm
02:25 PM 38.5°F3.6°C 32.0°F0.0°C 76% 3.6 mph WSW5.8 kmh WSW 4.9 mph7.9 kmh 29.68 in1005.1 mb 0.00 in0.0 mm 0.00 in0.0 mm 0.17 in4.3 mm
02:24 PM 38.5°F3.6°C 32.0°F0.0°C 76% 3.6 mph WSW5.8 kmh WSW 4.9 mph7.9 kmh 29.68 in1005.1 mb 0.00 in0.0 mm 0.00 in0.0 mm 0.17 in4.3 mm
02:23 PM 38.5°F3.6°C 31.0°F-0.6°C 75% 5.8 mph SW9.3 kmh SW 7.4 mph11.9 kmh 29.68 in1005.1 mb 0.00 in0.0 mm 0.00 in0.0 mm 0.17 in4.3 mm
02:22 PM 38.5°F3.6°C 31.0°F-0.6°C 75% 5.8 mph SW9.3 kmh SW 7.4 mph11.9 kmh 29.68 in1005.1 mb 0.00 in0.0 mm 0.00 in0.0 mm 0.17 in4.3 mm
02:21 PM 38.5°F3.6°C 31.0°F-0.6°C 75% 5.8 mph SW9.3 kmh SW 7.4 mph11.9 kmh 29.68 in1005.1 mb 0.00 in0.0 mm 0.00 in0.0 mm 0.17 in4.3 mm
02:20 PM 38.5°F3.6°C 31.0°F-0.6°C 75% 5.8 mph SW9.3 kmh SW 7.4 mph11.9 kmh 29.68 in1005.1 mb 0.00 in0.0 mm 0.00 in0.0 mm 0.17 in4.3 mm
02:19 PM 38.5°F3.6°C 31.0°F-0.6°C 75% 5.8 mph SW9.3 kmh SW 7.4 mph11.9 kmh 29.68 in1005.1 mb 0.00 in0.0 mm 0.00 in0.0 mm 0.17 in4.3 mm
02:18 PM 38.5°F3.6°C 31.0°F-0.6°C 75% 5.8 mph SW9.3 kmh SW 7.4 mph11.9 kmh 29.68 in1005.1 mb 0.00 in0.0 mm 0.00 in0.0 mm 0.17 in4.3 mm
02:17 PM 38.5°F3.6°C 32.0°F0.0°C 76% 7.2 mph N11.6 kmh N 7.4 mph11.9 kmh 29.68 in1005.1 mb 0.00 in0.0 mm 0.00 in0.0 mm 0.17 in4.3 mm
02:16 PM 38.5°F3.6°C 32.0°F0.0°C 76% 7.2 mph N11.6 kmh N 7.4 mph11.9 kmh 29.68 in1005.1 mb 0.00 in0.0 mm 0.00 in0.0 mm 0.17 in4.3 mm
02:15 PM 38.5°F3.6°C 32.0°F0.0°C 76% 7.2 mph N11.6 kmh N 7.4 mph11.9 kmh 29.68 in1005.1 mb 0.00 in0.0 mm 0.00 in0.0 mm 0.17 in4.3 mm
02:14 PM 38.5°F3.6°C 32.0°F0.0°C 76% 7.2 mph N11.6 kmh N 7.4 mph11.9 kmh 29.68 in1005.1 mb 0.00 in0.0 mm 0.00 in0.0 mm 0.17 in4.3 mm
02:13 PM 38.5°F3.6°C 32.0°F0.0°C 76% 7.2 mph N11.6 kmh N 7.4 mph11.9 kmh 29.68 in1005.1 mb 0.00 in0.0 mm 0.00 in0.0 mm 0.17 in4.3 mm
02:12 PM 38.7°F3.7°C 32.0°F0.0°C 76% 5.1 mph W8.2 kmh W 7.4 mph11.9 kmh 29.68 in1005.1 mb 0.00 in0.0 mm 0.00 in0.0 mm 0.17 in4.3 mm
02:11 PM 38.7°F3.7°C 32.0°F0.0°C 76% 5.1 mph W8.2 kmh W 7.4 mph11.9 kmh 29.68 in1005.1 mb 0.00 in0.0 mm 0.00 in0.0 mm 0.17 in4.3 mm
02:10 PM 38.7°F3.7°C 32.0°F0.0°C 76% 5.1 mph W8.2 kmh W 7.4 mph11.9 kmh 29.68 in1005.1 mb 0.00 in0.0 mm 0.00 in0.0 mm 0.17 in4.3 mm
02:09 PM 38.7°F3.7°C 32.0°F0.0°C 76% 5.1 mph W8.2 kmh W 7.4 mph11.9 kmh 29.68 in1005.1 mb 0.00 in0.0 mm 0.00 in0.0 mm 0.17 in4.3 mm
02:08 PM 38.7°F3.7°C 32.0°F0.0°C 76% 5.1 mph W8.2 kmh W 7.4 mph11.9 kmh 29.68 in1005.1 mb 0.00 in0.0 mm 0.00 in0.0 mm 0.17 in4.3 mm
02:07 PM 38.8°F3.8°C 32.0°F0.0°C 78% 10.5 mph WSW16.9 kmh WSW 12.3 mph19.8 kmh 29.68 in1005.1 mb 0.00 in0.0 mm 0.00 in0.0 mm 0.17 in4.3 mm
02:06 PM 38.8°F3.8°C 32.0°F0.0°C 78% 10.5 mph WSW16.9 kmh WSW 12.3 mph19.8 kmh 29.68 in1005.1 mb 0.00 in0.0 mm 0.00 in0.0 mm 0.17 in4.3 mm
02:05 PM 38.8°F3.8°C 32.0°F0.0°C 78% 10.5 mph WSW16.9 kmh WSW 12.3 mph19.8 kmh 29.68 in1005.1 mb 0.00 in0.0 mm 0.00 in0.0 mm 0.17 in4.3 mm
02:04 PM 38.8°F3.8°C 32.0°F0.0°C 78% 10.5 mph WSW16.9 kmh WSW 12.3 mph19.8 kmh 29.68 in1005.1 mb 0.00 in0.0 mm 0.00 in0.0 mm 0.17 in4.3 mm
02:03 PM 38.8°F3.8°C 32.0°F0.0°C 78% 10.5 mph WSW16.9 kmh WSW 12.3 mph19.8 kmh 29.68 in1005.1 mb 0.00 in0.0 mm 0.00 in0.0 mm 0.17 in4.3 mm
02:02 PM 39.0°F3.9°C 33.0°F0.6°C 78% 4.9 mph WSW7.9 kmh WSW 4.9 mph7.9 kmh 29.68 in1005.1 mb 0.00 in0.0 mm 0.00 in0.0 mm 0.17 in4.3 mm
02:01 PM 39.0°F3.9°C 33.0°F0.6°C 78% 4.9 mph WSW7.9 kmh WSW 4.9 mph7.9 kmh 29.68 in1005.1 mb 0.00 in0.0 mm 0.00 in0.0 mm 0.17 in4.3 mm
02:00 PM 39.0°F3.9°C 33.0°F0.6°C 78% 4.9 mph WSW7.9 kmh WSW 4.9 mph7.9 kmh 29.68 in1005.1 mb 0.00 in0.0 mm 0.00 in0.0 mm 0.17 in4.3 mm
01:59 PM 39.0°F3.9°C 33.0°F0.6°C 78% 4.9 mph WSW7.9 kmh WSW 4.9 mph7.9 kmh 29.68 in1005.1 mb 0.00 in0.0 mm 0.00 in0.0 mm 0.17 in4.3 mm
01:58 PM 39.0°F3.9°C 33.0°F0.6°C 78% 4.9 mph WSW7.9 kmh WSW 4.9 mph7.9 kmh 29.68 in1005.1 mb 0.00 in0.0 mm 0.00 in0.0 mm 0.17 in4.3 mm
01:57 PM 39.2°F4.0°C 32.0°F0.0°C 77% 6.5 mph SW10.5 kmh SW 9.8 mph15.8 kmh 29.67 in1004.7 mb 0.00 in0.0 mm 0.00 in0.0 mm 0.17 in4.3 mm
01:56 PM 39.2°F4.0°C 32.0°F0.0°C 77% 6.5 mph SW10.5 kmh SW 9.8 mph15.8 kmh 29.67 in1004.7 mb 0.00 in0.0 mm 0.00 in0.0 mm 0.17 in4.3 mm
01:55 PM 39.2°F4.0°C 32.0°F0.0°C 77% 6.5 mph SW10.5 kmh SW 9.8 mph15.8 kmh 29.67 in1004.7 mb 0.00 in0.0 mm 0.00 in0.0 mm 0.17 in4.3 mm
01:54 PM 39.2°F4.0°C 32.0°F0.0°C 77% 6.5 mph SW10.5 kmh SW 9.8 mph15.8 kmh 29.67 in1004.7 mb 0.00 in0.0 mm 0.00 in0.0 mm 0.17 in4.3 mm
01:53 PM 39.2°F4.0°C 32.0°F0.0°C 77% 6.5 mph SW10.5 kmh SW 9.8 mph15.8 kmh 29.67 in1004.7 mb 0.00 in0.0 mm 0.00 in0.0 mm 0.17 in4.3 mm
01:52 PM 39.4°F4.1°C 32.0°F0.0°C 75% 8.7 mph W14.0 kmh W 9.8 mph15.8 kmh 29.66 in1004.4 mb 0.00 in0.0 mm 0.00 in0.0 mm 0.17 in4.3 mm
01:51 PM 39.4°F4.1°C 32.0°F0.0°C 75% 8.7 mph W14.0 kmh W 9.8 mph15.8 kmh 29.66 in1004.4 mb 0.00 in0.0 mm 0.00 in0.0 mm 0.17 in4.3 mm
01:50 PM 39.4°F4.1°C 32.0°F0.0°C 75% 8.7 mph W14.0 kmh W 9.8 mph15.8 kmh 29.66 in1004.4 mb 0.00 in0.0 mm 0.00 in0.0 mm 0.17 in4.3 mm
01:49 PM 39.4°F4.1°C 32.0°F0.0°C 75% 8.7 mph W14.0 kmh W 9.8 mph15.8 kmh 29.66 in1004.4 mb 0.00 in0.0 mm 0.00 in0.0 mm 0.17 in4.3 mm
01:48 PM 39.4°F4.1°C 32.0°F0.0°C 75% 8.7 mph W14.0 kmh W 9.8 mph15.8 kmh 29.66 in1004.4 mb 0.00 in0.0 mm 0.00 in0.0 mm 0.17 in4.3 mm
01:47 PM 39.7°F4.3°C 32.0°F0.0°C 72% 12.8 mph W20.6 kmh W 17.4 mph28.0 kmh 29.66 in1004.4 mb 0.00 in0.0 mm 0.00 in0.0 mm 0.17 in4.3 mm
01:46 PM 39.7°F4.3°C 32.0°F0.0°C 72% 12.8 mph W20.6 kmh W 17.4 mph28.0 kmh 29.66 in1004.4 mb 0.00 in0.0 mm 0.00 in0.0 mm 0.17 in4.3 mm
01:45 PM 39.7°F4.3°C 32.0°F0.0°C 72% 12.8 mph W20.6 kmh W 17.4 mph28.0 kmh 29.66 in1004.4 mb 0.00 in0.0 mm 0.00 in0.0 mm 0.17 in4.3 mm
01:44 PM 39.7°F4.3°C 32.0°F0.0°C 72% 12.8 mph W20.6 kmh W 17.4 mph28.0 kmh 29.66 in1004.4 mb 0.00 in0.0 mm 0.00 in0.0 mm 0.17 in4.3 mm
01:43 PM 39.7°F4.3°C 32.0°F0.0°C 72% 12.8 mph W20.6 kmh W 17.4 mph28.0 kmh 29.66 in1004.4 mb 0.00 in0.0 mm 0.00 in0.0 mm 0.17 in4.3 mm
01:42 PM 39.7°F4.3°C 32.0°F0.0°C 72% 9.2 mph WSW14.8 kmh WSW 12.3 mph19.8 kmh 29.66 in1004.4 mb 0.00 in0.0 mm 0.00 in0.0 mm 0.17 in4.3 mm
01:41 PM 39.7°F4.3°C 32.0°F0.0°C 72% 9.2 mph WSW14.8 kmh WSW 12.3 mph19.8 kmh 29.66 in1004.4 mb 0.00 in0.0 mm 0.00 in0.0 mm 0.17 in4.3 mm
01:40 PM 39.7°F4.3°C 32.0°F0.0°C 72% 9.2 mph WSW14.8 kmh WSW 12.3 mph19.8 kmh 29.66 in1004.4 mb 0.00 in0.0 mm 0.00 in0.0 mm 0.17 in4.3 mm
01:39 PM 39.7°F4.3°C 32.0°F0.0°C 72% 9.2 mph WSW14.8 kmh WSW 12.3 mph19.8 kmh 29.66 in1004.4 mb 0.00 in0.0 mm 0.00 in0.0 mm 0.17 in4.3 mm
01:38 PM 39.7°F4.3°C 32.0°F0.0°C 72% 9.2 mph WSW14.8 kmh WSW 12.3 mph19.8 kmh 29.66 in1004.4 mb 0.00 in0.0 mm 0.00 in0.0 mm 0.17 in4.3 mm
01:37 PM 39.9°F4.4°C 32.0°F0.0°C 72% 5.1 mph SW8.2 kmh SW 7.4 mph11.9 kmh 29.66 in1004.4 mb 0.00 in0.0 mm 0.00 in0.0 mm 0.17 in4.3 mm
01:36 PM 39.9°F4.4°C 32.0°F0.0°C 72% 5.1 mph SW8.2 kmh SW 7.4 mph11.9 kmh 29.66 in1004.4 mb 0.00 in0.0 mm 0.00 in0.0 mm 0.17 in4.3 mm
01:35 PM 39.9°F4.4°C 32.0°F0.0°C 72% 5.1 mph SW8.2 kmh SW 7.4 mph11.9 kmh 29.66 in1004.4 mb 0.00 in0.0 mm 0.00 in0.0 mm 0.17 in4.3 mm
01:34 PM 39.9°F4.4°C 32.0°F0.0°C 72% 5.1 mph SW8.2 kmh SW 7.4 mph11.9 kmh 29.66 in1004.4 mb 0.00 in0.0 mm 0.00 in0.0 mm 0.17 in4.3 mm
01:33 PM 39.9°F4.4°C 32.0°F0.0°C 72% 5.1 mph SW8.2 kmh SW 7.4 mph11.9 kmh 29.66 in1004.4 mb 0.00 in0.0 mm 0.00 in0.0 mm 0.17 in4.3 mm
01:32 PM 40.1°F4.5°C 32.0°F0.0°C 72% 8.3 mph W13.4 kmh W 12.3 mph19.8 kmh 29.66 in1004.4 mb 0.00 in0.0 mm 0.00 in0.0 mm 0.17 in4.3 mm
01:31 PM 40.1°F4.5°C 32.0°F0.0°C 72% 8.3 mph W13.4 kmh W 12.3 mph19.8 kmh 29.66 in1004.4 mb 0.00 in0.0 mm 0.00 in0.0 mm 0.17 in4.3 mm
01:30 PM 40.1°F4.5°C 32.0°F0.0°C 72% 8.3 mph W13.4 kmh W 12.3 mph19.8 kmh 29.66 in1004.4 mb 0.00 in0.0 mm 0.00 in0.0 mm 0.17 in4.3 mm
01:29 PM 40.1°F4.5°C 32.0°F0.0°C 72% 8.3 mph W13.4 kmh W 12.3 mph19.8 kmh 29.66 in1004.4 mb 0.00 in0.0 mm 0.00 in0.0 mm 0.17 in4.3 mm
01:28 PM 40.1°F4.5°C 32.0°F0.0°C 72% 8.3 mph W13.4 kmh W 12.3 mph19.8 kmh 29.66 in1004.4 mb 0.00 in0.0 mm 0.00 in0.0 mm 0.17 in4.3 mm
01:27 PM 40.3°F4.6°C 32.0°F0.0°C 72% 11.4 mph WSW18.3 kmh WSW 15.0 mph24.1 kmh 29.66 in1004.4 mb 0.00 in0.0 mm 0.00 in0.0 mm 0.17 in4.3 mm
01:26 PM 40.3°F4.6°C 32.0°F0.0°C 72% 11.4 mph WSW18.3 kmh WSW 15.0 mph24.1 kmh 29.66 in1004.4 mb 0.00 in0.0 mm 0.00 in0.0 mm 0.17 in4.3 mm
01:25 PM 40.3°F4.6°C 32.0°F0.0°C 72% 11.4 mph WSW18.3 kmh WSW 15.0 mph24.1 kmh 29.66 in1004.4 mb 0.00 in0.0 mm 0.00 in0.0 mm 0.17 in4.3 mm
01:24 PM 40.3°F4.6°C 32.0°F0.0°C 72% 11.4 mph WSW18.3 kmh WSW 15.0 mph24.1 kmh 29.66 in1004.4 mb 0.00 in0.0 mm 0.00 in0.0 mm 0.17 in4.3 mm
01:23 PM 40.3°F4.6°C 32.0°F0.0°C 72% 11.4 mph WSW18.3 kmh WSW 15.0 mph24.1 kmh 29.66 in1004.4 mb 0.00 in0.0 mm 0.00 in0.0 mm 0.17 in4.3 mm
01:22 PM 40.5°F4.7°C 32.0°F0.0°C 72% 8.1 mph WSW13.0 kmh WSW 9.8 mph15.8 kmh 29.66 in1004.4 mb 0.00 in0.0 mm 0.00 in0.0 mm 0.17 in4.3 mm
01:21 PM 40.5°F4.7°C 32.0°F0.0°C 72% 8.1 mph WSW13.0 kmh WSW 9.8 mph15.8 kmh 29.66 in1004.4 mb 0.00 in0.0 mm 0.00 in0.0 mm 0.17 in4.3 mm
01:20 PM 40.5°F4.7°C 32.0°F0.0°C 72% 8.1 mph WSW13.0 kmh WSW 9.8 mph15.8 kmh 29.66 in1004.4 mb 0.00 in0.0 mm 0.00 in0.0 mm 0.17 in4.3 mm
01:19 PM 40.5°F4.7°C 32.0°F0.0°C 72% 8.1 mph WSW13.0 kmh WSW 9.8 mph15.8 kmh 29.66 in1004.4 mb 0.00 in0.0 mm 0.00 in0.0 mm 0.17 in4.3 mm
01:18 PM 40.5°F4.7°C 32.0°F0.0°C 72% 8.1 mph WSW13.0 kmh WSW 9.8 mph15.8 kmh 29.66 in1004.4 mb 0.00 in0.0 mm 0.00 in0.0 mm 0.17 in4.3 mm
01:17 PM 40.5°F4.7°C 32.0°F0.0°C 72% 8.1 mph WSW13.0 kmh WSW 9.8 mph15.8 kmh 29.66 in1004.4 mb 0.00 in0.0 mm 0.00 in0.0 mm 0.17 in4.3 mm
01:16 PM 40.5°F4.7°C 32.0°F0.0°C 72% 8.7 mph WSW14.0 kmh WSW 12.3 mph19.8 kmh 29.68 in1005.1 mb 0.00 in0.0 mm 0.00 in0.0 mm 0.17 in4.3 mm
01:15 PM 40.5°F4.7°C 32.0°F0.0°C 72% 8.7 mph WSW14.0 kmh WSW 12.3 mph19.8 kmh 29.68 in1005.1 mb 0.00 in0.0 mm 0.00 in0.0 mm 0.17 in4.3 mm
01:14 PM 40.5°F4.7°C 32.0°F0.0°C 72% 8.7 mph WSW14.0 kmh WSW 12.3 mph19.8 kmh 29.68 in1005.1 mb 0.00 in0.0 mm 0.00 in0.0 mm 0.17 in4.3 mm
01:13 PM 40.5°F4.7°C 32.0°F0.0°C 72% 8.7 mph WSW14.0 kmh WSW 12.3 mph19.8 kmh 29.68 in1005.1 mb 0.00 in0.0 mm 0.00 in0.0 mm 0.17 in4.3 mm
01:12 PM 40.5°F4.7°C 32.0°F0.0°C 72% 8.7 mph WSW14.0 kmh WSW 12.3 mph19.8 kmh 29.68 in1005.1 mb 0.00 in0.0 mm 0.00 in0.0 mm 0.17 in4.3 mm
01:11 PM 40.6°F4.8°C 32.0°F0.0°C 72% 2.5 mph WSW4.0 kmh WSW 4.9 mph7.9 kmh 29.68 in1005.1 mb 0.00 in0.0 mm 0.00 in0.0 mm 0.17 in4.3 mm
01:10 PM 40.6°F4.8°C 32.0°F0.0°C 72% 2.5 mph WSW4.0 kmh WSW 4.9 mph7.9 kmh 29.68 in1005.1 mb 0.00 in0.0 mm 0.00 in0.0 mm 0.17 in4.3 mm
01:09 PM 40.6°F4.8°C 32.0°F0.0°C 72% 2.5 mph WSW4.0 kmh WSW 4.9 mph7.9 kmh 29.68 in1005.1 mb 0.00 in0.0 mm 0.00 in0.0 mm 0.17 in4.3 mm
01:08 PM 40.6°F4.8°C 32.0°F0.0°C 72% 2.5 mph WSW4.0 kmh WSW 4.9 mph7.9 kmh 29.68 in1005.1 mb 0.00 in0.0 mm 0.00 in0.0 mm 0.17 in4.3 mm
01:07 PM 40.6°F4.8°C 32.0°F0.0°C 72% 2.5 mph WSW4.0 kmh WSW 4.9 mph7.9 kmh 29.68 in1005.1 mb 0.00 in0.0 mm 0.00 in0.0 mm 0.17 in4.3 mm
01:06 PM 40.6°F4.8°C 32.0°F0.0°C 72% 6.7 mph SW10.8 kmh SW 7.4 mph11.9 kmh 29.68 in1005.1 mb 0.00 in0.0 mm 0.00 in0.0 mm 0.17 in4.3 mm
01:05 PM 40.6°F4.8°C 32.0°F0.0°C 72% 6.7 mph SW10.8 kmh SW 7.4 mph11.9 kmh 29.68 in1005.1 mb 0.00 in0.0 mm 0.00 in0.0 mm 0.17 in4.3 mm
01:04 PM 40.6°F4.8°C 32.0°F0.0°C 72% 6.7 mph SW10.8 kmh SW 7.4 mph11.9 kmh 29.68 in1005.1 mb 0.00 in0.0 mm 0.00 in0.0 mm 0.17 in4.3 mm
01:03 PM 40.6°F4.8°C 32.0°F0.0°C 72% 6.7 mph SW10.8 kmh SW 7.4 mph11.9 kmh 29.68 in1005.1 mb 0.00 in0.0 mm 0.00 in0.0 mm 0.17 in4.3 mm
01:02 PM 40.6°F4.8°C 32.0°F0.0°C 72% 6.7 mph SW10.8 kmh SW 7.4 mph11.9 kmh 29.68 in1005.1 mb 0.00 in0.0 mm 0.00 in0.0 mm 0.17 in4.3 mm
01:01 PM 40.6°F4.8°C 32.0°F0.0°C 72% 4.5 mph WSW7.2 kmh WSW 9.8 mph15.8 kmh 29.67 in1004.7 mb 0.00 in0.0 mm 0.00 in0.0 mm 0.17 in4.3 mm
01:00 PM 40.6°F4.8°C 32.0°F0.0°C 72% 4.5 mph WSW7.2 kmh WSW 9.8 mph15.8 kmh 29.67 in1004.7 mb 0.00 in0.0 mm 0.00 in0.0 mm 0.17 in4.3 mm
12:59 PM 40.6°F4.8°C 32.0°F0.0°C 72% 4.5 mph WSW7.2 kmh WSW 9.8 mph15.8 kmh 29.67 in1004.7 mb 0.00 in0.0 mm 0.00 in0.0 mm 0.17 in4.3 mm
12:58 PM 40.6°F4.8°C 32.0°F0.0°C 72% 4.5 mph WSW7.2 kmh WSW 9.8 mph15.8 kmh 29.67 in1004.7 mb 0.00 in0.0 mm 0.00 in0.0 mm 0.17 in4.3 mm
12:57 PM 40.6°F4.8°C 32.0°F0.0°C 72% 4.5 mph WSW7.2 kmh WSW 9.8 mph15.8 kmh 29.67 in1004.7 mb 0.00 in0.0 mm 0.00 in0.0 mm 0.17 in4.3 mm
12:56 PM 40.6°F4.8°C 32.0°F0.0°C 71% 8.1 mph WSW13.0 kmh WSW 9.8 mph15.8 kmh 29.67 in1004.7 mb 0.00 in0.0 mm 0.00 in0.0 mm 0.17 in4.3 mm
12:55 PM 40.6°F4.8°C 32.0°F0.0°C 71% 8.1 mph WSW13.0 kmh WSW 9.8 mph15.8 kmh 29.67 in1004.7 mb 0.00 in0.0 mm 0.00 in0.0 mm 0.17 in4.3 mm
12:54 PM 40.6°F4.8°C 32.0°F0.0°C 71% 8.1 mph WSW13.0 kmh WSW 9.8 mph15.8 kmh 29.67 in1004.7 mb 0.00 in0.0 mm 0.00 in0.0 mm 0.17 in4.3 mm
12:53 PM 40.6°F4.8°C 32.0°F0.0°C 71% 8.1 mph WSW13.0 kmh WSW 9.8 mph15.8 kmh 29.67 in1004.7 mb 0.00 in0.0 mm 0.00 in0.0 mm 0.17 in4.3 mm
12:52 PM 40.6°F4.8°C 32.0°F0.0°C 71% 8.1 mph WSW13.0 kmh WSW 9.8 mph15.8 kmh 29.67 in1004.7 mb 0.00 in0.0 mm 0.00 in0.0 mm 0.17 in4.3 mm
12:51 PM 40.6°F4.8°C 32.0°F0.0°C 72% 4.0 mph WSW6.4 kmh WSW 4.9 mph7.9 kmh 29.67 in1004.7 mb 0.00 in0.0 mm 0.00 in0.0 mm 0.17 in4.3 mm
12:50 PM 40.6°F4.8°C 32.0°F0.0°C 72% 4.0 mph WSW6.4 kmh WSW 4.9 mph7.9 kmh 29.67 in1004.7 mb 0.00 in0.0 mm 0.00 in0.0 mm 0.17 in4.3 mm
12:49 PM 40.6°F4.8°C 32.0°F0.0°C 72% 4.0 mph WSW6.4 kmh WSW 4.9 mph7.9 kmh 29.67 in1004.7 mb 0.00 in0.0 mm 0.00 in0.0 mm 0.17 in4.3 mm
12:48 PM 40.6°F4.8°C 32.0°F0.0°C 72% 4.0 mph WSW6.4 kmh WSW 4.9 mph7.9 kmh 29.67 in1004.7 mb 0.00 in0.0 mm 0.00 in0.0 mm 0.17 in4.3 mm
12:47 PM 40.6°F4.8°C 32.0°F0.0°C 72% 4.0 mph WSW6.4 kmh WSW 4.9 mph7.9 kmh 29.67 in1004.7 mb 0.00 in0.0 mm 0.00 in0.0 mm 0.17 in4.3 mm
12:46 PM 40.6°F4.8°C 32.0°F0.0°C 71% 8.1 mph WSW13.0 kmh WSW 9.8 mph15.8 kmh 29.67 in1004.7 mb 0.00 in0.0 mm 0.00 in0.0 mm 0.17 in4.3 mm
12:45 PM 40.6°F4.8°C 32.0°F0.0°C 71% 8.1 mph WSW13.0 kmh WSW 9.8 mph15.8 kmh 29.67 in1004.7 mb 0.00 in0.0 mm 0.00 in0.0 mm 0.17 in4.3 mm
12:44 PM 40.6°F4.8°C 32.0°F0.0°C 71% 8.1 mph WSW13.0 kmh WSW 9.8 mph15.8 kmh 29.67 in1004.7 mb 0.00 in0.0 mm 0.00 in0.0 mm 0.17 in4.3 mm
12:43 PM 40.6°F4.8°C 32.0°F0.0°C 71% 8.1 mph WSW13.0 kmh WSW 9.8 mph15.8 kmh 29.67 in1004.7 mb 0.00 in0.0 mm 0.00 in0.0 mm 0.17 in4.3 mm
12:42 PM 40.6°F4.8°C 32.0°F0.0°C 71% 8.1 mph WSW13.0 kmh WSW 9.8 mph15.8 kmh 29.67 in1004.7 mb 0.00 in0.0 mm 0.00 in0.0 mm 0.17 in4.3 mm
12:41 PM 40.5°F4.7°C 32.0°F0.0°C 71% 1.8 mph SW2.9 kmh SW 4.9 mph7.9 kmh 29.67 in1004.7 mb 0.00 in0.0 mm 0.00 in0.0 mm 0.17 in4.3 mm
12:40 PM 40.5°F4.7°C 32.0°F0.0°C 71% 1.8 mph SW2.9 kmh SW 4.9 mph7.9 kmh 29.67 in1004.7 mb 0.00 in0.0 mm 0.00 in0.0 mm 0.17 in4.3 mm
12:39 PM 40.5°F4.7°C 32.0°F0.0°C 71% 1.8 mph SW2.9 kmh SW 4.9 mph7.9 kmh 29.67 in1004.7 mb 0.00 in0.0 mm 0.00 in0.0 mm 0.17 in4.3 mm
12:38 PM 40.5°F4.7°C 32.0°F0.0°C 71% 1.8 mph SW2.9 kmh SW 4.9 mph7.9 kmh 29.67 in1004.7 mb 0.00 in0.0 mm 0.00 in0.0 mm 0.17 in4.3 mm
12:37 PM 40.5°F4.7°C 32.0°F0.0°C 71% 1.8 mph SW2.9 kmh SW 4.9 mph7.9 kmh 29.67 in1004.7 mb 0.00 in0.0 mm 0.00 in0.0 mm 0.17 in4.3 mm
12:36 PM 40.5°F4.7°C 32.0°F0.0°C 71% 1.8 mph SW2.9 kmh SW 4.9 mph7.9 kmh 29.67 in1004.7 mb 0.00 in0.0 mm 0.00 in0.0 mm 0.17 in4.3 mm
12:35 PM 40.5°F4.7°C 32.0°F0.0°C 72% 10.3 mph WSW16.6 kmh WSW 15.0 mph24.1 kmh 29.67 in1004.7 mb 0.00 in0.0 mm 0.00 in0.0 mm 0.17 in4.3 mm
12:34 PM 40.5°F4.7°C 32.0°F0.0°C 72% 10.3 mph WSW16.6 kmh WSW 15.0 mph24.1 kmh 29.67 in1004.7 mb 0.00 in0.0 mm 0.00 in0.0 mm 0.17 in4.3 mm
12:33 PM 40.5°F4.7°C 32.0°F0.0°C 72% 10.3 mph WSW16.6 kmh WSW 15.0 mph24.1 kmh 29.67 in1004.7 mb 0.00 in0.0 mm 0.00 in0.0 mm 0.17 in4.3 mm
12:32 PM 40.5°F4.7°C 32.0°F0.0°C 72% 10.3 mph WSW16.6 kmh WSW 15.0 mph24.1 kmh 29.67 in1004.7 mb 0.00 in0.0 mm 0.00 in0.0 mm 0.17 in4.3 mm
12:31 PM 40.5°F4.7°C 32.0°F0.0°C 72% 10.3 mph WSW16.6 kmh WSW 15.0 mph24.1 kmh 29.67 in1004.7 mb 0.00 in0.0 mm 0.00 in0.0 mm 0.17 in4.3 mm
12:30 PM 40.5°F4.7°C 32.0°F0.0°C 73% 5.6 mph WSW9.0 kmh WSW 9.8 mph15.8 kmh 29.67 in1004.7 mb 0.00 in0.0 mm 0.00 in0.0 mm 0.17 in4.3 mm
12:29 PM 40.5°F4.7°C 32.0°F0.0°C 73% 5.6 mph WSW9.0 kmh WSW 9.8 mph15.8 kmh 29.67 in1004.7 mb 0.00 in0.0 mm 0.00 in0.0 mm 0.17 in4.3 mm
12:28 PM 40.5°F4.7°C 32.0°F0.0°C 73% 5.6 mph WSW9.0 kmh WSW 9.8 mph15.8 kmh 29.67 in1004.7 mb 0.00 in0.0 mm 0.00 in0.0 mm 0.17 in4.3 mm
12:27 PM 40.5°F4.7°C 32.0°F0.0°C 73% 5.6 mph WSW9.0 kmh WSW 9.8 mph15.8 kmh 29.67 in1004.7 mb 0.00 in0.0 mm 0.00 in0.0 mm 0.17 in4.3 mm
12:26 PM 40.5°F4.7°C 32.0°F0.0°C 73% 5.6 mph WSW9.0 kmh WSW 9.8 mph15.8 kmh 29.67 in1004.7 mb 0.00 in0.0 mm 0.00 in0.0 mm 0.17 in4.3 mm
12:25 PM 40.5°F4.7°C 33.0°F0.6°C 74% 11.4 mph W18.3 kmh W 15.0 mph24.1 kmh 29.67 in1004.7 mb 0.00 in0.0 mm 0.00 in0.0 mm 0.17 in4.3 mm
12:24 PM 40.5°F4.7°C 33.0°F0.6°C 74% 11.4 mph W18.3 kmh W 15.0 mph24.1 kmh 29.67 in1004.7 mb 0.00 in0.0 mm 0.00 in0.0 mm 0.17 in4.3 mm
12:23 PM 40.5°F4.7°C 33.0°F0.6°C 74% 11.4 mph W18.3 kmh W 15.0 mph24.1 kmh 29.67 in1004.7 mb 0.00 in0.0 mm 0.00 in0.0 mm 0.17 in4.3 mm
12:22 PM 40.5°F4.7°C 33.0°F0.6°C 74% 11.4 mph W18.3 kmh W 15.0 mph24.1 kmh 29.67 in1004.7 mb 0.00 in0.0 mm 0.00 in0.0 mm 0.17 in4.3 mm
12:21 PM 40.5°F4.7°C 33.0°F0.6°C 74% 11.4 mph W18.3 kmh W 15.0 mph24.1 kmh 29.67 in1004.7 mb 0.00 in0.0 mm 0.00 in0.0 mm 0.17 in4.3 mm
12:20 PM 40.3°F4.6°C 33.0°F0.6°C 74% 1.8 mph WSW2.9 kmh WSW 2.5 mph4.0 kmh 29.67 in1004.7 mb 0.00 in0.0 mm 0.00 in0.0 mm 0.17 in4.3 mm
12:19 PM 40.3°F4.6°C 33.0°F0.6°C 74% 1.8 mph WSW2.9 kmh WSW 2.5 mph4.0 kmh 29.67 in1004.7 mb 0.00 in0.0 mm 0.00 in0.0 mm 0.17 in4.3 mm
12:18 PM 40.3°F4.6°C 33.0°F0.6°C 74% 1.8 mph WSW2.9 kmh WSW 2.5 mph4.0 kmh 29.67 in1004.7 mb 0.00 in0.0 mm 0.00 in0.0 mm 0.17 in4.3 mm
12:17 PM 40.3°F4.6°C 33.0°F0.6°C 74% 1.8 mph WSW2.9 kmh WSW 2.5 mph4.0 kmh 29.67 in1004.7 mb 0.00 in0.0 mm 0.00 in0.0 mm 0.17 in4.3 mm
12:16 PM 40.3°F4.6°C 33.0°F0.6°C 74% 1.8 mph WSW2.9 kmh WSW 2.5 mph4.0 kmh 29.67 in1004.7 mb 0.00 in0.0 mm 0.00 in0.0 mm 0.17 in4.3 mm
12:15 PM 40.3°F4.6°C 33.0°F0.6°C 76% 16.1 mph NW25.9 kmh NW 19.9 mph32.0 kmh 29.67 in1004.7 mb 0.00 in0.0 mm 0.00 in0.0 mm 0.17 in4.3 mm
12:14 PM 40.3°F4.6°C 33.0°F0.6°C 76% 16.1 mph NW25.9 kmh NW 19.9 mph32.0 kmh 29.67 in1004.7 mb 0.00 in0.0 mm 0.00 in0.0 mm 0.17 in4.3 mm
12:13 PM 40.3°F4.6°C 33.0°F0.6°C 76% 16.1 mph NW25.9 kmh NW 19.9 mph32.0 kmh 29.67 in1004.7 mb 0.00 in0.0 mm 0.00 in0.0 mm 0.17 in4.3 mm
12:12 PM 40.3°F4.6°C 33.0°F0.6°C 76% 16.1 mph NW25.9 kmh NW 19.9 mph32.0 kmh 29.67 in1004.7 mb 0.00 in0.0 mm 0.00 in0.0 mm 0.17 in4.3 mm
12:11 PM 40.3°F4.6°C 33.0°F0.6°C 76% 16.1 mph NW25.9 kmh NW 19.9 mph32.0 kmh 29.67 in1004.7 mb 0.00 in0.0 mm 0.00 in0.0 mm 0.17 in4.3 mm
12:10 PM 40.1°F4.5°C 33.0°F0.6°C 77% 8.3 mph W13.4 kmh W 9.8 mph15.8 kmh 29.67 in1004.7 mb 0.00 in0.0 mm 0.00 in0.0 mm 0.17 in4.3 mm
12:09 PM 40.1°F4.5°C 33.0°F0.6°C 77% 8.3 mph W13.4 kmh W 9.8 mph15.8 kmh 29.67 in1004.7 mb 0.00 in0.0 mm 0.00 in0.0 mm 0.17 in4.3 mm
12:08 PM 40.1°F4.5°C 33.0°F0.6°C 77% 8.3 mph W13.4 kmh W 9.8 mph15.8 kmh 29.67 in1004.7 mb 0.00 in0.0 mm 0.00 in0.0 mm 0.17 in4.3 mm
12:07 PM 40.1°F4.5°C 33.0°F0.6°C 77% 8.3 mph W13.4 kmh W 9.8 mph15.8 kmh 29.67 in1004.7 mb 0.00 in0.0 mm 0.00 in0.0 mm 0.17 in4.3 mm
12:06 PM 40.1°F4.5°C 33.0°F0.6°C 77% 8.3 mph W13.4 kmh W 9.8 mph15.8 kmh 29.67 in1004.7 mb 0.00 in0.0 mm 0.00 in0.0 mm 0.17 in4.3 mm
12:05 PM 40.1°F4.5°C 33.0°F0.6°C 77% 8.3 mph W13.4 kmh W 9.8 mph15.8 kmh 29.67 in1004.7 mb 0.00 in0.0 mm 0.00 in0.0 mm 0.17 in4.3 mm
12:04 PM 39.9°F4.4°C 34.0°F1.1°C 79% 6.5 mph WSW10.5 kmh WSW 9.8 mph15.8 kmh 29.67 in1004.7 mb 0.00 in0.0 mm 0.00 in0.0 mm 0.17 in4.3 mm
12:03 PM 39.9°F4.4°C 34.0°F1.1°C 79% 6.5 mph WSW10.5 kmh WSW 9.8 mph15.8 kmh 29.67 in1004.7 mb 0.00 in0.0 mm 0.00 in0.0 mm 0.17 in4.3 mm
12:02 PM 39.9°F4.4°C 34.0°F1.1°C 79% 6.5 mph WSW10.5 kmh WSW 9.8 mph15.8 kmh 29.67 in1004.7 mb 0.00 in0.0 mm 0.00 in0.0 mm 0.17 in4.3 mm
12:01 PM 39.9°F4.4°C 34.0°F1.1°C 79% 6.5 mph WSW10.5 kmh WSW 9.8 mph15.8 kmh 29.67 in1004.7 mb 0.00 in0.0 mm 0.00 in0.0 mm 0.17 in4.3 mm
12:00 PM 39.9°F4.4°C 34.0°F1.1°C 79% 6.5 mph WSW10.5 kmh WSW 9.8 mph15.8 kmh 29.67 in1004.7 mb 0.00 in0.0 mm 0.00 in0.0 mm 0.17 in4.3 mm
11:59 AM 39.9°F4.4°C 34.0°F1.1°C 80% 5.1 mph WSW8.2 kmh WSW 7.4 mph11.9 kmh 29.65 in1004.1 mb 0.00 in0.0 mm 0.00 in0.0 mm 0.17 in4.3 mm
11:58 AM 39.9°F4.4°C 34.0°F1.1°C 80% 5.1 mph WSW8.2 kmh WSW 7.4 mph11.9 kmh 29.65 in1004.1 mb 0.00 in0.0 mm 0.00 in0.0 mm 0.17 in4.3 mm
11:57 AM 39.9°F4.4°C 34.0°F1.1°C 80% 5.1 mph WSW8.2 kmh WSW 7.4 mph11.9 kmh 29.65 in1004.1 mb 0.00 in0.0 mm 0.00 in0.0 mm 0.17 in4.3 mm
11:56 AM 39.9°F4.4°C 34.0°F1.1°C 80% 5.1 mph WSW8.2 kmh WSW 7.4 mph11.9 kmh 29.65 in1004.1 mb 0.00 in0.0 mm 0.00 in0.0 mm 0.17 in4.3 mm
11:55 AM 39.9°F4.4°C 34.0°F1.1°C 80% 5.1 mph WSW8.2 kmh WSW 7.4 mph11.9 kmh 29.65 in1004.1 mb 0.00 in0.0 mm 0.00 in0.0 mm 0.17 in4.3 mm
11:54 AM 39.7°F4.3°C 34.0°F1.1°C 81% 4.0 mph SW6.4 kmh SW 4.9 mph7.9 kmh 29.65 in1004.1 mb 0.00 in0.0 mm 0.00 in0.0 mm 0.17 in4.3 mm
11:53 AM 39.7°F4.3°C 34.0°F1.1°C 81% 4.0 mph SW6.4 kmh SW 4.9 mph7.9 kmh 29.65 in1004.1 mb 0.00 in0.0 mm 0.00 in0.0 mm 0.17 in4.3 mm
11:52 AM 39.7°F4.3°C 34.0°F1.1°C 81% 4.0 mph SW6.4 kmh SW 4.9 mph7.9 kmh 29.65 in1004.1 mb 0.00 in0.0 mm 0.00 in0.0 mm 0.17 in4.3 mm
11:51 AM 39.7°F4.3°C 34.0°F1.1°C 81% 4.0 mph SW6.4 kmh SW 4.9 mph7.9 kmh 29.65 in1004.1 mb 0.00 in0.0 mm 0.00 in0.0 mm 0.17 in4.3 mm
11:50 AM 39.7°F4.3°C 34.0°F1.1°C 81% 4.0 mph SW6.4 kmh SW 4.9 mph7.9 kmh 29.65 in1004.1 mb 0.00 in0.0 mm 0.00 in0.0 mm 0.17 in4.3 mm
11:49 AM 39.7°F4.3°C 34.0°F1.1°C 81% 5.8 mph WSW9.3 kmh WSW 7.4 mph11.9 kmh 29.65 in1004.1 mb 0.00 in0.0 mm 0.00 in0.0 mm 0.17 in4.3 mm
11:48 AM 39.7°F4.3°C 34.0°F1.1°C 81% 5.8 mph WSW9.3 kmh WSW 7.4 mph11.9 kmh 29.65 in1004.1 mb 0.00 in0.0 mm 0.00 in0.0 mm 0.17 in4.3 mm
11:47 AM 39.7°F4.3°C 34.0°F1.1°C 81% 5.8 mph WSW9.3 kmh WSW 7.4 mph11.9 kmh 29.65 in1004.1 mb 0.00 in0.0 mm 0.00 in0.0 mm 0.17 in4.3 mm
11:46 AM 39.7°F4.3°C 34.0°F1.1°C 81% 5.8 mph WSW9.3 kmh WSW 7.4 mph11.9 kmh 29.65 in1004.1 mb 0.00 in0.0 mm 0.00 in0.0 mm 0.17 in4.3 mm
11:45 AM 39.7°F4.3°C 34.0°F1.1°C 81% 5.8 mph WSW9.3 kmh WSW 7.4 mph11.9 kmh 29.65 in1004.1 mb 0.00 in0.0 mm 0.00 in0.0 mm 0.17 in4.3 mm
11:44 AM 39.7°F4.3°C 34.0°F1.1°C 81% 2.9 mph WSW4.7 kmh WSW 4.9 mph7.9 kmh 29.65 in1004.1 mb 0.00 in0.0 mm 0.00 in0.0 mm 0.17 in4.3 mm
11:43 AM 39.7°F4.3°C 34.0°F1.1°C 81% 2.9 mph WSW4.7 kmh WSW 4.9 mph7.9 kmh 29.65 in1004.1 mb 0.00 in0.0 mm 0.00 in0.0 mm 0.17 in4.3 mm
11:42 AM 39.7°F4.3°C 34.0°F1.1°C 81% 2.9 mph WSW4.7 kmh WSW 4.9 mph7.9 kmh 29.65 in1004.1 mb 0.00 in0.0 mm 0.00 in0.0 mm 0.17 in4.3 mm
11:41 AM 39.7°F4.3°C 34.0°F1.1°C 81% 2.9 mph WSW4.7 kmh WSW 4.9 mph7.9 kmh 29.65 in1004.1 mb 0.00 in0.0 mm 0.00 in0.0 mm 0.17 in4.3 mm
11:40 AM 39.7°F4.3°C 34.0°F1.1°C 81% 2.9 mph WSW4.7 kmh WSW 4.9 mph7.9 kmh 29.65 in1004.1 mb 0.00 in0.0 mm 0.00 in0.0 mm 0.17 in4.3 mm
11:39 AM 39.7°F4.3°C 34.0°F1.1°C 81% 1.3 mph WSW2.1 kmh WSW 2.5 mph4.0 kmh 29.65 in1004.1 mb 0.00 in0.0 mm 0.00 in0.0 mm 0.17 in4.3 mm
11:38 AM 39.7°F4.3°C 34.0°F1.1°C 81% 1.3 mph WSW2.1 kmh WSW 2.5 mph4.0 kmh 29.65 in1004.1 mb 0.00 in0.0 mm 0.00 in0.0 mm 0.17 in4.3 mm
11:37 AM 39.7°F4.3°C 34.0°F1.1°C 81% 1.3 mph WSW2.1 kmh WSW 2.5 mph4.0 kmh 29.65 in1004.1 mb 0.00 in0.0 mm 0.00 in0.0 mm 0.17 in4.3 mm
11:36 AM 39.7°F4.3°C 34.0°F1.1°C 81% 1.3 mph WSW2.1 kmh WSW 2.5 mph4.0 kmh 29.65 in1004.1 mb 0.00 in0.0 mm 0.00 in0.0 mm 0.17 in4.3 mm
11:35 AM 39.7°F4.3°C 34.0°F1.1°C 81% 1.3 mph WSW2.1 kmh WSW 2.5 mph4.0 kmh 29.65 in1004.1 mb 0.00 in0.0 mm 0.00 in0.0 mm 0.17 in4.3 mm
11:34 AM 39.7°F4.3°C 34.0°F1.1°C 81% 1.3 mph WSW2.1 kmh WSW 2.5 mph4.0 kmh 29.65 in1004.1 mb 0.00 in0.0 mm 0.00 in0.0 mm 0.17 in4.3 mm
11:33 AM 39.7°F4.3°C 34.0°F1.1°C 81% 7.4 mph W11.9 kmh W 9.8 mph15.8 kmh 29.65 in1004.1 mb 0.00 in0.0 mm 0.00 in0.0 mm 0.17 in4.3 mm
11:32 AM 39.7°F4.3°C 34.0°F1.1°C 81% 7.4 mph W11.9 kmh W 9.8 mph15.8 kmh 29.65 in1004.1 mb 0.00 in0.0 mm 0.00 in0.0 mm 0.17 in4.3 mm
11:31 AM 39.7°F4.3°C 34.0°F1.1°C 81% 7.4 mph W11.9 kmh W 9.8 mph15.8 kmh 29.65 in1004.1 mb 0.00 in0.0 mm 0.00 in0.0 mm 0.17 in4.3 mm
11:30 AM 39.7°F4.3°C 34.0°F1.1°C 81% 7.4 mph W11.9 kmh W 9.8 mph15.8 kmh 29.65 in1004.1 mb 0.00 in0.0 mm 0.00 in0.0 mm 0.17 in4.3 mm
11:29 AM 39.7°F4.3°C 34.0°F1.1°C 81% 7.4 mph W11.9 kmh W 9.8 mph15.8 kmh 29.65 in1004.1 mb 0.00 in0.0 mm 0.00 in0.0 mm 0.17 in4.3 mm
11:28 AM 39.7°F4.3°C 34.0°F1.1°C 81% 2.0 mph WSW3.2 kmh WSW 2.5 mph4.0 kmh 29.65 in1004.1 mb 0.00 in0.0 mm 0.00 in0.0 mm 0.17 in4.3 mm
11:27 AM 39.7°F4.3°C 34.0°F1.1°C 81% 2.0 mph WSW3.2 kmh WSW 2.5 mph4.0 kmh 29.65 in1004.1 mb 0.00 in0.0 mm 0.00 in0.0 mm 0.17 in4.3 mm
11:26 AM 39.7°F4.3°C 34.0°F1.1°C 81% 2.0 mph WSW3.2 kmh WSW 2.5 mph4.0 kmh 29.65 in1004.1 mb 0.00 in0.0 mm 0.00 in0.0 mm 0.17 in4.3 mm
11:25 AM 39.7°F4.3°C 34.0°F1.1°C 81% 2.0 mph WSW3.2 kmh WSW 2.5 mph4.0 kmh 29.65 in1004.1 mb 0.00 in0.0 mm 0.00 in0.0 mm 0.17 in4.3 mm
11:24 AM 39.7°F4.3°C 34.0°F1.1°C 81% 2.0 mph WSW3.2 kmh WSW 2.5 mph4.0 kmh 29.65 in1004.1 mb 0.00 in0.0 mm 0.00 in0.0 mm 0.17 in4.3 mm
11:23 AM 39.7°F4.3°C 35.0°F1.7°C 82% 7.6 mph WNW12.2 kmh WNW 9.8 mph15.8 kmh 29.66 in1004.4 mb 0.00 in0.0 mm 0.00 in0.0 mm 0.17 in4.3 mm
11:22 AM 39.7°F4.3°C 35.0°F1.7°C 82% 7.6 mph WNW12.2 kmh WNW 9.8 mph15.8 kmh 29.66 in1004.4 mb 0.00 in0.0 mm 0.00 in0.0 mm 0.17 in4.3 mm
11:21 AM 39.7°F4.3°C 35.0°F1.7°C 82% 7.6 mph WNW12.2 kmh WNW 9.8 mph15.8 kmh 29.66 in1004.4 mb 0.00 in0.0 mm 0.00 in0.0 mm 0.17 in4.3 mm
11:20 AM 39.7°F4.3°C 35.0°F1.7°C 82% 7.6 mph WNW12.2 kmh WNW 9.8 mph15.8 kmh 29.66 in1004.4 mb 0.00 in0.0 mm 0.00 in0.0 mm 0.17 in4.3 mm
11:19 AM 39.7°F4.3°C 35.0°F1.7°C 82% 7.6 mph WNW12.2 kmh WNW 9.8 mph15.8 kmh 29.66 in1004.4 mb 0.00 in0.0 mm 0.00 in0.0 mm 0.17 in4.3 mm
11:18 AM 39.6°F4.2°C 34.0°F1.1°C 82% 5.8 mph WSW9.3 kmh WSW 7.4 mph11.9 kmh 29.66 in1004.4 mb 0.00 in0.0 mm 0.00 in0.0 mm 0.17 in4.3 mm
11:17 AM 39.6°F4.2°C 34.0°F1.1°C 82% 5.8 mph WSW9.3 kmh WSW 7.4 mph11.9 kmh 29.66 in1004.4 mb 0.00 in0.0 mm 0.00 in0.0 mm 0.17 in4.3 mm
11:16 AM 39.6°F4.2°C 34.0°F1.1°C 82% 5.8 mph WSW9.3 kmh WSW 7.4 mph11.9 kmh 29.66 in1004.4 mb 0.00 in0.0 mm 0.00 in0.0 mm 0.17 in4.3 mm
11:15 AM 39.6°F4.2°C 34.0°F1.1°C 82% 5.8 mph WSW9.3 kmh WSW 7.4 mph11.9 kmh 29.66 in1004.4 mb 0.00 in0.0 mm 0.00 in0.0 mm 0.17 in4.3 mm
11:14 AM 39.6°F4.2°C 34.0°F1.1°C 82% 5.8 mph WSW9.3 kmh WSW 7.4 mph11.9 kmh 29.66 in1004.4 mb 0.00 in0.0 mm 0.00 in0.0 mm 0.17 in4.3 mm
11:13 AM 39.4°F4.1°C 35.0°F1.7°C 83% 4.5 mph W7.2 kmh W 7.4 mph11.9 kmh 29.66 in1004.4 mb 0.00 in0.0 mm 0.00 in0.0 mm 0.17 in4.3 mm
11:12 AM 39.4°F4.1°C 35.0°F1.7°C 83% 4.5 mph W7.2 kmh W 7.4 mph11.9 kmh 29.66 in1004.4 mb 0.00 in0.0 mm 0.00 in0.0 mm 0.17 in4.3 mm
11:11 AM 39.4°F4.1°C 35.0°F1.7°C 83% 4.5 mph W7.2 kmh W 7.4 mph11.9 kmh 29.66 in1004.4 mb 0.00 in0.0 mm 0.00 in0.0 mm 0.17 in4.3 mm
11:10 AM 39.4°F4.1°C 35.0°F1.7°C 83% 4.5 mph W7.2 kmh W 7.4 mph11.9 kmh 29.66 in1004.4 mb 0.00 in0.0 mm 0.00 in0.0 mm 0.17 in4.3 mm
11:09 AM 39.4°F4.1°C 35.0°F1.7°C 83% 4.5 mph W7.2 kmh W 7.4 mph11.9 kmh 29.66 in1004.4 mb 0.00 in0.0 mm 0.00 in0.0 mm 0.17 in4.3 mm
11:08 AM 39.4°F4.1°C 35.0°F1.7°C 83% 2.9 mph WSW4.7 kmh WSW 4.9 mph7.9 kmh 29.67 in1004.7 mb 0.00 in0.0 mm 0.00 in0.0 mm 0.17 in4.3 mm
11:07 AM 39.4°F4.1°C 35.0°F1.7°C 83% 2.9 mph WSW4.7 kmh WSW 4.9 mph7.9 kmh 29.67 in1004.7 mb 0.00 in0.0 mm 0.00 in0.0 mm 0.17 in4.3 mm
11:06 AM 39.4°F4.1°C 35.0°F1.7°C 83% 2.9 mph WSW4.7 kmh WSW 4.9 mph7.9 kmh 29.67 in1004.7 mb 0.00 in0.0 mm 0.00 in0.0 mm 0.17 in4.3 mm
11:05 AM 39.4°F4.1°C 35.0°F1.7°C 83% 2.9 mph WSW4.7 kmh WSW 4.9 mph7.9 kmh 29.67 in1004.7 mb 0.00 in0.0 mm 0.00 in0.0 mm 0.17 in4.3 mm
11:04 AM 39.4°F4.1°C 35.0°F1.7°C 83% 2.9 mph WSW4.7 kmh WSW 4.9 mph7.9 kmh 29.67 in1004.7 mb 0.00 in0.0 mm 0.00 in0.0 mm 0.17 in4.3 mm
11:03 AM 39.4°F4.1°C 35.0°F1.7°C 83% 2.9 mph WSW4.7 kmh WSW 4.9 mph7.9 kmh 29.67 in1004.7 mb 0.00 in0.0 mm 0.00 in0.0 mm 0.17 in4.3 mm
11:02 AM 39.2°F4.0°C 35.0°F1.7°C 84% 5.1 mph WSW8.2 kmh WSW 7.4 mph11.9 kmh 29.67 in1004.7 mb 0.00 in0.0 mm 0.00 in0.0 mm 0.17 in4.3 mm
11:01 AM 39.2°F4.0°C 35.0°F1.7°C 84% 5.1 mph WSW8.2 kmh WSW 7.4 mph11.9 kmh 29.67 in1004.7 mb 0.00 in0.0 mm 0.00 in0.0 mm 0.17 in4.3 mm
11:00 AM 39.2°F4.0°C 35.0°F1.7°C 84% 5.1 mph WSW8.2 kmh WSW 7.4 mph11.9 kmh 29.67 in1004.7 mb 0.00 in0.0 mm 0.00 in0.0 mm 0.17 in4.3 mm
10:59 AM 39.2°F4.0°C 35.0°F1.7°C 84% 5.1 mph WSW8.2 kmh WSW 7.4 mph11.9 kmh 29.67 in1004.7 mb 0.00 in0.0 mm 0.00 in0.0 mm 0.17 in4.3 mm
10:58 AM 39.2°F4.0°C 35.0°F1.7°C 84% 5.1 mph WSW8.2 kmh WSW 7.4 mph11.9 kmh 29.67 in1004.7 mb 0.00 in0.0 mm 0.00 in0.0 mm 0.17 in4.3 mm
10:57 AM 39.2°F4.0°C 35.0°F1.7°C 84% 4.5 mph WSW7.2 kmh WSW 4.9 mph7.9 kmh 29.65 in1004.1 mb 0.00 in0.0 mm 0.00 in0.0 mm 0.17 in4.3 mm
10:56 AM 39.2°F4.0°C 35.0°F1.7°C 84% 4.5 mph WSW7.2 kmh WSW 4.9 mph7.9 kmh 29.65 in1004.1 mb 0.00 in0.0 mm 0.00 in0.0 mm 0.17 in4.3 mm
10:55 AM 39.2°F4.0°C 35.0°F1.7°C 84% 4.5 mph WSW7.2 kmh WSW 4.9 mph7.9 kmh 29.65 in1004.1 mb 0.00 in0.0 mm 0.00 in0.0 mm 0.17 in4.3 mm
10:54 AM 39.2°F4.0°C 35.0°F1.7°C 84% 4.5 mph WSW7.2 kmh WSW 4.9 mph7.9 kmh 29.65 in1004.1 mb 0.00 in0.0 mm 0.00 in0.0 mm 0.17 in4.3 mm
10:53 AM 39.2°F4.0°C 35.0°F1.7°C 84% 4.5 mph WSW7.2 kmh WSW 4.9 mph7.9 kmh 29.65 in1004.1 mb 0.00 in0.0 mm 0.00 in0.0 mm 0.17 in4.3 mm
10:52 AM 39.2°F4.0°C 35.0°F1.7°C 84% 10.3 mph NW16.6 kmh NW 12.3 mph19.8 kmh 29.65 in1004.1 mb 0.00 in0.0 mm 0.00 in0.0 mm 0.17 in4.3 mm
10:51 AM 39.2°F4.0°C 35.0°F1.7°C 84% 10.3 mph NW16.6 kmh NW 12.3 mph19.8 kmh 29.65 in1004.1 mb 0.00 in0.0 mm 0.00 in0.0 mm 0.17 in4.3 mm
10:50 AM 39.2°F4.0°C 35.0°F1.7°C 84% 10.3 mph NW16.6 kmh NW 12.3 mph19.8 kmh 29.65 in1004.1 mb 0.00 in0.0 mm 0.00 in0.0 mm 0.17 in4.3 mm
10:49 AM 39.2°F4.0°C 35.0°F1.7°C 84% 10.3 mph NW16.6 kmh NW 12.3 mph19.8 kmh 29.65 in1004.1 mb 0.00 in0.0 mm 0.00 in0.0 mm 0.17 in4.3 mm
10:48 AM 39.2°F4.0°C 35.0°F1.7°C 84% 10.3 mph NW16.6 kmh NW 12.3 mph19.8 kmh 29.65 in1004.1 mb 0.00 in0.0 mm 0.00 in0.0 mm 0.17 in4.3 mm
10:47 AM 39.2°F4.0°C 35.0°F1.7°C 84% 4.5 mph SW7.2 kmh SW 7.4 mph11.9 kmh 29.65 in1004.1 mb 0.00 in0.0 mm 0.00 in0.0 mm 0.17 in4.3 mm
10:46 AM 39.2°F4.0°C 35.0°F1.7°C 84% 4.5 mph SW7.2 kmh SW 7.4 mph11.9 kmh 29.65 in1004.1 mb 0.00 in0.0 mm 0.00 in0.0 mm 0.17 in4.3 mm
10:45 AM 39.2°F4.0°C 35.0°F1.7°C 84% 4.5 mph SW7.2 kmh SW 7.4 mph11.9 kmh 29.65 in1004.1 mb 0.00 in0.0 mm 0.00 in0.0 mm 0.17 in4.3 mm
10:44 AM 39.2°F4.0°C 35.0°F1.7°C 84% 4.5 mph SW7.2 kmh SW 7.4 mph11.9 kmh 29.65 in1004.1 mb 0.00 in0.0 mm 0.00 in0.0 mm 0.17 in4.3 mm
10:43 AM 39.2°F4.0°C 35.0°F1.7°C 84% 4.5 mph SW7.2 kmh SW 7.4 mph11.9 kmh 29.65 in1004.1 mb 0.00 in0.0 mm 0.00 in0.0 mm 0.17 in4.3 mm
10:42 AM 39.2°F4.0°C 35.0°F1.7°C 84% 9.6 mph WSW15.4 kmh WSW 12.3 mph19.8 kmh 29.65 in1004.1 mb 0.00 in0.0 mm 0.00 in0.0 mm 0.17 in4.3 mm
10:41 AM 39.2°F4.0°C 35.0°F1.7°C 84% 9.6 mph WSW15.4 kmh WSW 12.3 mph19.8 kmh 29.65 in1004.1 mb 0.00 in0.0 mm 0.00 in0.0 mm 0.17 in4.3 mm
10:40 AM 39.2°F4.0°C 35.0°F1.7°C 84% 9.6 mph WSW15.4 kmh WSW 12.3 mph19.8 kmh 29.65 in1004.1 mb 0.00 in0.0 mm 0.00 in0.0 mm 0.17 in4.3 mm
10:39 AM 39.2°F4.0°C 35.0°F1.7°C 84% 9.6 mph WSW15.4 kmh WSW 12.3 mph19.8 kmh 29.65 in1004.1 mb 0.00 in0.0 mm 0.00 in0.0 mm 0.17 in4.3 mm
10:38 AM 39.2°F4.0°C 35.0°F1.7°C 84% 9.6 mph WSW15.4 kmh WSW 12.3 mph19.8 kmh 29.65 in1004.1 mb 0.00 in0.0 mm 0.00 in0.0 mm 0.17 in4.3 mm
10:37 AM 39.0°F3.9°C 34.0°F1.1°C 84% 9.2 mph W14.8 kmh W 15.0 mph24.1 kmh 29.65 in1004.1 mb 0.00 in0.0 mm 0.00 in0.0 mm 0.17 in4.3 mm
10:36 AM 39.0°F3.9°C 34.0°F1.1°C 84% 9.2 mph W14.8 kmh W 15.0 mph24.1 kmh 29.65 in1004.1 mb 0.00 in0.0 mm 0.00 in0.0 mm 0.17 in4.3 mm
10:35 AM 39.0°F3.9°C 34.0°F1.1°C 84% 9.2 mph W14.8 kmh W 15.0 mph24.1 kmh 29.65 in1004.1 mb 0.00 in0.0 mm 0.00 in0.0 mm 0.17 in4.3 mm
10:34 AM 39.0°F3.9°C 34.0°F1.1°C 84% 9.2 mph W14.8 kmh W 15.0 mph24.1 kmh 29.65 in1004.1 mb 0.00 in0.0 mm 0.00 in0.0 mm 0.17 in4.3 mm
10:33 AM 39.0°F3.9°C 34.0°F1.1°C 84% 9.2 mph W14.8 kmh W 15.0 mph24.1 kmh 29.65 in1004.1 mb 0.00 in0.0 mm 0.00 in0.0 mm 0.17 in4.3 mm
10:32 AM 39.0°F3.9°C 34.0°F1.1°C 84% 3.6 mph SW5.8 kmh SW 7.4 mph11.9 kmh 29.65 in1004.1 mb 0.00 in0.0 mm 0.00 in0.0 mm 0.17 in4.3 mm
10:31 AM 39.0°F3.9°C 34.0°F1.1°C 84% 3.6 mph SW5.8 kmh SW 7.4 mph11.9 kmh 29.65 in1004.1 mb 0.00 in0.0 mm 0.00 in0.0 mm 0.17 in4.3 mm
10:30 AM 39.0°F3.9°C 34.0°F1.1°C 84% 3.6 mph SW5.8 kmh SW 7.4 mph11.9 kmh 29.65 in1004.1 mb 0.00 in0.0 mm 0.00 in0.0 mm 0.17 in4.3 mm
10:29 AM 39.0°F3.9°C 34.0°F1.1°C 84% 3.6 mph SW5.8 kmh SW 7.4 mph11.9 kmh 29.65 in1004.1 mb 0.00 in0.0 mm 0.00 in0.0 mm 0.17 in4.3 mm
10:28 AM 39.0°F3.9°C 34.0°F1.1°C 84% 3.6 mph SW5.8 kmh SW 7.4 mph11.9 kmh 29.65 in1004.1 mb 0.00 in0.0 mm 0.00 in0.0 mm 0.17 in4.3 mm
10:27 AM 39.0°F3.9°C 35.0°F1.7°C 85% 2.9 mph W4.7 kmh W 4.9 mph7.9 kmh 29.65 in1004.1 mb 0.00 in0.0 mm 0.00 in0.0 mm 0.17 in4.3 mm
10:26 AM 39.0°F3.9°C 35.0°F1.7°C 85% 2.9 mph W4.7 kmh W 4.9 mph7.9 kmh 29.65 in1004.1 mb 0.00 in0.0 mm 0.00 in0.0 mm 0.17 in4.3 mm
10:25 AM 39.0°F3.9°C 35.0°F1.7°C 85% 2.9 mph W4.7 kmh W 4.9 mph7.9 kmh 29.65 in1004.1 mb 0.00 in0.0 mm 0.00 in0.0 mm 0.17 in4.3 mm
10:24 AM 39.0°F3.9°C 35.0°F1.7°C 85% 2.9 mph W4.7 kmh W 4.9 mph7.9 kmh 29.65 in1004.1 mb 0.00 in0.0 mm 0.00 in0.0 mm 0.17 in4.3 mm
10:23 AM 39.0°F3.9°C 35.0°F1.7°C 85% 2.9 mph W4.7 kmh W 4.9 mph7.9 kmh 29.65 in1004.1 mb 0.00 in0.0 mm 0.00 in0.0 mm 0.17 in4.3 mm
10:22 AM 39.0°F3.9°C 35.0°F1.7°C 85% 6.5 mph W10.5 kmh W 7.4 mph11.9 kmh 29.65 in1004.1 mb 0.00 in0.0 mm 0.00 in0.0 mm 0.17 in4.3 mm
10:21 AM 39.0°F3.9°C 35.0°F1.7°C 85% 6.5 mph W10.5 kmh W 7.4 mph11.9 kmh 29.65 in1004.1 mb 0.00 in0.0 mm 0.00 in0.0 mm 0.17 in4.3 mm
10:20 AM 39.0°F3.9°C 35.0°F1.7°C 85% 6.5 mph W10.5 kmh W 7.4 mph11.9 kmh 29.65 in1004.1 mb 0.00 in0.0 mm 0.00 in0.0 mm 0.17 in4.3 mm
10:19 AM 39.0°F3.9°C 35.0°F1.7°C 85% 6.5 mph W10.5 kmh W 7.4 mph11.9 kmh 29.65 in1004.1 mb 0.00 in0.0 mm 0.00 in0.0 mm 0.17 in4.3 mm
10:18 AM 39.0°F3.9°C 35.0°F1.7°C 85% 6.5 mph W10.5 kmh W 7.4 mph11.9 kmh 29.65 in1004.1 mb 0.00 in0.0 mm 0.00 in0.0 mm 0.17 in4.3 mm
10:17 AM 39.0°F3.9°C 35.0°F1.7°C 85% 4.5 mph SW7.2 kmh SW 4.9 mph7.9 kmh 29.65 in1004.1 mb 0.00 in0.0 mm 0.00 in0.0 mm 0.17 in4.3 mm
10:16 AM 39.0°F3.9°C 35.0°F1.7°C 85% 4.5 mph SW7.2 kmh SW 4.9 mph7.9 kmh 29.65 in1004.1 mb 0.00 in0.0 mm 0.00 in0.0 mm 0.17 in4.3 mm
10:15 AM 39.0°F3.9°C 35.0°F1.7°C 85% 4.5 mph SW7.2 kmh SW 4.9 mph7.9 kmh 29.65 in1004.1 mb 0.00 in0.0 mm 0.00 in0.0 mm 0.17 in4.3 mm
09:56 AM 39.2°F4.0°C 35.0°F1.7°C 84% 3.6 mph WSW5.8 kmh WSW 4.9 mph7.9 kmh 29.63 in1003.4 mb 0.00 in0.0 mm 0.00 in0.0 mm 0.17 in4.3 mm
09:55 AM 39.2°F4.0°C 35.0°F1.7°C 84% 3.6 mph WSW5.8 kmh WSW 4.9 mph7.9 kmh 29.63 in1003.4 mb 0.00 in0.0 mm 0.00 in0.0 mm 0.17 in4.3 mm
09:54 AM 39.2°F4.0°C 35.0°F1.7°C 84% 3.6 mph WSW5.8 kmh WSW 4.9 mph7.9 kmh 29.63 in1003.4 mb 0.00 in0.0 mm 0.00 in0.0 mm 0.17 in4.3 mm
09:53 AM 39.2°F4.0°C 35.0°F1.7°C 84% 4.0 mph WSW6.4 kmh WSW 4.9 mph7.9 kmh 29.63 in1003.4 mb 0.00 in0.0 mm 0.00 in0.0 mm 0.17 in4.3 mm
09:52 AM 39.2°F4.0°C 35.0°F1.7°C 84% 4.0 mph WSW6.4 kmh WSW 4.9 mph7.9 kmh 29.63 in1003.4 mb 0.00 in0.0 mm 0.00 in0.0 mm 0.17 in4.3 mm
09:51 AM 39.2°F4.0°C 35.0°F1.7°C 84% 4.0 mph WSW6.4 kmh WSW 4.9 mph7.9 kmh 29.63 in1003.4 mb 0.00 in0.0 mm 0.00 in0.0 mm 0.17 in4.3 mm
09:50 AM 39.2°F4.0°C 35.0°F1.7°C 84% 4.0 mph WSW6.4 kmh WSW 4.9 mph7.9 kmh 29.63 in1003.4 mb 0.00 in0.0 mm 0.00 in0.0 mm 0.17 in4.3 mm
09:49 AM 39.2°F4.0°C 35.0°F1.7°C 84% 4.0 mph WSW6.4 kmh WSW 4.9 mph7.9 kmh 29.63 in1003.4 mb 0.00 in0.0 mm 0.00 in0.0 mm 0.17 in4.3 mm
09:48 AM 39.0°F3.9°C 34.0°F1.1°C 84% 6.7 mph W10.8 kmh W 9.8 mph15.8 kmh 29.63 in1003.4 mb 0.00 in0.0 mm 0.00 in0.0 mm 0.17 in4.3 mm
09:47 AM 39.0°F3.9°C 34.0°F1.1°C 84% 6.7 mph W10.8 kmh W 9.8 mph15.8 kmh 29.63 in1003.4 mb 0.00 in0.0 mm 0.00 in0.0 mm 0.17 in4.3 mm
09:46 AM 39.0°F3.9°C 34.0°F1.1°C 84% 6.7 mph W10.8 kmh W 9.8 mph15.8 kmh 29.63 in1003.4 mb 0.00 in0.0 mm 0.00 in0.0 mm 0.17 in4.3 mm
09:45 AM 39.0°F3.9°C 34.0°F1.1°C 84% 6.7 mph W10.8 kmh W 9.8 mph15.8 kmh 29.63 in1003.4 mb 0.00 in0.0 mm 0.00 in0.0 mm 0.17 in4.3 mm
09:44 AM 39.0°F3.9°C 34.0°F1.1°C 84% 6.7 mph W10.8 kmh W 9.8 mph15.8 kmh 29.63 in1003.4 mb 0.00 in0.0 mm 0.00 in0.0 mm 0.17 in4.3 mm
09:43 AM 39.0°F3.9°C 34.0°F1.1°C 84% 6.7 mph W10.8 kmh W 9.8 mph15.8 kmh 29.63 in1003.4 mb 0.00 in0.0 mm 0.00 in0.0 mm 0.17 in4.3 mm
09:42 AM 38.8°F3.8°C 34.0°F1.1°C 84% 3.4 mph SW5.5 kmh SW 4.9 mph7.9 kmh 29.63 in1003.4 mb 0.00 in0.0 mm 0.00 in0.0 mm 0.17 in4.3 mm
09:41 AM 38.8°F3.8°C 34.0°F1.1°C 84% 3.4 mph SW5.5 kmh SW 4.9 mph7.9 kmh 29.63 in1003.4 mb 0.00 in0.0 mm 0.00 in0.0 mm 0.17 in4.3 mm
09:40 AM 38.8°F3.8°C 34.0°F1.1°C 84% 3.4 mph SW5.5 kmh SW 4.9 mph7.9 kmh 29.63 in1003.4 mb 0.00 in0.0 mm 0.00 in0.0 mm 0.17 in4.3 mm
09:39 AM 38.8°F3.8°C 34.0°F1.1°C 84% 3.4 mph SW5.5 kmh SW 4.9 mph7.9 kmh 29.63 in1003.4 mb 0.00 in0.0 mm 0.00 in0.0 mm 0.17 in4.3 mm
09:38 AM 38.8°F3.8°C 34.0°F1.1°C 84% 3.4 mph SW5.5 kmh SW 4.9 mph7.9 kmh 29.63 in1003.4 mb 0.00 in0.0 mm 0.00 in0.0 mm 0.17 in4.3 mm
09:37 AM 38.8°F3.8°C 35.0°F1.7°C 85% 8.7 mph WSW14.0 kmh WSW 9.8 mph15.8 kmh 29.63 in1003.4 mb 0.00 in0.0 mm 0.00 in0.0 mm 0.17 in4.3 mm
09:36 AM 38.8°F3.8°C 35.0°F1.7°C 85% 8.7 mph WSW14.0 kmh WSW 9.8 mph15.8 kmh 29.63 in1003.4 mb 0.00 in0.0 mm 0.00 in0.0 mm 0.17 in4.3 mm
09:35 AM 38.8°F3.8°C 35.0°F1.7°C 85% 8.7 mph WSW14.0 kmh WSW 9.8 mph15.8 kmh 29.63 in1003.4 mb 0.00 in0.0 mm 0.00 in0.0 mm 0.17 in4.3 mm
09:34 AM 38.8°F3.8°C 35.0°F1.7°C 85% 8.7 mph WSW14.0 kmh WSW 9.8 mph15.8 kmh 29.63 in1003.4 mb 0.00 in0.0 mm 0.00 in0.0 mm 0.17 in4.3 mm
09:33 AM 38.8°F3.8°C 35.0°F1.7°C 85% 8.7 mph WSW14.0 kmh WSW 9.8 mph15.8 kmh 29.63 in1003.4 mb 0.00 in0.0 mm 0.00 in0.0 mm 0.17 in4.3 mm
09:32 AM 38.8°F3.8°C 35.0°F1.7°C 85% 4.5 mph WSW7.2 kmh WSW 4.9 mph7.9 kmh 29.63 in1003.4 mb 0.00 in0.0 mm 0.00 in0.0 mm 0.17 in4.3 mm
09:31 AM 38.8°F3.8°C 35.0°F1.7°C 85% 4.5 mph WSW7.2 kmh WSW 4.9 mph7.9 kmh 29.63 in1003.4 mb 0.00 in0.0 mm 0.00 in0.0 mm 0.17 in4.3 mm
09:30 AM 38.8°F3.8°C 35.0°F1.7°C 85% 4.5 mph WSW7.2 kmh WSW 4.9 mph7.9 kmh 29.63 in1003.4 mb 0.00 in0.0 mm 0.00 in0.0 mm 0.17 in4.3 mm
09:29 AM 38.8°F3.8°C 35.0°F1.7°C 85% 4.5 mph WSW7.2 kmh WSW 4.9 mph7.9 kmh 29.63 in1003.4 mb 0.00 in0.0 mm 0.00 in0.0 mm 0.17 in4.3 mm
09:28 AM 38.8°F3.8°C 35.0°F1.7°C 85% 4.5 mph WSW7.2 kmh WSW 4.9 mph7.9 kmh 29.63 in1003.4 mb 0.00 in0.0 mm 0.00 in0.0 mm 0.17 in4.3 mm
09:27 AM 38.8°F3.8°C 35.0°F1.7°C 86% 3.4 mph SW5.5 kmh SW 4.9 mph7.9 kmh 29.63 in1003.4 mb 0.00 in0.0 mm 0.00 in0.0 mm 0.17 in4.3 mm
09:26 AM 38.8°F3.8°C 35.0°F1.7°C 86% 3.4 mph SW5.5 kmh SW 4.9 mph7.9 kmh 29.63 in1003.4 mb 0.00 in0.0 mm 0.00 in0.0 mm 0.17 in4.3 mm
09:25 AM 38.8°F3.8°C 35.0°F1.7°C 86% 3.4 mph SW5.5 kmh SW 4.9 mph7.9 kmh 29.63 in1003.4 mb 0.00 in0.0 mm 0.00 in0.0 mm 0.17 in4.3 mm
09:24 AM 38.8°F3.8°C 35.0°F1.7°C 86% 3.4 mph SW5.5 kmh SW 4.9 mph7.9 kmh 29.63 in1003.4 mb 0.00 in0.0 mm 0.00 in0.0 mm 0.17 in4.3 mm
09:23 AM 38.8°F3.8°C 35.0°F1.7°C 86% 3.4 mph SW5.5 kmh SW 4.9 mph7.9 kmh 29.63 in1003.4 mb 0.00 in0.0 mm 0.00 in0.0 mm 0.17 in4.3 mm
09:22 AM 38.8°F3.8°C 35.0°F1.7°C 86% 2.7 mph SW4.3 kmh SW 4.9 mph7.9 kmh 29.64 in1003.7 mb 0.00 in0.0 mm 0.00 in0.0 mm 0.17 in4.3 mm
09:21 AM 38.8°F3.8°C 35.0°F1.7°C 86% 2.7 mph SW4.3 kmh SW 4.9 mph7.9 kmh 29.64 in1003.7 mb 0.00 in0.0 mm 0.00 in0.0 mm 0.17 in4.3 mm
09:20 AM 38.8°F3.8°C 35.0°F1.7°C 86% 2.7 mph SW4.3 kmh SW 4.9 mph7.9 kmh 29.64 in1003.7 mb 0.00 in0.0 mm 0.00 in0.0 mm 0.17 in4.3 mm
09:19 AM 38.8°F3.8°C 35.0°F1.7°C 86% 2.7 mph SW4.3 kmh SW 4.9 mph7.9 kmh 29.64 in1003.7 mb 0.00 in0.0 mm 0.00 in0.0 mm 0.17 in4.3 mm
09:18 AM 38.8°F3.8°C 35.0°F1.7°C 86% 2.7 mph SW4.3 kmh SW 4.9 mph7.9 kmh 29.64 in1003.7 mb 0.00 in0.0 mm 0.00 in0.0 mm 0.17 in4.3 mm
09:17 AM 38.8°F3.8°C 35.0°F1.7°C 86% 3.6 mph WSW5.8 kmh WSW 4.9 mph7.9 kmh 29.64 in1003.7 mb 0.00 in0.0 mm 0.00 in0.0 mm 0.17 in4.3 mm
09:16 AM 38.8°F3.8°C 35.0°F1.7°C 86% 3.6 mph WSW5.8 kmh WSW 4.9 mph7.9 kmh 29.64 in1003.7 mb 0.00 in0.0 mm 0.00 in0.0 mm 0.17 in4.3 mm
09:15 AM 38.8°F3.8°C 35.0°F1.7°C 86% 3.6 mph WSW5.8 kmh WSW 4.9 mph7.9 kmh 29.64 in1003.7 mb 0.00 in0.0 mm 0.00 in0.0 mm 0.17 in4.3 mm
09:14 AM 38.8°F3.8°C 35.0°F1.7°C 86% 3.6 mph WSW5.8 kmh WSW 4.9 mph7.9 kmh 29.64 in1003.7 mb 0.00 in0.0 mm 0.00 in0.0 mm 0.17 in4.3 mm
09:13 AM 38.8°F3.8°C 35.0°F1.7°C 86% 3.6 mph WSW5.8 kmh WSW 4.9 mph7.9 kmh 29.64 in1003.7 mb 0.00 in0.0 mm 0.00 in0.0 mm 0.17 in4.3 mm
09:12 AM 38.8°F3.8°C 35.0°F1.7°C 85% 4.5 mph WSW7.2 kmh WSW 4.9 mph7.9 kmh 29.64 in1003.7 mb 0.00 in0.0 mm 0.00 in0.0 mm 0.17 in4.3 mm
09:11 AM 38.8°F3.8°C 35.0°F1.7°C 85% 4.5 mph WSW7.2 kmh WSW 4.9 mph7.9 kmh 29.64 in1003.7 mb 0.00 in0.0 mm 0.00 in0.0 mm 0.17 in4.3 mm
09:10 AM 38.8°F3.8°C 35.0°F1.7°C 85% 4.5 mph WSW7.2 kmh WSW 4.9 mph7.9 kmh 29.64 in1003.7 mb 0.00 in0.0 mm 0.00 in0.0 mm 0.17 in4.3 mm
09:09 AM 38.8°F3.8°C 35.0°F1.7°C 85% 4.5 mph WSW7.2 kmh WSW 4.9 mph7.9 kmh 29.64 in1003.7 mb 0.00 in0.0 mm 0.00 in0.0 mm 0.17 in4.3 mm
09:08 AM 38.8°F3.8°C 35.0°F1.7°C 85% 4.5 mph WSW7.2 kmh WSW 4.9 mph7.9 kmh 29.64 in1003.7 mb 0.00 in0.0 mm 0.00 in0.0 mm 0.17 in4.3 mm
09:07 AM 38.8°F3.8°C 35.0°F1.7°C 85% 5.1 mph WSW8.2 kmh WSW 7.4 mph11.9 kmh 29.64 in1003.7 mb 0.00 in0.0 mm 0.00 in0.0 mm 0.17 in4.3 mm
09:06 AM 38.8°F3.8°C 35.0°F1.7°C 85% 5.1 mph WSW8.2 kmh WSW 7.4 mph11.9 kmh 29.64 in1003.7 mb 0.00 in0.0 mm 0.00 in0.0 mm 0.17 in4.3 mm
09:05 AM 38.8°F3.8°C 35.0°F1.7°C 85% 5.1 mph WSW8.2 kmh WSW 7.4 mph11.9 kmh 29.64 in1003.7 mb 0.00 in0.0 mm 0.00 in0.0 mm 0.17 in4.3 mm
09:04 AM 38.8°F3.8°C 35.0°F1.7°C 85% 5.1 mph WSW8.2 kmh WSW 7.4 mph11.9 kmh 29.64 in1003.7 mb 0.00 in0.0 mm 0.00 in0.0 mm 0.17 in4.3 mm
09:03 AM 38.8°F3.8°C 35.0°F1.7°C 85% 5.1 mph WSW8.2 kmh WSW 7.4 mph11.9 kmh 29.64 in1003.7 mb 0.00 in0.0 mm 0.00 in0.0 mm 0.17 in4.3 mm
09:02 AM 38.8°F3.8°C 35.0°F1.7°C 85% 4.0 mph WSW6.4 kmh WSW 4.9 mph7.9 kmh 29.64 in1003.7 mb 0.00 in0.0 mm 0.00 in0.0 mm 0.17 in4.3 mm
09:01 AM 38.8°F3.8°C 35.0°F1.7°C 85% 4.0 mph WSW6.4 kmh WSW 4.9 mph7.9 kmh 29.64 in1003.7 mb 0.00 in0.0 mm 0.00 in0.0 mm 0.17 in4.3 mm
09:00 AM 38.8°F3.8°C 35.0°F1.7°C 85% 4.0 mph WSW6.4 kmh WSW 4.9 mph7.9 kmh 29.64 in1003.7 mb 0.00 in0.0 mm 0.00 in0.0 mm 0.17 in4.3 mm
08:59 AM 38.8°F3.8°C 35.0°F1.7°C 85% 4.0 mph WSW6.4 kmh WSW 4.9 mph7.9 kmh 29.64 in1003.7 mb 0.00 in0.0 mm 0.00 in0.0 mm 0.17 in4.3 mm
08:58 AM 38.8°F3.8°C 35.0°F1.7°C 85% 4.0 mph WSW6.4 kmh WSW 4.9 mph7.9 kmh 29.64 in1003.7 mb 0.00 in0.0 mm 0.00 in0.0 mm 0.17 in4.3 mm
08:57 AM 38.8°F3.8°C 35.0°F1.7°C 85% 2.7 mph W4.3 kmh W 4.9 mph7.9 kmh 29.62 in1003.0 mb 0.00 in0.0 mm 0.00 in0.0 mm 0.17 in4.3 mm
08:56 AM 38.8°F3.8°C 35.0°F1.7°C 85% 2.7 mph W4.3 kmh W 4.9 mph7.9 kmh 29.62 in1003.0 mb 0.00 in0.0 mm 0.00 in0.0 mm 0.17 in4.3 mm
08:55 AM 38.8°F3.8°C 35.0°F1.7°C 85% 2.7 mph W4.3 kmh W 4.9 mph7.9 kmh 29.62 in1003.0 mb 0.00 in0.0 mm 0.00 in0.0 mm 0.17 in4.3 mm
08:54 AM 38.8°F3.8°C 35.0°F1.7°C 85% 2.7 mph W4.3 kmh W 4.9 mph7.9 kmh 29.62 in1003.0 mb 0.00 in0.0 mm 0.00 in0.0 mm 0.17 in4.3 mm
08:53 AM 38.8°F3.8°C 35.0°F1.7°C 85% 2.7 mph W4.3 kmh W 4.9 mph7.9 kmh 29.62 in1003.0 mb 0.00 in0.0 mm 0.00 in0.0 mm 0.17 in4.3 mm
08:52 AM 38.7°F3.7°C 34.0°F1.1°C 85% 4.3 mph SW6.9 kmh SW 7.4 mph11.9 kmh 29.62 in1003.0 mb 0.00 in0.0 mm 0.00 in0.0 mm 0.17 in4.3 mm
08:51 AM 38.7°F3.7°C 34.0°F1.1°C 85% 4.3 mph SW6.9 kmh SW 7.4 mph11.9 kmh 29.62 in1003.0 mb 0.00 in0.0 mm 0.00 in0.0 mm 0.17 in4.3 mm
08:50 AM 38.7°F3.7°C 34.0°F1.1°C 85% 4.3 mph SW6.9 kmh SW 7.4 mph11.9 kmh 29.62 in1003.0 mb 0.00 in0.0 mm 0.00 in0.0 mm 0.17 in4.3 mm
08:49 AM 38.7°F3.7°C 34.0°F1.1°C 85% 4.3 mph SW6.9 kmh SW 7.4 mph11.9 kmh 29.62 in1003.0 mb 0.00 in0.0 mm 0.00 in0.0 mm 0.17 in4.3 mm
08:48 AM 38.7°F3.7°C 34.0°F1.1°C 85% 4.3 mph SW6.9 kmh SW 7.4 mph11.9 kmh 29.62 in1003.0 mb 0.00 in0.0 mm 0.00 in0.0 mm 0.17 in4.3 mm
08:47 AM 38.7°F3.7°C 34.0°F1.1°C 85% 2.7 mph WSW4.3 kmh WSW 4.9 mph7.9 kmh 29.62 in1003.0 mb 0.00 in0.0 mm 0.00 in0.0 mm 0.17 in4.3 mm
08:46 AM 38.7°F3.7°C 34.0°F1.1°C 85% 2.7 mph WSW4.3 kmh WSW 4.9 mph7.9 kmh 29.62 in1003.0 mb 0.00 in0.0 mm 0.00 in0.0 mm 0.17 in4.3 mm
08:45 AM 38.7°F3.7°C 34.0°F1.1°C 85% 2.7 mph WSW4.3 kmh WSW 4.9 mph7.9 kmh 29.62 in1003.0 mb 0.00 in0.0 mm 0.00 in0.0 mm 0.17 in4.3 mm
08:44 AM 38.7°F3.7°C 34.0°F1.1°C 85% 2.7 mph WSW4.3 kmh WSW 4.9 mph7.9 kmh 29.62 in1003.0 mb 0.00 in0.0 mm 0.00 in0.0 mm 0.17 in4.3 mm
08:43 AM 38.7°F3.7°C 34.0°F1.1°C 85% 2.7 mph WSW4.3 kmh WSW 4.9 mph7.9 kmh 29.62 in1003.0 mb 0.00 in0.0 mm 0.00 in0.0 mm 0.17 in4.3 mm
08:42 AM 38.7°F3.7°C 34.0°F1.1°C 85% 4.9 mph W7.9 kmh W 7.4 mph11.9 kmh 29.62 in1003.0 mb 0.00 in0.0 mm 0.00 in0.0 mm 0.17 in4.3 mm
08:41 AM 38.7°F3.7°C 34.0°F1.1°C 85% 4.9 mph W7.9 kmh W 7.4 mph11.9 kmh 29.62 in1003.0 mb 0.00 in0.0 mm 0.00 in0.0 mm 0.17 in4.3 mm
08:40 AM 38.7°F3.7°C 34.0°F1.1°C 85% 4.9 mph W7.9 kmh W 7.4 mph11.9 kmh 29.62 in1003.0 mb 0.00 in0.0 mm 0.00 in0.0 mm 0.17 in4.3 mm
08:39 AM 38.7°F3.7°C 34.0°F1.1°C 85% 4.9 mph W7.9 kmh W 7.4 mph11.9 kmh 29.62 in1003.0 mb 0.00 in0.0 mm 0.00 in0.0 mm 0.17 in4.3 mm
08:38 AM 38.7°F3.7°C 34.0°F1.1°C 85% 4.9 mph W7.9 kmh W 7.4 mph11.9 kmh 29.62 in1003.0 mb 0.00 in0.0 mm 0.00 in0.0 mm 0.17 in4.3 mm
08:37 AM 38.7°F3.7°C 34.0°F1.1°C 85% 4.3 mph WSW6.9 kmh WSW 7.4 mph11.9 kmh 29.62 in1003.0 mb 0.00 in0.0 mm 0.00 in0.0 mm 0.17 in4.3 mm
08:36 AM 38.7°F3.7°C 34.0°F1.1°C 85% 4.3 mph WSW6.9 kmh WSW 7.4 mph11.9 kmh 29.62 in1003.0 mb 0.00 in0.0 mm 0.00 in0.0 mm 0.17 in4.3 mm
08:35 AM 38.7°F3.7°C 34.0°F1.1°C 85% 4.3 mph WSW6.9 kmh WSW 7.4 mph11.9 kmh 29.62 in1003.0 mb 0.00 in0.0 mm 0.00 in0.0 mm 0.17 in4.3 mm
08:34 AM 38.7°F3.7°C 34.0°F1.1°C 85% 4.3 mph WSW6.9 kmh WSW 7.4 mph11.9 kmh 29.62 in1003.0 mb 0.00 in0.0 mm 0.00 in0.0 mm 0.17 in4.3 mm
08:33 AM 38.7°F3.7°C 34.0°F1.1°C 85% 4.3 mph WSW6.9 kmh WSW 7.4 mph11.9 kmh 29.62 in1003.0 mb 0.00 in0.0 mm 0.00 in0.0 mm 0.17 in4.3 mm
08:32 AM 38.5°F3.6°C 34.0°F1.1°C 85% 3.6 mph WSW5.8 kmh WSW 4.9 mph7.9 kmh 29.62 in1003.0 mb 0.00 in0.0 mm 0.00 in0.0 mm 0.17 in4.3 mm
08:31 AM 38.5°F3.6°C 34.0°F1.1°C 85% 3.6 mph WSW5.8 kmh WSW 4.9 mph7.9 kmh 29.62 in1003.0 mb 0.00 in0.0 mm 0.00 in0.0 mm 0.17 in4.3 mm
08:30 AM 38.5°F3.6°C 34.0°F1.1°C 85% 3.6 mph WSW5.8 kmh WSW 4.9 mph7.9 kmh 29.62 in1003.0 mb 0.00 in0.0 mm 0.00 in0.0 mm 0.17 in4.3 mm
08:29 AM 38.5°F3.6°C 34.0°F1.1°C 85% 3.6 mph WSW5.8 kmh WSW 4.9 mph7.9 kmh 29.62 in1003.0 mb 0.00 in0.0 mm 0.00 in0.0 mm 0.17 in4.3 mm
08:28 AM 38.5°F3.6°C 34.0°F1.1°C 85% 3.6 mph WSW5.8 kmh WSW 4.9 mph7.9 kmh 29.62 in1003.0 mb 0.00 in0.0 mm 0.00 in0.0 mm 0.17 in4.3 mm
08:27 AM 38.5°F3.6°C 34.0°F1.1°C 85% 5.8 mph WSW9.3 kmh WSW 9.8 mph15.8 kmh 29.62 in1003.0 mb 0.00 in0.0 mm 0.00 in0.0 mm 0.17 in4.3 mm
08:26 AM 38.5°F3.6°C 34.0°F1.1°C 85% 5.8 mph WSW9.3 kmh WSW 9.8 mph15.8 kmh 29.62 in1003.0 mb 0.00 in0.0 mm 0.00 in0.0 mm 0.17 in4.3 mm
08:25 AM 38.5°F3.6°C 34.0°F1.1°C 85% 5.8 mph WSW9.3 kmh WSW 9.8 mph15.8 kmh 29.62 in1003.0 mb 0.00 in0.0 mm 0.00 in0.0 mm 0.17 in4.3 mm
08:24 AM 38.5°F3.6°C 34.0°F1.1°C 85% 5.8 mph WSW9.3 kmh WSW 9.8 mph15.8 kmh 29.62 in1003.0 mb 0.00 in0.0 mm 0.00 in0.0 mm 0.17 in4.3 mm
08:23 AM 38.5°F3.6°C 34.0°F1.1°C 85% 5.8 mph WSW9.3 kmh WSW 9.8 mph15.8 kmh 29.62 in1003.0 mb 0.00 in0.0 mm 0.00 in0.0 mm 0.17 in4.3 mm
08:22 AM 38.5°F3.6°C 34.0°F1.1°C 85% 1.8 mph WSW2.9 kmh WSW 2.5 mph4.0 kmh 29.62 in1003.0 mb 0.00 in0.0 mm 0.00 in0.0 mm 0.17 in4.3 mm
08:21 AM 38.5°F3.6°C 34.0°F1.1°C 85% 1.8 mph WSW2.9 kmh WSW 2.5 mph4.0 kmh 29.62 in1003.0 mb 0.00 in0.0 mm 0.00 in0.0 mm 0.17 in4.3 mm
08:20 AM 38.5°F3.6°C 34.0°F1.1°C 85% 1.8 mph WSW2.9 kmh WSW 2.5 mph4.0 kmh 29.62 in1003.0 mb 0.00 in0.0 mm 0.00 in0.0 mm 0.17 in4.3 mm
08:19 AM 38.5°F3.6°C 34.0°F1.1°C 85% 1.8 mph WSW2.9 kmh WSW 2.5 mph4.0 kmh 29.62 in1003.0 mb 0.00 in0.0 mm 0.00 in0.0 mm 0.17 in4.3 mm
08:18 AM 38.5°F3.6°C 34.0°F1.1°C 85% 1.8 mph WSW2.9 kmh WSW 2.5 mph4.0 kmh 29.62 in1003.0 mb 0.00 in0.0 mm 0.00 in0.0 mm 0.17 in4.3 mm
08:17 AM 38.5°F3.6°C 34.0°F1.1°C 85% 5.6 mph WSW9.0 kmh WSW 7.4 mph11.9 kmh 29.62 in1003.0 mb 0.00 in0.0 mm 0.00 in0.0 mm 0.17 in4.3 mm
08:16 AM 38.5°F3.6°C 34.0°F1.1°C 85% 5.6 mph WSW9.0 kmh WSW 7.4 mph11.9 kmh 29.62 in1003.0 mb 0.00 in0.0 mm 0.00 in0.0 mm 0.17 in4.3 mm
08:15 AM 38.5°F3.6°C 34.0°F1.1°C 85% 5.6 mph WSW9.0 kmh WSW 7.4 mph11.9 kmh 29.62 in1003.0 mb 0.00 in0.0 mm 0.00 in0.0 mm 0.17 in4.3 mm
08:14 AM 38.5°F3.6°C 34.0°F1.1°C 85% 5.6 mph WSW9.0 kmh WSW 7.4 mph11.9 kmh 29.62 in1003.0 mb 0.00 in0.0 mm 0.00 in0.0 mm 0.17 in4.3 mm
08:13 AM 38.5°F3.6°C 34.0°F1.1°C 85% 5.6 mph WSW9.0 kmh WSW 7.4 mph11.9 kmh 29.62 in1003.0 mb 0.00 in0.0 mm 0.00 in0.0 mm 0.17 in4.3 mm
08:12 AM 38.5°F3.6°C 34.0°F1.1°C 85% Calm Calm -- 29.62 in1003.0 mb 0.00 in0.0 mm 0.00 in0.0 mm 0.17 in4.3 mm
08:11 AM 38.5°F3.6°C 34.0°F1.1°C 85% Calm Calm -- 29.62 in1003.0 mb 0.00 in0.0 mm 0.00 in0.0 mm 0.17 in4.3 mm
08:10 AM 38.5°F3.6°C 34.0°F1.1°C 85% Calm Calm -- 29.62 in1003.0 mb 0.00 in0.0 mm 0.00 in0.0 mm 0.17 in4.3 mm
08:09 AM 38.5°F3.6°C 34.0°F1.1°C 85% Calm Calm -- 29.62 in1003.0 mb 0.00 in0.0 mm 0.00 in0.0 mm 0.17 in4.3 mm
08:08 AM 38.5°F3.6°C 34.0°F1.1°C 85% Calm Calm -- 29.62 in1003.0 mb 0.00 in0.0 mm 0.00 in0.0 mm 0.17 in4.3 mm
08:07 AM 38.7°F3.7°C 34.0°F1.1°C 85% 0.2 mph WSW0.3 kmh WSW 2.5 mph4.0 kmh 29.62 in1003.0 mb 0.00 in0.0 mm 0.00 in0.0 mm 0.17 in4.3 mm
08:06 AM 38.7°F3.7°C 34.0°F1.1°C 85% 0.2 mph WSW0.3 kmh WSW 2.5 mph4.0 kmh 29.62 in1003.0 mb 0.00 in0.0 mm 0.00 in0.0 mm 0.17 in4.3 mm
08:05 AM 38.7°F3.7°C 34.0°F1.1°C 85% 0.2 mph WSW0.3 kmh WSW 2.5 mph4.0 kmh 29.62 in1003.0 mb 0.00 in0.0 mm 0.00 in0.0 mm 0.17 in4.3 mm
08:04 AM 38.7°F3.7°C 34.0°F1.1°C 85% 0.2 mph WSW0.3 kmh WSW 2.5 mph4.0 kmh 29.62 in1003.0 mb 0.00 in0.0 mm 0.00 in0.0 mm 0.17 in4.3 mm
08:03 AM 38.7°F3.7°C 34.0°F1.1°C 85% 0.2 mph WSW0.3 kmh WSW 2.5 mph4.0 kmh 29.62 in1003.0 mb 0.00 in0.0 mm 0.00 in0.0 mm 0.17 in4.3 mm
08:02 AM 38.8°F3.8°C 35.0°F1.7°C 85% 4.3 mph WSW6.9 kmh WSW 4.9 mph7.9 kmh 29.62 in1003.0 mb 0.00 in0.0 mm 0.00 in0.0 mm 0.17 in4.3 mm
08:01 AM 38.8°F3.8°C 35.0°F1.7°C 85% 4.3 mph WSW6.9 kmh WSW 4.9 mph7.9 kmh 29.62 in1003.0 mb 0.00 in0.0 mm 0.00 in0.0 mm 0.17 in4.3 mm
08:00 AM 38.8°F3.8°C 35.0°F1.7°C 85% 4.3 mph WSW6.9 kmh WSW 4.9 mph7.9 kmh 29.62 in1003.0 mb 0.00 in0.0 mm 0.00 in0.0 mm 0.17 in4.3 mm
07:59 AM 38.8°F3.8°C 35.0°F1.7°C 85% 4.3 mph WSW6.9 kmh WSW 4.9 mph7.9 kmh 29.62 in1003.0 mb 0.00 in0.0 mm 0.00 in0.0 mm 0.17 in4.3 mm
07:58 AM 38.8°F3.8°C 35.0°F1.7°C 85% 4.3 mph WSW6.9 kmh WSW 4.9 mph7.9 kmh 29.62 in1003.0 mb 0.00 in0.0 mm 0.00 in0.0 mm 0.17 in4.3 mm
07:57 AM 39.0°F3.9°C 35.0°F1.7°C 85% 1.8 mph WSW2.9 kmh WSW 2.5 mph4.0 kmh 29.60 in1002.4 mb 0.00 in0.0 mm 0.00 in0.0 mm 0.17 in4.3 mm
07:56 AM 39.0°F3.9°C 35.0°F1.7°C 85% 1.8 mph WSW2.9 kmh WSW 2.5 mph4.0 kmh 29.60 in1002.4 mb 0.00 in0.0 mm 0.00 in0.0 mm 0.17 in4.3 mm
07:55 AM 39.0°F3.9°C 35.0°F1.7°C 85% 1.8 mph WSW2.9 kmh WSW 2.5 mph4.0 kmh 29.60 in1002.4 mb 0.00 in0.0 mm 0.00 in0.0 mm 0.17 in4.3 mm
07:54 AM 39.0°F3.9°C 35.0°F1.7°C 85% 1.8 mph WSW2.9 kmh WSW 2.5 mph4.0 kmh 29.60 in1002.4 mb 0.00 in0.0 mm 0.00 in0.0 mm 0.17 in4.3 mm
07:53 AM 39.0°F3.9°C 35.0°F1.7°C 85% 1.8 mph WSW2.9 kmh WSW 2.5 mph4.0 kmh 29.60 in1002.4 mb 0.00 in0.0 mm 0.00 in0.0 mm 0.17 in4.3 mm
07:52 AM 39.4°F4.1°C 35.0°F1.7°C 84% 0.9 mph SW1.4 kmh SW 2.5 mph4.0 kmh 29.60 in1002.4 mb 0.00 in0.0 mm 0.00 in0.0 mm 0.17 in4.3 mm
07:51 AM 39.4°F4.1°C 35.0°F1.7°C 84% 0.9 mph SW1.4 kmh SW 2.5 mph4.0 kmh 29.60 in1002.4 mb 0.00 in0.0 mm 0.00 in0.0 mm 0.17 in4.3 mm
07:50 AM 39.4°F4.1°C 35.0°F1.7°C 84% 0.9 mph SW1.4 kmh SW 2.5 mph4.0 kmh 29.60 in1002.4 mb 0.00 in0.0 mm 0.00 in0.0 mm 0.17 in4.3 mm
07:49 AM 39.4°F4.1°C 35.0°F1.7°C 84% 0.9 mph SW1.4 kmh SW 2.5 mph4.0 kmh 29.60 in1002.4 mb 0.00 in0.0 mm 0.00 in0.0 mm 0.17 in4.3 mm
07:48 AM 39.4°F4.1°C 35.0°F1.7°C 84% 0.9 mph SW1.4 kmh SW 2.5 mph4.0 kmh 29.60 in1002.4 mb 0.00 in0.0 mm 0.00 in0.0 mm 0.17 in4.3 mm
07:47 AM 39.4°F4.1°C 35.0°F1.7°C 84% 0.9 mph SW1.4 kmh SW 2.5 mph4.0 kmh 29.60 in1002.4 mb 0.00 in0.0 mm 0.00 in0.0 mm 0.17 in4.3 mm
07:46 AM 39.9°F4.4°C 35.0°F1.7°C 83% 3.6 mph WSW5.8 kmh WSW 4.9 mph7.9 kmh 29.60 in1002.4 mb 0.00 in0.0 mm 0.00 in0.0 mm 0.17 in4.3 mm
07:45 AM 39.9°F4.4°C 35.0°F1.7°C 83% 3.6 mph WSW5.8 kmh WSW 4.9 mph7.9 kmh 29.60 in1002.4 mb 0.00 in0.0 mm 0.00 in0.0 mm 0.17 in4.3 mm
07:44 AM 39.9°F4.4°C 35.0°F1.7°C 83% 3.6 mph WSW5.8 kmh WSW 4.9 mph7.9 kmh 29.60 in1002.4 mb 0.00 in0.0 mm 0.00 in0.0 mm 0.17 in4.3 mm
07:43 AM 39.9°F4.4°C 35.0°F1.7°C 83% 3.6 mph WSW5.8 kmh WSW 4.9 mph7.9 kmh 29.60 in1002.4 mb 0.00 in0.0 mm 0.00 in0.0 mm 0.17 in4.3 mm
07:42 AM 39.9°F4.4°C 35.0°F1.7°C 83% 3.6 mph WSW5.8 kmh WSW 4.9 mph7.9 kmh 29.60 in1002.4 mb 0.00 in0.0 mm 0.00 in0.0 mm 0.17 in4.3 mm
07:41 AM 40.3°F4.6°C 35.0°F1.7°C 82% 5.1 mph W8.2 kmh W 7.4 mph11.9 kmh 29.60 in1002.4 mb 0.00 in0.0 mm 0.00 in0.0 mm 0.17 in4.3 mm
07:40 AM 40.3°F4.6°C 35.0°F1.7°C 82% 5.1 mph W8.2 kmh W 7.4 mph11.9 kmh 29.60 in1002.4 mb 0.00 in0.0 mm 0.00 in0.0 mm 0.17 in4.3 mm
07:39 AM 40.3°F4.6°C 35.0°F1.7°C 82% 5.1 mph W8.2 kmh W 7.4 mph11.9 kmh 29.60 in1002.4 mb 0.00 in0.0 mm 0.00 in0.0 mm 0.17 in4.3 mm
07:38 AM 40.3°F4.6°C 35.0°F1.7°C 82% 5.1 mph W8.2 kmh W 7.4 mph11.9 kmh 29.60 in1002.4 mb 0.00 in0.0 mm 0.00 in0.0 mm 0.17 in4.3 mm
07:37 AM 40.3°F4.6°C 35.0°F1.7°C 82% 5.1 mph W8.2 kmh W 7.4 mph11.9 kmh 29.60 in1002.4 mb 0.00 in0.0 mm 0.00 in0.0 mm 0.17 in4.3 mm
07:36 AM 40.6°F4.8°C 35.0°F1.7°C 79% 4.3 mph W6.9 kmh W 7.4 mph11.9 kmh 29.60 in1002.4 mb 0.00 in0.0 mm 0.00 in0.0 mm 0.17 in4.3 mm
07:35 AM 40.6°F4.8°C 35.0°F1.7°C 79% 4.3 mph W6.9 kmh W 7.4 mph11.9 kmh 29.60 in1002.4 mb 0.00 in0.0 mm 0.00 in0.0 mm 0.17 in4.3 mm
07:34 AM 40.6°F4.8°C 35.0°F1.7°C 79% 4.3 mph W6.9 kmh W 7.4 mph11.9 kmh 29.60 in1002.4 mb 0.00 in0.0 mm 0.00 in0.0 mm 0.17 in4.3 mm
07:33 AM 40.6°F4.8°C 35.0°F1.7°C 79% 4.3 mph W6.9 kmh W 7.4 mph11.9 kmh 29.60 in1002.4 mb 0.00 in0.0 mm 0.00 in0.0 mm 0.17 in4.3 mm
07:32 AM 40.6°F4.8°C 35.0°F1.7°C 79% 4.3 mph W6.9 kmh W 7.4 mph11.9 kmh 29.60 in1002.4 mb 0.00 in0.0 mm 0.00 in0.0 mm 0.17 in4.3 mm
07:31 AM 41.0°F5.0°C 34.0°F1.1°C 76% 9.8 mph W15.8 kmh W 12.3 mph19.8 kmh 29.60 in1002.4 mb 0.00 in0.0 mm 0.00 in0.0 mm 0.17 in4.3 mm
07:30 AM 41.0°F5.0°C 34.0°F1.1°C 76% 9.8 mph W15.8 kmh W 12.3 mph19.8 kmh 29.60 in1002.4 mb 0.00 in0.0 mm 0.00 in0.0 mm 0.17 in4.3 mm
07:29 AM 41.0°F5.0°C 34.0°F1.1°C 76% 9.8 mph W15.8 kmh W 12.3 mph19.8 kmh 29.60 in1002.4 mb 0.00 in0.0 mm 0.00 in0.0 mm 0.17 in4.3 mm
07:28 AM 41.0°F5.0°C 34.0°F1.1°C 76% 9.8 mph W15.8 kmh W 12.3 mph19.8 kmh 29.60 in1002.4 mb 0.00 in0.0 mm 0.00 in0.0 mm 0.17 in4.3 mm
07:27 AM 41.0°F5.0°C 34.0°F1.1°C 76% 9.8 mph W15.8 kmh W 12.3 mph19.8 kmh 29.60 in1002.4 mb 0.00 in0.0 mm 0.00 in0.0 mm 0.17 in4.3 mm
07:26 AM 54.5°F12.5°C 46.0°F7.8°C 74% 0.2 mph S0.3 kmh S 2.5 mph4.0 kmh 29.57 in1001.4 mb 0.00 in0.0 mm 0.00 in0.0 mm 0.27 in6.9 mm
07:25 AM 54.5°F12.5°C 46.0°F7.8°C 74% 0.2 mph S0.3 kmh S 2.5 mph4.0 kmh 29.57 in1001.4 mb 0.00 in0.0 mm 0.00 in0.0 mm 0.27 in6.9 mm
07:24 AM 54.5°F12.5°C 46.0°F7.8°C 74% 0.2 mph S0.3 kmh S 2.5 mph4.0 kmh 29.57 in1001.4 mb 0.00 in0.0 mm 0.00 in0.0 mm 0.27 in6.9 mm
07:23 AM 54.5°F12.5°C 46.0°F7.8°C 74% 0.2 mph S0.3 kmh S 2.5 mph4.0 kmh 29.57 in1001.4 mb 0.00 in0.0 mm 0.00 in0.0 mm 0.27 in6.9 mm
07:22 AM 54.5°F12.5°C 46.0°F7.8°C 74% 0.2 mph S0.3 kmh S 2.5 mph4.0 kmh 29.57 in1001.4 mb 0.00 in0.0 mm 0.00 in0.0 mm 0.27 in6.9 mm
07:21 AM 41.2°F5.1°C 33.0°F0.6°C 73% 7.2 mph WSW11.6 kmh WSW 12.3 mph19.8 kmh 29.60 in1002.4 mb 0.00 in0.0 mm 0.00 in0.0 mm 0.17 in4.3 mm
07:20 AM 41.2°F5.1°C 33.0°F0.6°C 73% 7.2 mph WSW11.6 kmh WSW 12.3 mph19.8 kmh 29.60 in1002.4 mb 0.00 in0.0 mm 0.00 in0.0 mm 0.17 in4.3 mm
07:19 AM 41.2°F5.1°C 33.0°F0.6°C 73% 7.2 mph WSW11.6 kmh WSW 12.3 mph19.8 kmh 29.60 in1002.4 mb 0.00 in0.0 mm 0.00 in0.0 mm 0.17 in4.3 mm
07:18 AM 41.2°F5.1°C 33.0°F0.6°C 73% 7.2 mph WSW11.6 kmh WSW 12.3 mph19.8 kmh 29.60 in1002.4 mb 0.00 in0.0 mm 0.00 in0.0 mm 0.17 in4.3 mm
07:17 AM 41.2°F5.1°C 33.0°F0.6°C 73% 7.2 mph WSW11.6 kmh WSW 12.3 mph19.8 kmh 29.60 in1002.4 mb 0.00 in0.0 mm 0.00 in0.0 mm 0.17 in4.3 mm
07:16 AM 41.2°F5.1°C 33.0°F0.6°C 73% 7.6 mph W12.2 kmh W 9.8 mph15.8 kmh 29.60 in1002.4 mb 0.00 in0.0 mm 0.00 in0.0 mm 0.17 in4.3 mm
07:15 AM 41.2°F5.1°C 33.0°F0.6°C 73% 7.6 mph W12.2 kmh W 9.8 mph15.8 kmh 29.60 in1002.4 mb 0.00 in0.0 mm 0.00 in0.0 mm 0.17 in4.3 mm
07:14 AM 41.2°F5.1°C 33.0°F0.6°C 73% 7.6 mph W12.2 kmh W 9.8 mph15.8 kmh 29.60 in1002.4 mb 0.00 in0.0 mm 0.00 in0.0 mm 0.17 in4.3 mm
07:13 AM 41.2°F5.1°C 33.0°F0.6°C 73% 7.6 mph W12.2 kmh W 9.8 mph15.8 kmh 29.60 in1002.4 mb 0.00 in0.0 mm 0.00 in0.0 mm 0.17 in4.3 mm
07:12 AM 41.2°F5.1°C 33.0°F0.6°C 73% 7.6 mph W12.2 kmh W 9.8 mph15.8 kmh 29.60 in1002.4 mb 0.00 in0.0 mm 0.00 in0.0 mm 0.17 in4.3 mm
07:11 AM 41.2°F5.1°C 34.0°F1.1°C 74% 4.9 mph SW7.9 kmh SW 4.9 mph7.9 kmh 29.60 in1002.4 mb 0.00 in0.0 mm 0.00 in0.0 mm 0.17 in4.3 mm
07:10 AM 41.2°F5.1°C 34.0°F1.1°C 74% 4.9 mph SW7.9 kmh SW 4.9 mph7.9 kmh 29.60 in1002.4 mb 0.00 in0.0 mm 0.00 in0.0 mm 0.17 in4.3 mm
07:09 AM 41.2°F5.1°C 34.0°F1.1°C 74% 4.9 mph SW7.9 kmh SW 4.9 mph7.9 kmh 29.60 in1002.4 mb 0.00 in0.0 mm 0.00 in0.0 mm 0.17 in4.3 mm
07:08 AM 41.2°F5.1°C 34.0°F1.1°C 74% 4.9 mph SW7.9 kmh SW 4.9 mph7.9 kmh 29.60 in1002.4 mb 0.00 in0.0 mm 0.00 in0.0 mm 0.17 in4.3 mm
07:07 AM 41.2°F5.1°C 34.0°F1.1°C 74% 4.9 mph SW7.9 kmh SW 4.9 mph7.9 kmh 29.60 in1002.4 mb 0.00 in0.0 mm 0.00 in0.0 mm 0.17 in4.3 mm
07:06 AM 41.0°F5.0°C 34.0°F1.1°C 75% 9.8 mph NW15.8 kmh NW 15.0 mph24.1 kmh 29.60 in1002.4 mb 0.00 in0.0 mm 0.00 in0.0 mm 0.17 in4.3 mm
07:05 AM 41.0°F5.0°C 34.0°F1.1°C 75% 9.8 mph NW15.8 kmh NW 15.0 mph24.1 kmh 29.60 in1002.4 mb 0.00 in0.0 mm 0.00 in0.0 mm 0.17 in4.3 mm
07:04 AM 41.0°F5.0°C 34.0°F1.1°C 75% 9.8 mph NW15.8 kmh NW 15.0 mph24.1 kmh 29.60 in1002.4 mb 0.00 in0.0 mm 0.00 in0.0 mm 0.17 in4.3 mm
07:03 AM 41.0°F5.0°C 34.0°F1.1°C 75% 9.8 mph NW15.8 kmh NW 15.0 mph24.1 kmh 29.60 in1002.4 mb 0.00 in0.0 mm 0.00 in0.0 mm 0.17 in4.3 mm
07:02 AM 41.0°F5.0°C 34.0°F1.1°C 75% 9.8 mph NW15.8 kmh NW 15.0 mph24.1 kmh 29.60 in1002.4 mb 0.00 in0.0 mm 0.00 in0.0 mm 0.17 in4.3 mm
07:01 AM 41.0°F5.0°C 34.0°F1.1°C 76% 2.0 mph WSW3.2 kmh WSW 2.5 mph4.0 kmh 29.60 in1002.4 mb 0.00 in0.0 mm 0.00 in0.0 mm 0.17 in4.3 mm
07:00 AM 41.0°F5.0°C 34.0°F1.1°C 76% 2.0 mph WSW3.2 kmh WSW 2.5 mph4.0 kmh 29.60 in1002.4 mb 0.00 in0.0 mm 0.00 in0.0 mm 0.17 in4.3 mm
06:59 AM 41.0°F5.0°C 34.0°F1.1°C 76% 2.0 mph WSW3.2 kmh WSW 2.5 mph4.0 kmh 29.60 in1002.4 mb 0.00 in0.0 mm 0.00 in0.0 mm 0.17 in4.3 mm
06:58 AM 41.0°F5.0°C 34.0°F1.1°C 76% 2.0 mph WSW3.2 kmh WSW 2.5 mph4.0 kmh 29.60 in1002.4 mb 0.00 in0.0 mm 0.00 in0.0 mm 0.17 in4.3 mm
06:57 AM 41.0°F5.0°C 34.0°F1.1°C 76% 2.0 mph WSW3.2 kmh WSW 2.5 mph4.0 kmh 29.60 in1002.4 mb 0.00 in0.0 mm 0.00 in0.0 mm 0.17 in4.3 mm
06:56 AM 41.0°F5.0°C 34.0°F1.1°C 77% 4.0 mph SW6.4 kmh SW 4.9 mph7.9 kmh 29.58 in1001.7 mb 0.00 in0.0 mm 0.00 in0.0 mm 0.17 in4.3 mm
06:55 AM 41.0°F5.0°C 34.0°F1.1°C 77% 4.0 mph SW6.4 kmh SW 4.9 mph7.9 kmh 29.58 in1001.7 mb 0.00 in0.0 mm 0.00 in0.0 mm 0.17 in4.3 mm
06:54 AM 41.0°F5.0°C 34.0°F1.1°C 77% 4.0 mph SW6.4 kmh SW 4.9 mph7.9 kmh 29.58 in1001.7 mb 0.00 in0.0 mm 0.00 in0.0 mm 0.17 in4.3 mm
06:53 AM 41.0°F5.0°C 34.0°F1.1°C 77% 4.0 mph SW6.4 kmh SW 4.9 mph7.9 kmh 29.58 in1001.7 mb 0.00 in0.0 mm 0.00 in0.0 mm 0.17 in4.3 mm
06:52 AM 41.0°F5.0°C 34.0°F1.1°C 77% 4.0 mph SW6.4 kmh SW 4.9 mph7.9 kmh 29.58 in1001.7 mb 0.00 in0.0 mm 0.00 in0.0 mm 0.17 in4.3 mm
06:51 AM 41.0°F5.0°C 35.0°F1.7°C 78% 3.6 mph W5.8 kmh W 7.4 mph11.9 kmh 29.58 in1001.7 mb 0.00 in0.0 mm 0.00 in0.0 mm 0.17 in4.3 mm
06:50 AM 41.0°F5.0°C 35.0°F1.7°C 78% 3.6 mph W5.8 kmh W 7.4 mph11.9 kmh 29.58 in1001.7 mb 0.00 in0.0 mm 0.00 in0.0 mm 0.17 in4.3 mm
06:49 AM 41.0°F5.0°C 35.0°F1.7°C 78% 3.6 mph W5.8 kmh W 7.4 mph11.9 kmh 29.58 in1001.7 mb 0.00 in0.0 mm 0.00 in0.0 mm 0.17 in4.3 mm
06:48 AM 41.0°F5.0°C 35.0°F1.7°C 78% 3.6 mph W5.8 kmh W 7.4 mph11.9 kmh 29.58 in1001.7 mb 0.00 in0.0 mm 0.00 in0.0 mm 0.17 in4.3 mm
06:47 AM 41.0°F5.0°C 35.0°F1.7°C 78% 3.6 mph W5.8 kmh W 7.4 mph11.9 kmh 29.58 in1001.7 mb 0.00 in0.0 mm 0.00 in0.0 mm 0.17 in4.3 mm
06:46 AM 41.0°F5.0°C 35.0°F1.7°C 80% 2.7 mph WSW4.3 kmh WSW 4.9 mph7.9 kmh 29.58 in1001.7 mb 0.00 in0.0 mm 0.00 in0.0 mm 0.17 in4.3 mm
06:45 AM 41.0°F5.0°C 35.0°F1.7°C 80% 2.7 mph WSW4.3 kmh WSW 4.9 mph7.9 kmh 29.58 in1001.7 mb 0.00 in0.0 mm 0.00 in0.0 mm 0.17 in4.3 mm
06:44 AM 41.0°F5.0°C 35.0°F1.7°C 80% 2.7 mph WSW4.3 kmh WSW 4.9 mph7.9 kmh 29.58 in1001.7 mb 0.00 in0.0 mm 0.00 in0.0 mm 0.17 in4.3 mm
06:43 AM 41.0°F5.0°C 35.0°F1.7°C 80% 2.7 mph WSW4.3 kmh WSW 4.9 mph7.9 kmh 29.58 in1001.7 mb 0.00 in0.0 mm 0.00 in0.0 mm 0.17 in4.3 mm
06:42 AM 41.0°F5.0°C 35.0°F1.7°C 80% 2.7 mph WSW4.3 kmh WSW 4.9 mph7.9 kmh 29.58 in1001.7 mb 0.00 in0.0 mm 0.00 in0.0 mm 0.17 in4.3 mm
06:41 AM 41.0°F5.0°C 35.0°F1.7°C 80% 3.4 mph WSW5.5 kmh WSW 4.9 mph7.9 kmh 29.58 in1001.7 mb 0.00 in0.0 mm 0.00 in0.0 mm 0.17 in4.3 mm
06:40 AM 41.0°F5.0°C 35.0°F1.7°C 80% 3.4 mph WSW5.5 kmh WSW 4.9 mph7.9 kmh 29.58 in1001.7 mb 0.00 in0.0 mm 0.00 in0.0 mm 0.17 in4.3 mm
06:39 AM 41.0°F5.0°C 35.0°F1.7°C 80% 3.4 mph WSW5.5 kmh WSW 4.9 mph7.9 kmh 29.58 in1001.7 mb 0.00 in0.0 mm 0.00 in0.0 mm 0.17 in4.3 mm
06:38 AM 41.0°F5.0°C 35.0°F1.7°C 80% 3.4 mph WSW5.5 kmh WSW 4.9 mph7.9 kmh 29.58 in1001.7 mb 0.00 in0.0 mm 0.00 in0.0 mm 0.17 in4.3 mm
06:37 AM 41.0°F5.0°C 35.0°F1.7°C 80% 3.4 mph WSW5.5 kmh WSW 4.9 mph7.9 kmh 29.58 in1001.7 mb 0.00 in0.0 mm 0.00 in0.0 mm 0.17 in4.3 mm
06:36 AM 41.2°F5.1°C 36.0°F2.2°C 82% 0.9 mph SW1.4 kmh SW 2.5 mph4.0 kmh 29.58 in1001.7 mb 0.00 in0.0 mm 0.00 in0.0 mm 0.17 in4.3 mm
06:35 AM 41.2°F5.1°C 36.0°F2.2°C 82% 0.9 mph SW1.4 kmh SW 2.5 mph4.0 kmh 29.58 in1001.7 mb 0.00 in0.0 mm 0.00 in0.0 mm 0.17 in4.3 mm
06:34 AM 41.2°F5.1°C 36.0°F2.2°C 82% 0.9 mph SW1.4 kmh SW 2.5 mph4.0 kmh 29.58 in1001.7 mb 0.00 in0.0 mm 0.00 in0.0 mm 0.17 in4.3 mm
06:33 AM 41.2°F5.1°C 36.0°F2.2°C 82% 0.9 mph SW1.4 kmh SW 2.5 mph4.0 kmh 29.58 in1001.7 mb 0.00 in0.0 mm 0.00 in0.0 mm 0.17 in4.3 mm
06:32 AM 41.2°F5.1°C 36.0°F2.2°C 82% 0.9 mph SW1.4 kmh SW 2.5 mph4.0 kmh 29.58 in1001.7 mb 0.00 in0.0 mm 0.00 in0.0 mm 0.17 in4.3 mm
06:31 AM 41.2°F5.1°C 36.0°F2.2°C 81% 3.6 mph WSW5.8 kmh WSW 4.9 mph7.9 kmh 29.58 in1001.7 mb 0.00 in0.0 mm 0.00 in0.0 mm 0.17 in4.3 mm
06:30 AM 41.2°F5.1°C 36.0°F2.2°C 81% 3.6 mph WSW5.8 kmh WSW 4.9 mph7.9 kmh 29.58 in1001.7 mb 0.00 in0.0 mm 0.00 in0.0 mm 0.17 in4.3 mm
06:29 AM 41.2°F5.1°C 36.0°F2.2°C 81% 3.6 mph WSW5.8 kmh WSW 4.9 mph7.9 kmh 29.58 in1001.7 mb 0.00 in0.0 mm 0.00 in0.0 mm 0.17 in4.3 mm
06:28 AM 41.2°F5.1°C 36.0°F2.2°C 81% 3.6 mph WSW5.8 kmh WSW 4.9 mph7.9 kmh 29.58 in1001.7 mb 0.00 in0.0 mm 0.00 in0.0 mm 0.17 in4.3 mm
06:27 AM 41.2°F5.1°C 36.0°F2.2°C 81% 3.6 mph WSW5.8 kmh WSW 4.9 mph7.9 kmh 29.58 in1001.7 mb 0.00 in0.0 mm 0.00 in0.0 mm 0.17 in4.3 mm
06:26 AM 41.4°F5.2°C 36.0°F2.2°C 81% 2.9 mph WSW4.7 kmh WSW 4.9 mph7.9 kmh 29.58 in1001.7 mb 0.00 in0.0 mm 0.00 in0.0 mm 0.17 in4.3 mm
06:25 AM 41.4°F5.2°C 36.0°F2.2°C 81% 2.9 mph WSW4.7 kmh WSW 4.9 mph7.9 kmh 29.58 in1001.7 mb 0.00 in0.0 mm 0.00 in0.0 mm 0.17 in4.3 mm
06:24 AM 41.4°F5.2°C 36.0°F2.2°C 81% 2.9 mph WSW4.7 kmh WSW 4.9 mph7.9 kmh 29.58 in1001.7 mb 0.00 in0.0 mm 0.00 in0.0 mm 0.17 in4.3 mm
06:23 AM 41.4°F5.2°C 36.0°F2.2°C 81% 2.9 mph WSW4.7 kmh WSW 4.9 mph7.9 kmh 29.58 in1001.7 mb 0.00 in0.0 mm 0.00 in0.0 mm 0.17 in4.3 mm
06:22 AM 41.4°F5.2°C 36.0°F2.2°C 81% 2.9 mph WSW4.7 kmh WSW 4.9 mph7.9 kmh 29.58 in1001.7 mb 0.00 in0.0 mm 0.00 in0.0 mm 0.17 in4.3 mm
06:21 AM 41.5°F5.3°C 36.0°F2.2°C 82% 2.5 mph WSW4.0 kmh WSW 4.9 mph7.9 kmh 29.58 in1001.7 mb 0.00 in0.0 mm 0.00 in0.0 mm 0.17 in4.3 mm
06:20 AM 41.5°F5.3°C 36.0°F2.2°C 82% 2.5 mph WSW4.0 kmh WSW 4.9 mph7.9 kmh 29.58 in1001.7 mb 0.00 in0.0 mm 0.00 in0.0 mm 0.17 in4.3 mm
06:19 AM 41.5°F5.3°C 36.0°F2.2°C 82% 2.5 mph WSW4.0 kmh WSW 4.9 mph7.9 kmh 29.58 in1001.7 mb 0.00 in0.0 mm 0.00 in0.0 mm 0.17 in4.3 mm
06:18 AM 41.5°F5.3°C 36.0°F2.2°C 82% 2.5 mph WSW4.0 kmh WSW 4.9 mph7.9 kmh 29.58 in1001.7 mb 0.00 in0.0 mm 0.00 in0.0 mm 0.17 in4.3 mm
06:17 AM 41.5°F5.3°C 36.0°F2.2°C 82% 2.5 mph WSW4.0 kmh WSW 4.9 mph7.9 kmh 29.58 in1001.7 mb 0.00 in0.0 mm 0.00 in0.0 mm 0.17 in4.3 mm
06:16 AM 41.5°F5.3°C 36.0°F2.2°C 82% 0.9 mph SW1.4 kmh SW 2.5 mph4.0 kmh 29.58 in1001.7 mb 0.00 in0.0 mm 0.00 in0.0 mm 0.17 in4.3 mm
06:15 AM 41.5°F5.3°C 36.0°F2.2°C 82% 0.9 mph SW1.4 kmh SW 2.5 mph4.0 kmh 29.58 in1001.7 mb 0.00 in0.0 mm 0.00 in0.0 mm 0.17 in4.3 mm
06:14 AM 41.5°F5.3°C 36.0°F2.2°C 82% 0.9 mph SW1.4 kmh SW 2.5 mph4.0 kmh 29.58 in1001.7 mb 0.00 in0.0 mm 0.00 in0.0 mm 0.17 in4.3 mm
06:13 AM 41.5°F5.3°C 36.0°F2.2°C 82% 0.9 mph SW1.4 kmh SW 2.5 mph4.0 kmh 29.58 in1001.7 mb 0.00 in0.0 mm 0.00 in0.0 mm 0.17 in4.3 mm
06:12 AM 41.5°F5.3°C 36.0°F2.2°C 82% 0.9 mph SW1.4 kmh SW 2.5 mph4.0 kmh 29.58 in1001.7 mb 0.00 in0.0 mm 0.00 in0.0 mm 0.17 in4.3 mm
06:11 AM 41.5°F5.3°C 36.0°F2.2°C 82% 2.0 mph WSW3.2 kmh WSW 4.9 mph7.9 kmh 29.58 in1001.7 mb 0.00 in0.0 mm 0.00 in0.0 mm 0.17 in4.3 mm
06:10 AM 41.5°F5.3°C 36.0°F2.2°C 82% 2.0 mph WSW3.2 kmh WSW 4.9 mph7.9 kmh 29.58 in1001.7 mb 0.00 in0.0 mm 0.00 in0.0 mm 0.17 in4.3 mm
06:09 AM 41.5°F5.3°C 36.0°F2.2°C 82% 2.0 mph WSW3.2 kmh WSW 4.9 mph7.9 kmh 29.58 in1001.7 mb 0.00 in0.0 mm 0.00 in0.0 mm 0.17 in4.3 mm
06:08 AM 41.5°F5.3°C 36.0°F2.2°C 82% 2.0 mph WSW3.2 kmh WSW 4.9 mph7.9 kmh 29.58 in1001.7 mb 0.00 in0.0 mm 0.00 in0.0 mm 0.17 in4.3 mm
06:07 AM 41.5°F5.3°C 36.0°F2.2°C 82% 2.0 mph WSW3.2 kmh WSW 4.9 mph7.9 kmh 29.58 in1001.7 mb 0.00 in0.0 mm 0.00 in0.0 mm 0.17 in4.3 mm
06:06 AM 41.7°F5.4°C 37.0°F2.8°C 82% Calm Calm -- 29.58 in1001.7 mb 0.00 in0.0 mm 0.00 in0.0 mm 0.17 in4.3 mm
06:05 AM 41.7°F5.4°C 37.0°F2.8°C 82% Calm Calm -- 29.58 in1001.7 mb 0.00 in0.0 mm 0.00 in0.0 mm 0.17 in4.3 mm
06:04 AM 41.7°F5.4°C 37.0°F2.8°C 82% Calm Calm -- 29.58 in1001.7 mb 0.00 in0.0 mm 0.00 in0.0 mm 0.17 in4.3 mm
06:03 AM 41.7°F5.4°C 37.0°F2.8°C 82% Calm Calm -- 29.58 in1001.7 mb 0.00 in0.0 mm 0.00 in0.0 mm 0.17 in4.3 mm
06:02 AM 41.7°F5.4°C 37.0°F2.8°C 82% Calm Calm -- 29.58 in1001.7 mb 0.00 in0.0 mm 0.00 in0.0 mm 0.17 in4.3 mm
06:01 AM 41.7°F5.4°C 37.0°F2.8°C 82% Calm Calm -- 29.58 in1001.7 mb 0.00 in0.0 mm 0.00 in0.0 mm 0.17 in4.3 mm
06:00 AM 41.7°F5.4°C 37.0°F2.8°C 82% Calm Calm -- 29.58 in1001.7 mb 0.00 in0.0 mm 0.00 in0.0 mm 0.17 in4.3 mm
05:59 AM 41.7°F5.4°C 37.0°F2.8°C 82% Calm Calm -- 29.58 in1001.7 mb 0.00 in0.0 mm 0.00 in0.0 mm 0.17 in4.3 mm
05:58 AM 41.7°F5.4°C 37.0°F2.8°C 82% Calm Calm -- 29.58 in1001.7 mb 0.00 in0.0 mm 0.00 in0.0 mm 0.17 in4.3 mm
05:57 AM 41.7°F5.4°C 37.0°F2.8°C 82% Calm Calm -- 29.58 in1001.7 mb 0.00 in0.0 mm 0.00 in0.0 mm 0.17 in4.3 mm
05:56 AM 41.9°F5.5°C 37.0°F2.8°C 83% 2.0 mph WSW3.2 kmh WSW 4.9 mph7.9 kmh 29.58 in1001.7 mb 0.00 in0.0 mm 0.00 in0.0 mm 0.17 in4.3 mm
05:55 AM 41.9°F5.5°C 37.0°F2.8°C 83% 2.0 mph WSW3.2 kmh WSW 4.9 mph7.9 kmh 29.58 in1001.7 mb 0.00 in0.0 mm 0.00 in0.0 mm 0.17 in4.3 mm
05:54 AM 41.9°F5.5°C 37.0°F2.8°C 83% 2.0 mph WSW3.2 kmh WSW 4.9 mph7.9 kmh 29.58 in1001.7 mb 0.00 in0.0 mm 0.00 in0.0 mm 0.17 in4.3 mm
05:53 AM 41.9°F5.5°C 37.0°F2.8°C 83% 2.0 mph WSW3.2 kmh WSW 4.9 mph7.9 kmh 29.58 in1001.7 mb 0.00 in0.0 mm 0.00 in0.0 mm 0.17 in4.3 mm
05:52 AM 41.9°F5.5°C 37.0°F2.8°C 83% 2.0 mph WSW3.2 kmh WSW 4.9 mph7.9 kmh 29.58 in1001.7 mb 0.00 in0.0 mm 0.00 in0.0 mm 0.17 in4.3 mm
05:51 AM 41.9°F5.5°C 37.0°F2.8°C 84% Calm Calm -- 29.58 in1001.7 mb 0.00 in0.0 mm 0.00 in0.0 mm 0.17 in4.3 mm
05:50 AM 41.9°F5.5°C 37.0°F2.8°C 84% Calm Calm -- 29.58 in1001.7 mb 0.00 in0.0 mm 0.00 in0.0 mm 0.17 in4.3 mm
05:49 AM 41.9°F5.5°C 37.0°F2.8°C 84% Calm Calm -- 29.58 in1001.7 mb 0.00 in0.0 mm 0.00 in0.0 mm 0.17 in4.3 mm
05:48 AM 41.9°F5.5°C 37.0°F2.8°C 84% Calm Calm -- 29.58 in1001.7 mb 0.00 in0.0 mm 0.00 in0.0 mm 0.17 in4.3 mm
05:47 AM 41.9°F5.5°C 37.0°F2.8°C 84% Calm Calm -- 29.58 in1001.7 mb 0.00 in0.0 mm 0.00 in0.0 mm 0.17 in4.3 mm
05:46 AM 42.1°F5.6°C 37.0°F2.8°C 83% Calm Calm -- 29.58 in1001.7 mb 0.00 in0.0 mm 0.00 in0.0 mm 0.17 in4.3 mm
05:45 AM 42.1°F5.6°C 37.0°F2.8°C 83% Calm Calm -- 29.58 in1001.7 mb 0.00 in0.0 mm 0.00 in0.0 mm 0.17 in4.3 mm
05:44 AM 42.1°F5.6°C 37.0°F2.8°C 83% Calm Calm -- 29.58 in1001.7 mb 0.00 in0.0 mm 0.00 in0.0 mm 0.17 in4.3 mm
05:43 AM 42.1°F5.6°C 37.0°F2.8°C 83% Calm Calm -- 29.58 in1001.7 mb 0.00 in0.0 mm 0.00 in0.0 mm 0.17 in4.3 mm
05:42 AM 42.1°F5.6°C 37.0°F2.8°C 83% Calm Calm -- 29.58 in1001.7 mb 0.00 in0.0 mm 0.00 in0.0 mm 0.17 in4.3 mm
05:41 AM 42.3°F5.7°C 37.0°F2.8°C 83% Calm Calm -- 29.58 in1001.7 mb 0.00 in0.0 mm 0.00 in0.0 mm 0.17 in4.3 mm
05:40 AM 42.3°F5.7°C 37.0°F2.8°C 83% Calm Calm -- 29.58 in1001.7 mb 0.00 in0.0 mm 0.00 in0.0 mm 0.17 in4.3 mm
05:39 AM 42.3°F5.7°C 37.0°F2.8°C 83% Calm Calm -- 29.58 in1001.7 mb 0.00 in0.0 mm 0.00 in0.0 mm 0.17 in4.3 mm
05:38 AM 42.3°F5.7°C 37.0°F2.8°C 83% Calm Calm -- 29.58 in1001.7 mb 0.00 in0.0 mm 0.00 in0.0 mm 0.17 in4.3 mm
05:37 AM 42.3°F5.7°C 37.0°F2.8°C 83% Calm Calm -- 29.58 in1001.7 mb 0.00 in0.0 mm 0.00 in0.0 mm 0.17 in4.3 mm
05:36 AM 42.3°F5.7°C 37.0°F2.8°C 83% Calm Calm -- 29.58 in1001.7 mb 0.00 in0.0 mm 0.00 in0.0 mm 0.17 in4.3 mm
05:35 AM 42.3°F5.7°C 37.0°F2.8°C 83% Calm Calm -- 29.58 in1001.7 mb 0.00 in0.0 mm 0.00 in0.0 mm 0.17 in4.3 mm
05:34 AM 42.3°F5.7°C 37.0°F2.8°C 83% Calm Calm -- 29.58 in1001.7 mb 0.00 in0.0 mm 0.00 in0.0 mm 0.17 in4.3 mm
05:33 AM 42.3°F5.7°C 37.0°F2.8°C 83% Calm Calm -- 29.58 in1001.7 mb 0.00 in0.0 mm 0.00 in0.0 mm 0.17 in4.3 mm
05:32 AM 42.3°F5.7°C 37.0°F2.8°C 83% Calm Calm -- 29.58 in1001.7 mb 0.00 in0.0 mm 0.00 in0.0 mm 0.17 in4.3 mm
05:31 AM 42.3°F5.7°C 37.0°F2.8°C 83% Calm Calm -- 29.58 in1001.7 mb 0.00 in0.0 mm 0.00 in0.0 mm 0.17 in4.3 mm
05:30 AM 42.4°F5.8°C 37.0°F2.8°C 82% Calm Calm -- 29.58 in1001.7 mb 0.00 in0.0 mm 0.00 in0.0 mm 0.17 in4.3 mm
05:29 AM 42.4°F5.8°C 37.0°F2.8°C 82% Calm Calm -- 29.58 in1001.7 mb 0.00 in0.0 mm 0.00 in0.0 mm 0.17 in4.3 mm
05:28 AM 42.4°F5.8°C 37.0°F2.8°C 82% Calm Calm -- 29.58 in1001.7 mb 0.00 in0.0 mm 0.00 in0.0 mm 0.17 in4.3 mm
05:27 AM 42.4°F5.8°C 37.0°F2.8°C 82% Calm Calm -- 29.58 in1001.7 mb 0.00 in0.0 mm 0.00 in0.0 mm 0.17 in4.3 mm
05:26 AM 42.4°F5.8°C 37.0°F2.8°C 82% Calm Calm -- 29.58 in1001.7 mb 0.00 in0.0 mm 0.00 in0.0 mm 0.17 in4.3 mm
05:25 AM 42.4°F5.8°C 37.0°F2.8°C 82% Calm Calm -- 29.58 in1001.7 mb 0.00 in0.0 mm 0.00 in0.0 mm 0.17 in4.3 mm
05:24 AM 42.4°F5.8°C 37.0°F2.8°C 82% Calm Calm -- 29.58 in1001.7 mb 0.00 in0.0 mm 0.00 in0.0 mm 0.17 in4.3 mm
05:23 AM 42.4°F5.8°C 37.0°F2.8°C 82% Calm Calm -- 29.58 in1001.7 mb 0.00 in0.0 mm 0.00 in0.0 mm 0.17 in4.3 mm
05:22 AM 42.4°F5.8°C 37.0°F2.8°C 82% Calm Calm -- 29.58 in1001.7 mb 0.00 in0.0 mm 0.00 in0.0 mm 0.17 in4.3 mm
05:21 AM 42.4°F5.8°C 37.0°F2.8°C 82% Calm Calm -- 29.58 in1001.7 mb 0.00 in0.0 mm 0.00 in0.0 mm 0.17 in4.3 mm
05:20 AM 42.6°F5.9°C 38.0°F3.3°C 82% Calm Calm -- 29.58 in1001.7 mb 0.00 in0.0 mm 0.00 in0.0 mm 0.17 in4.3 mm
05:19 AM 42.6°F5.9°C 38.0°F3.3°C 82% Calm Calm -- 29.58 in1001.7 mb 0.00 in0.0 mm 0.00 in0.0 mm 0.17 in4.3 mm
05:18 AM 42.6°F5.9°C 38.0°F3.3°C 82% Calm Calm -- 29.58 in1001.7 mb 0.00 in0.0 mm 0.00 in0.0 mm 0.17 in4.3 mm
05:17 AM 42.6°F5.9°C 38.0°F3.3°C 82% Calm Calm -- 29.58 in1001.7 mb 0.00 in0.0 mm 0.00 in0.0 mm 0.17 in4.3 mm
05:16 AM 42.6°F5.9°C 38.0°F3.3°C 82% Calm Calm -- 29.58 in1001.7 mb 0.00 in0.0 mm 0.00 in0.0 mm 0.17 in4.3 mm
05:15 AM 42.8°F6.0°C 38.0°F3.3°C 82% Calm Calm -- 29.58 in1001.7 mb 0.00 in0.0 mm 0.00 in0.0 mm 0.17 in4.3 mm
05:14 AM 42.8°F6.0°C 38.0°F3.3°C 82% Calm Calm -- 29.58 in1001.7 mb 0.00 in0.0 mm 0.00 in0.0 mm 0.17 in4.3 mm
05:13 AM 42.8°F6.0°C 38.0°F3.3°C 82% Calm Calm -- 29.58 in1001.7 mb 0.00 in0.0 mm 0.00 in0.0 mm 0.17 in4.3 mm
05:12 AM 42.8°F6.0°C 38.0°F3.3°C 82% Calm Calm -- 29.58 in1001.7 mb 0.00 in0.0 mm 0.00 in0.0 mm 0.17 in4.3 mm
05:11 AM 42.8°F6.0°C 38.0°F3.3°C 82% Calm Calm -- 29.58 in1001.7 mb 0.00 in0.0 mm 0.00 in0.0 mm 0.17 in4.3 mm
05:10 AM 43.0°F6.1°C 38.0°F3.3°C 82% Calm Calm -- 29.58 in1001.7 mb 0.00 in0.0 mm 0.00 in0.0 mm 0.17 in4.3 mm
05:09 AM 43.0°F6.1°C 38.0°F3.3°C 82% Calm Calm -- 29.58 in1001.7 mb 0.00 in0.0 mm 0.00 in0.0 mm 0.17 in4.3 mm
05:08 AM 43.0°F6.1°C 38.0°F3.3°C 82% Calm Calm -- 29.58 in1001.7 mb 0.00 in0.0 mm 0.00 in0.0 mm 0.17 in4.3 mm
05:07 AM 43.0°F6.1°C 38.0°F3.3°C 82% Calm Calm -- 29.58 in1001.7 mb 0.00 in0.0 mm 0.00 in0.0 mm 0.17 in4.3 mm
05:06 AM 43.0°F6.1°C 38.0°F3.3°C 82% Calm Calm -- 29.58 in1001.7 mb 0.00 in0.0 mm 0.00 in0.0 mm 0.17 in4.3 mm
05:05 AM 43.2°F6.2°C 38.0°F3.3°C 82% Calm Calm -- 29.58 in1001.7 mb 0.00 in0.0 mm 0.00 in0.0 mm 0.17 in4.3 mm
05:04 AM 43.2°F6.2°C 38.0°F3.3°C 82% Calm Calm -- 29.58 in1001.7 mb 0.00 in0.0 mm 0.00 in0.0 mm 0.17 in4.3 mm
05:03 AM 43.2°F6.2°C 38.0°F3.3°C 82% Calm Calm -- 29.58 in1001.7 mb 0.00 in0.0 mm 0.00 in0.0 mm 0.17 in4.3 mm
05:02 AM 43.2°F6.2°C 38.0°F3.3°C 82% Calm Calm -- 29.58 in1001.7 mb 0.00 in0.0 mm 0.00 in0.0 mm 0.17 in4.3 mm
05:01 AM 43.2°F6.2°C 38.0°F3.3°C 82% Calm Calm -- 29.58 in1001.7 mb 0.00 in0.0 mm 0.00 in0.0 mm 0.17 in4.3 mm
05:00 AM 43.3°F6.3°C 38.0°F3.3°C 81% Calm Calm -- 29.59 in1002.0 mb 0.00 in0.0 mm 0.00 in0.0 mm 0.17 in4.3 mm
04:59 AM 43.3°F6.3°C 38.0°F3.3°C 81% Calm Calm -- 29.59 in1002.0 mb 0.00 in0.0 mm 0.00 in0.0 mm 0.17 in4.3 mm
04:58 AM 43.3°F6.3°C 38.0°F3.3°C 81% Calm Calm -- 29.59 in1002.0 mb 0.00 in0.0 mm 0.00 in0.0 mm 0.17 in4.3 mm
04:57 AM 43.3°F6.3°C 38.0°F3.3°C 81% Calm Calm -- 29.59 in1002.0 mb 0.00 in0.0 mm 0.00 in0.0 mm 0.17 in4.3 mm
04:56 AM 43.3°F6.3°C 38.0°F3.3°C 81% Calm Calm -- 29.59 in1002.0 mb 0.00 in0.0 mm 0.00 in0.0 mm 0.17 in4.3 mm
04:55 AM 43.5°F6.4°C 38.0°F3.3°C 81% Calm Calm -- 29.59 in1002.0 mb 0.00 in0.0 mm 0.00 in0.0 mm 0.17 in4.3 mm
04:54 AM 43.5°F6.4°C 38.0°F3.3°C 81% Calm Calm -- 29.59 in1002.0 mb 0.00 in0.0 mm 0.00 in0.0 mm 0.17 in4.3 mm
04:53 AM 43.5°F6.4°C 38.0°F3.3°C 81% Calm Calm -- 29.59 in1002.0 mb 0.00 in0.0 mm 0.00 in0.0 mm 0.17 in4.3 mm
04:52 AM 43.5°F6.4°C 38.0°F3.3°C 81% Calm Calm -- 29.59 in1002.0 mb 0.00 in0.0 mm 0.00 in0.0 mm 0.17 in4.3 mm
04:51 AM 43.5°F6.4°C 38.0°F3.3°C 81% Calm Calm -- 29.59 in1002.0 mb 0.00 in0.0 mm 0.00 in0.0 mm 0.17 in4.3 mm
04:50 AM 43.7°F6.5°C 38.0°F3.3°C 81% Calm Calm -- 29.59 in1002.0 mb 0.00 in0.0 mm 0.00 in0.0 mm 0.17 in4.3 mm
04:49 AM 43.7°F6.5°C 38.0°F3.3°C 81% Calm Calm -- 29.59 in1002.0 mb 0.00 in0.0 mm 0.00 in0.0 mm 0.17 in4.3 mm
04:48 AM 43.7°F6.5°C 38.0°F3.3°C 81% Calm Calm -- 29.59 in1002.0 mb 0.00 in0.0 mm 0.00 in0.0 mm 0.17 in4.3 mm
04:47 AM 43.7°F6.5°C 38.0°F3.3°C 81% Calm Calm -- 29.59 in1002.0 mb 0.00 in0.0 mm 0.00 in0.0 mm 0.17 in4.3 mm
04:46 AM 43.7°F6.5°C 38.0°F3.3°C 81% Calm Calm -- 29.59 in1002.0 mb 0.00 in0.0 mm 0.00 in0.0 mm 0.17 in4.3 mm
04:45 AM 43.9°F6.6°C 38.0°F3.3°C 80% Calm Calm -- 29.59 in1002.0 mb 0.00 in0.0 mm 0.00 in0.0 mm 0.17 in4.3 mm
04:44 AM 43.9°F6.6°C 38.0°F3.3°C 80% Calm Calm -- 29.59 in1002.0 mb 0.00 in0.0 mm 0.00 in0.0 mm 0.17 in4.3 mm
04:43 AM 43.9°F6.6°C 38.0°F3.3°C 80% Calm Calm -- 29.59 in1002.0 mb 0.00 in0.0 mm 0.00 in0.0 mm 0.17 in4.3 mm
04:42 AM 43.9°F6.6°C 38.0°F3.3°C 80% Calm Calm -- 29.59 in1002.0 mb 0.00 in0.0 mm 0.00 in0.0 mm 0.17 in4.3 mm
04:41 AM 43.9°F6.6°C 38.0°F3.3°C 80% Calm Calm -- 29.59 in1002.0 mb 0.00 in0.0 mm 0.00 in0.0 mm 0.17 in4.3 mm
04:40 AM 44.1°F6.7°C 39.0°F3.9°C 81% 1.1 mph SW1.8 kmh SW 2.5 mph4.0 kmh 29.59 in1002.0 mb 0.00 in0.0 mm 0.00 in0.0 mm 0.17 in4.3 mm
04:39 AM 44.1°F6.7°C 39.0°F3.9°C 81% 1.1 mph SW1.8 kmh SW 2.5 mph4.0 kmh 29.59 in1002.0 mb 0.00 in0.0 mm 0.00 in0.0 mm 0.17 in4.3 mm
04:38 AM 44.1°F6.7°C 39.0°F3.9°C 81% 1.1 mph SW1.8 kmh SW 2.5 mph4.0 kmh 29.59 in1002.0 mb 0.00 in0.0 mm 0.00 in0.0 mm 0.17 in4.3 mm
04:37 AM 44.1°F6.7°C 39.0°F3.9°C 81% 1.1 mph SW1.8 kmh SW 2.5 mph4.0 kmh 29.59 in1002.0 mb 0.00 in0.0 mm 0.00 in0.0 mm 0.17 in4.3 mm
04:36 AM 44.1°F6.7°C 39.0°F3.9°C 81% 1.1 mph SW1.8 kmh SW 2.5 mph4.0 kmh 29.59 in1002.0 mb 0.00 in0.0 mm 0.00 in0.0 mm 0.17 in4.3 mm
04:35 AM 44.2°F6.8°C 39.0°F3.9°C 81% 2.5 mph WSW4.0 kmh WSW 4.9 mph7.9 kmh 29.59 in1002.0 mb 0.00 in0.0 mm 0.00 in0.0 mm 0.17 in4.3 mm
04:34 AM 44.2°F6.8°C 39.0°F3.9°C 81% 2.5 mph WSW4.0 kmh WSW 4.9 mph7.9 kmh 29.59 in1002.0 mb 0.00 in0.0 mm 0.00 in0.0 mm 0.17 in4.3 mm
04:33 AM 44.2°F6.8°C 39.0°F3.9°C 81% 2.5 mph WSW4.0 kmh WSW 4.9 mph7.9 kmh 29.59 in1002.0 mb 0.00 in0.0 mm 0.00 in0.0 mm 0.17 in4.3 mm
04:32 AM 44.2°F6.8°C 39.0°F3.9°C 81% 2.5 mph WSW4.0 kmh WSW 4.9 mph7.9 kmh 29.59 in1002.0 mb 0.00 in0.0 mm 0.00 in0.0 mm 0.17 in4.3 mm
04:31 AM 44.2°F6.8°C 39.0°F3.9°C 81% 2.5 mph WSW4.0 kmh WSW 4.9 mph7.9 kmh 29.59 in1002.0 mb 0.00 in0.0 mm 0.00 in0.0 mm 0.17 in4.3 mm
04:30 AM 44.4°F6.9°C 39.0°F3.9°C 82% 2.0 mph WSW3.2 kmh WSW 2.5 mph4.0 kmh 29.59 in1002.0 mb 0.00 in0.0 mm 0.00 in0.0 mm 0.17 in4.3 mm
04:29 AM 44.4°F6.9°C 39.0°F3.9°C 82% 2.0 mph WSW3.2 kmh WSW 2.5 mph4.0 kmh 29.59 in1002.0 mb 0.00 in0.0 mm 0.00 in0.0 mm 0.17 in4.3 mm
04:28 AM 44.4°F6.9°C 39.0°F3.9°C 82% 2.0 mph WSW3.2 kmh WSW 2.5 mph4.0 kmh 29.59 in1002.0 mb 0.00 in0.0 mm 0.00 in0.0 mm 0.17 in4.3 mm
04:27 AM 44.4°F6.9°C 39.0°F3.9°C 82% 2.0 mph WSW3.2 kmh WSW 2.5 mph4.0 kmh 29.59 in1002.0 mb 0.00 in0.0 mm 0.00 in0.0 mm 0.17 in4.3 mm
04:26 AM 44.4°F6.9°C 39.0°F3.9°C 82% 2.0 mph WSW3.2 kmh WSW 2.5 mph4.0 kmh 29.59 in1002.0 mb 0.00 in0.0 mm 0.00 in0.0 mm 0.17 in4.3 mm
04:25 AM 44.8°F7.1°C 40.0°F4.4°C 82% Calm Calm -- 29.59 in1002.0 mb 0.00 in0.0 mm 0.00 in0.0 mm 0.17 in4.3 mm
04:24 AM 44.8°F7.1°C 40.0°F4.4°C 82% Calm Calm -- 29.59 in1002.0 mb 0.00 in0.0 mm 0.00 in0.0 mm 0.17 in4.3 mm
04:23 AM 44.8°F7.1°C 40.0°F4.4°C 82% Calm Calm -- 29.59 in1002.0 mb 0.00 in0.0 mm 0.00 in0.0 mm 0.17 in4.3 mm
04:22 AM 44.8°F7.1°C 40.0°F4.4°C 82% Calm Calm -- 29.59 in1002.0 mb 0.00 in0.0 mm 0.00 in0.0 mm 0.17 in4.3 mm
04:21 AM 44.8°F7.1°C 40.0°F4.4°C 82% Calm Calm -- 29.59 in1002.0 mb 0.00 in0.0 mm 0.00 in0.0 mm 0.17 in4.3 mm
04:20 AM 45.0°F7.2°C 40.0°F4.4°C 82% 2.5 mph WSW4.0 kmh WSW 2.5 mph4.0 kmh 29.59 in1002.0 mb 0.00 in0.0 mm 0.00 in0.0 mm 0.17 in4.3 mm
04:19 AM 45.0°F7.2°C 40.0°F4.4°C 82% 2.5 mph WSW4.0 kmh WSW 2.5 mph4.0 kmh 29.59 in1002.0 mb 0.00 in0.0 mm 0.00 in0.0 mm 0.17 in4.3 mm
04:18 AM 45.0°F7.2°C 40.0°F4.4°C 82% 2.5 mph WSW4.0 kmh WSW 2.5 mph4.0 kmh 29.59 in1002.0 mb 0.00 in0.0 mm 0.00 in0.0 mm 0.17 in4.3 mm
04:17 AM 45.0°F7.2°C 40.0°F4.4°C 82% 2.5 mph WSW4.0 kmh WSW 2.5 mph4.0 kmh 29.59 in1002.0 mb 0.00 in0.0 mm 0.00 in0.0 mm 0.17 in4.3 mm
04:16 AM 45.0°F7.2°C 40.0°F4.4°C 82% 2.5 mph WSW4.0 kmh WSW 2.5 mph4.0 kmh 29.59 in1002.0 mb 0.00 in0.0 mm 0.00 in0.0 mm 0.17 in4.3 mm
04:15 AM 45.1°F7.3°C 40.0°F4.4°C 82% 2.7 mph WSW4.3 kmh WSW 4.9 mph7.9 kmh 29.59 in1002.0 mb 0.00 in0.0 mm 0.00 in0.0 mm 0.17 in4.3 mm
04:14 AM 45.1°F7.3°C 40.0°F4.4°C 82% 2.7 mph WSW4.3 kmh WSW 4.9 mph7.9 kmh 29.59 in1002.0 mb 0.00 in0.0 mm 0.00 in0.0 mm 0.17 in4.3 mm
04:13 AM 45.1°F7.3°C 40.0°F4.4°C 82% 2.7 mph WSW4.3 kmh WSW 4.9 mph7.9 kmh 29.59 in1002.0 mb 0.00 in0.0 mm 0.00 in0.0 mm 0.17 in4.3 mm
04:12 AM 45.1°F7.3°C 40.0°F4.4°C 82% 2.7 mph WSW4.3 kmh WSW 4.9 mph7.9 kmh 29.59 in1002.0 mb 0.00 in0.0 mm 0.00 in0.0 mm 0.17 in4.3 mm
04:11 AM 45.1°F7.3°C 40.0°F4.4°C 82% 2.7 mph WSW4.3 kmh WSW 4.9 mph7.9 kmh 29.59 in1002.0 mb 0.00 in0.0 mm 0.00 in0.0 mm 0.17 in4.3 mm
04:10 AM 45.3°F7.4°C 40.0°F4.4°C 81% 1.3 mph WSW2.1 kmh WSW 2.5 mph4.0 kmh 29.59 in1002.0 mb 0.00 in0.0 mm 0.00 in0.0 mm 0.17 in4.3 mm
04:09 AM 45.3°F7.4°C 40.0°F4.4°C 81% 1.3 mph WSW2.1 kmh WSW 2.5 mph4.0 kmh 29.59 in1002.0 mb 0.00 in0.0 mm 0.00 in0.0 mm 0.17 in4.3 mm
04:08 AM 45.3°F7.4°C 40.0°F4.4°C 81% 1.3 mph WSW2.1 kmh WSW 2.5 mph4.0 kmh 29.59 in1002.0 mb 0.00 in0.0 mm 0.00 in0.0 mm 0.17 in4.3 mm
04:07 AM 45.3°F7.4°C 40.0°F4.4°C 81% 1.3 mph WSW2.1 kmh WSW 2.5 mph4.0 kmh 29.59 in1002.0 mb 0.00 in0.0 mm 0.00 in0.0 mm 0.17 in4.3 mm
04:06 AM 45.3°F7.4°C 40.0°F4.4°C 81% 1.3 mph WSW2.1 kmh WSW 2.5 mph4.0 kmh 29.59 in1002.0 mb 0.00 in0.0 mm 0.00 in0.0 mm 0.17 in4.3 mm
04:05 AM 45.5°F7.5°C 40.0°F4.4°C 81% 2.5 mph WSW4.0 kmh WSW 2.5 mph4.0 kmh 29.59 in1002.0 mb 0.00 in0.0 mm 0.00 in0.0 mm 0.17 in4.3 mm
04:04 AM 45.5°F7.5°C 40.0°F4.4°C 81% 2.5 mph WSW4.0 kmh WSW 2.5 mph4.0 kmh 29.59 in1002.0 mb 0.00 in0.0 mm 0.00 in0.0 mm 0.17 in4.3 mm
04:03 AM 45.5°F7.5°C 40.0°F4.4°C 81% 2.5 mph WSW4.0 kmh WSW 2.5 mph4.0 kmh 29.59 in1002.0 mb 0.00 in0.0 mm 0.00 in0.0 mm 0.17 in4.3 mm
04:02 AM 45.5°F7.5°C 40.0°F4.4°C 81% 2.5 mph WSW4.0 kmh WSW 2.5 mph4.0 kmh 29.59 in1002.0 mb 0.00 in0.0 mm 0.00 in0.0 mm 0.17 in4.3 mm
04:01 AM 45.5°F7.5°C 40.0°F4.4°C 81% 2.5 mph WSW4.0 kmh WSW 2.5 mph4.0 kmh 29.59 in1002.0 mb 0.00 in0.0 mm 0.00 in0.0 mm 0.17 in4.3 mm
04:00 AM 45.7°F7.6°C 40.0°F4.4°C 82% 6.7 mph WNW10.8 kmh WNW 7.4 mph11.9 kmh 29.57 in1001.4 mb 0.00 in0.0 mm 0.00 in0.0 mm 0.17 in4.3 mm
03:59 AM 45.7°F7.6°C 40.0°F4.4°C 82% 6.7 mph WNW10.8 kmh WNW 7.4 mph11.9 kmh 29.57 in1001.4 mb 0.00 in0.0 mm 0.00 in0.0 mm 0.17 in4.3 mm
03:58 AM 45.7°F7.6°C 40.0°F4.4°C 82% 6.7 mph WNW10.8 kmh WNW 7.4 mph11.9 kmh 29.57 in1001.4 mb 0.00 in0.0 mm 0.00 in0.0 mm 0.17 in4.3 mm
03:57 AM 45.7°F7.6°C 40.0°F4.4°C 82% 6.7 mph WNW10.8 kmh WNW 7.4 mph11.9 kmh 29.57 in1001.4 mb 0.00 in0.0 mm 0.00 in0.0 mm 0.17 in4.3 mm
03:56 AM 45.7°F7.6°C 40.0°F4.4°C 82% 6.7 mph WNW10.8 kmh WNW 7.4 mph11.9 kmh 29.57 in1001.4 mb 0.00 in0.0 mm 0.00 in0.0 mm 0.17 in4.3 mm
03:55 AM 45.9°F7.7°C 41.0°F5.0°C 82% 2.5 mph WSW4.0 kmh WSW 4.9 mph7.9 kmh 29.57 in1001.4 mb 0.00 in0.0 mm 0.00 in0.0 mm 0.17 in4.3 mm
03:54 AM 45.9°F7.7°C 41.0°F5.0°C 82% 2.5 mph WSW4.0 kmh WSW 4.9 mph7.9 kmh 29.57 in1001.4 mb 0.00 in0.0 mm 0.00 in0.0 mm 0.17 in4.3 mm
03:53 AM 45.9°F7.7°C 41.0°F5.0°C 82% 2.5 mph WSW4.0 kmh WSW 4.9 mph7.9 kmh 29.57 in1001.4 mb 0.00 in0.0 mm 0.00 in0.0 mm 0.17 in4.3 mm
03:52 AM 45.9°F7.7°C 41.0°F5.0°C 82% 2.5 mph WSW4.0 kmh WSW 4.9 mph7.9 kmh 29.57 in1001.4 mb 0.00 in0.0 mm 0.00 in0.0 mm 0.17 in4.3 mm
03:51 AM 45.9°F7.7°C 41.0°F5.0°C 82% 2.5 mph WSW4.0 kmh WSW 4.9 mph7.9 kmh 29.57 in1001.4 mb 0.00 in0.0 mm 0.00 in0.0 mm 0.17 in4.3 mm
03:50 AM 46.0°F7.8°C 41.0°F5.0°C 82% 5.8 mph WSW9.3 kmh WSW 7.4 mph11.9 kmh 29.57 in1001.4 mb 0.00 in0.0 mm 0.00 in0.0 mm 0.17 in4.3 mm
03:49 AM 46.0°F7.8°C 41.0°F5.0°C 82% 5.8 mph WSW9.3 kmh WSW 7.4 mph11.9 kmh 29.57 in1001.4 mb 0.00 in0.0 mm 0.00 in0.0 mm 0.17 in4.3 mm
03:48 AM 46.0°F7.8°C 41.0°F5.0°C 82% 5.8 mph WSW9.3 kmh WSW 7.4 mph11.9 kmh 29.57 in1001.4 mb 0.00 in0.0 mm 0.00 in0.0 mm 0.17 in4.3 mm
03:47 AM 46.0°F7.8°C 41.0°F5.0°C 82% 5.8 mph WSW9.3 kmh WSW 7.4 mph11.9 kmh 29.57 in1001.4 mb 0.00 in0.0 mm 0.00 in0.0 mm 0.17 in4.3 mm
03:46 AM 46.0°F7.8°C 41.0°F5.0°C 82% 5.8 mph WSW9.3 kmh WSW 7.4 mph11.9 kmh 29.57 in1001.4 mb 0.00 in0.0 mm 0.00 in0.0 mm 0.17 in4.3 mm
03:45 AM 46.0°F7.8°C 41.0°F5.0°C 82% 2.7 mph WSW4.3 kmh WSW 4.9 mph7.9 kmh 29.57 in1001.4 mb 0.00 in0.0 mm 0.00 in0.0 mm 0.17 in4.3 mm
03:44 AM 46.0°F7.8°C 41.0°F5.0°C 82% 2.7 mph WSW4.3 kmh WSW 4.9 mph7.9 kmh 29.57 in1001.4 mb 0.00 in0.0 mm 0.00 in0.0 mm 0.17 in4.3 mm
03:43 AM 46.0°F7.8°C 41.0°F5.0°C 82% 2.7 mph WSW4.3 kmh WSW 4.9 mph7.9 kmh 29.57 in1001.4 mb 0.00 in0.0 mm 0.00 in0.0 mm 0.17 in4.3 mm
03:42 AM 46.0°F7.8°C 41.0°F5.0°C 82% 2.7 mph WSW4.3 kmh WSW 4.9 mph7.9 kmh 29.57 in1001.4 mb 0.00 in0.0 mm 0.00 in0.0 mm 0.17 in4.3 mm
03:41 AM 46.0°F7.8°C 41.0°F5.0°C 82% 2.7 mph WSW4.3 kmh WSW 4.9 mph7.9 kmh 29.57 in1001.4 mb 0.00 in0.0 mm 0.00 in0.0 mm 0.17 in4.3 mm
03:40 AM 46.2°F7.9°C 41.0°F5.0°C 83% 3.4 mph WSW5.5 kmh WSW 4.9 mph7.9 kmh 29.57 in1001.4 mb 0.00 in0.0 mm 0.00 in0.0 mm 0.17 in4.3 mm
03:39 AM 46.2°F7.9°C 41.0°F5.0°C 83% 3.4 mph WSW5.5 kmh WSW 4.9 mph7.9 kmh 29.57 in1001.4 mb 0.00 in0.0 mm 0.00 in0.0 mm 0.17 in4.3 mm
03:38 AM 46.2°F7.9°C 41.0°F5.0°C 83% 3.4 mph WSW5.5 kmh WSW 4.9 mph7.9 kmh 29.57 in1001.4 mb 0.00 in0.0 mm 0.00 in0.0 mm 0.17 in4.3 mm
03:37 AM 46.2°F7.9°C 41.0°F5.0°C 83% 3.4 mph WSW5.5 kmh WSW 4.9 mph7.9 kmh 29.57 in1001.4 mb 0.00 in0.0 mm 0.00 in0.0 mm 0.17 in4.3 mm
03:36 AM 46.2°F7.9°C 41.0°F5.0°C 83% 3.4 mph WSW5.5 kmh WSW 4.9 mph7.9 kmh 29.57 in1001.4 mb 0.00 in0.0 mm 0.00 in0.0 mm 0.17 in4.3 mm
03:35 AM 46.4°F8.0°C 41.0°F5.0°C 82% 2.7 mph WSW4.3 kmh WSW 4.9 mph7.9 kmh 29.57 in1001.4 mb 0.00 in0.0 mm 0.00 in0.0 mm 0.17 in4.3 mm
03:34 AM 46.4°F8.0°C 41.0°F5.0°C 82% 2.7 mph WSW4.3 kmh WSW 4.9 mph7.9 kmh 29.57 in1001.4 mb 0.00 in0.0 mm 0.00 in0.0 mm 0.17 in4.3 mm
03:33 AM 46.4°F8.0°C 41.0°F5.0°C 82% 2.7 mph WSW4.3 kmh WSW 4.9 mph7.9 kmh 29.57 in1001.4 mb 0.00 in0.0 mm 0.00 in0.0 mm 0.17 in4.3 mm
03:32 AM 46.4°F8.0°C 41.0°F5.0°C 82% 2.7 mph WSW4.3 kmh WSW 4.9 mph7.9 kmh 29.57 in1001.4 mb 0.00 in0.0 mm 0.00 in0.0 mm 0.17 in4.3 mm
03:31 AM 46.4°F8.0°C 41.0°F5.0°C 82% 2.7 mph WSW4.3 kmh WSW 4.9 mph7.9 kmh 29.57 in1001.4 mb 0.00 in0.0 mm 0.00 in0.0 mm 0.17 in4.3 mm
03:30 AM 46.4°F8.0°C 41.0°F5.0°C 82% 1.3 mph WSW2.1 kmh WSW 2.5 mph4.0 kmh 29.57 in1001.4 mb 0.00 in0.0 mm 0.00 in0.0 mm 0.17 in4.3 mm
03:29 AM 46.4°F8.0°C 41.0°F5.0°C 82% 1.3 mph WSW2.1 kmh WSW 2.5 mph4.0 kmh 29.57 in1001.4 mb 0.00 in0.0 mm 0.00 in0.0 mm 0.17 in4.3 mm
03:28 AM 46.4°F8.0°C 41.0°F5.0°C 82% 1.3 mph WSW2.1 kmh WSW 2.5 mph4.0 kmh 29.57 in1001.4 mb 0.00 in0.0 mm 0.00 in0.0 mm 0.17 in4.3 mm
03:27 AM 46.4°F8.0°C 41.0°F5.0°C 82% 1.3 mph WSW2.1 kmh WSW 2.5 mph4.0 kmh 29.57 in1001.4 mb 0.00 in0.0 mm 0.00 in0.0 mm 0.17 in4.3 mm
03:26 AM 46.4°F8.0°C 41.0°F5.0°C 82% 1.3 mph WSW2.1 kmh WSW 2.5 mph4.0 kmh 29.57 in1001.4 mb 0.00 in0.0 mm 0.00 in0.0 mm 0.17 in4.3 mm
03:25 AM 46.4°F8.0°C 41.0°F5.0°C 82% 1.3 mph WSW2.1 kmh WSW 2.5 mph4.0 kmh 29.57 in1001.4 mb 0.00 in0.0 mm 0.00 in0.0 mm 0.17 in4.3 mm
03:24 AM 46.4°F8.0°C 42.0°F5.6°C 83% Calm Calm -- 29.57 in1001.4 mb 0.00 in0.0 mm 0.00 in0.0 mm 0.17 in4.3 mm
03:23 AM 46.4°F8.0°C 42.0°F5.6°C 83% Calm Calm -- 29.57 in1001.4 mb 0.00 in0.0 mm 0.00 in0.0 mm 0.17 in4.3 mm
03:22 AM 46.4°F8.0°C 42.0°F5.6°C 83% Calm Calm -- 29.57 in1001.4 mb 0.00 in0.0 mm 0.00 in0.0 mm 0.17 in4.3 mm
03:21 AM 46.4°F8.0°C 42.0°F5.6°C 83% Calm Calm -- 29.57 in1001.4 mb 0.00 in0.0 mm 0.00 in0.0 mm 0.17 in4.3 mm
03:20 AM 46.4°F8.0°C 42.0°F5.6°C 83% Calm Calm -- 29.57 in1001.4 mb 0.00 in0.0 mm 0.00 in0.0 mm 0.17 in4.3 mm
03:19 AM 46.4°F8.0°C 42.0°F5.6°C 83% 0.9 mph SW1.4 kmh SW 2.5 mph4.0 kmh 29.57 in1001.4 mb 0.00 in0.0 mm 0.00 in0.0 mm 0.17 in4.3 mm
03:18 AM 46.4°F8.0°C 42.0°F5.6°C 83% 0.9 mph SW1.4 kmh SW 2.5 mph4.0 kmh 29.57 in1001.4 mb 0.00 in0.0 mm 0.00 in0.0 mm 0.17 in4.3 mm
03:17 AM 46.4°F8.0°C 42.0°F5.6°C 83% 0.9 mph SW1.4 kmh SW 2.5 mph4.0 kmh 29.57 in1001.4 mb 0.00 in0.0 mm 0.00 in0.0 mm 0.17 in4.3 mm
03:16 AM 46.4°F8.0°C 42.0°F5.6°C 83% 0.9 mph SW1.4 kmh SW 2.5 mph4.0 kmh 29.57 in1001.4 mb 0.00 in0.0 mm 0.00 in0.0 mm 0.17 in4.3 mm
03:15 AM 46.4°F8.0°C 42.0°F5.6°C 83% 0.9 mph SW1.4 kmh SW 2.5 mph4.0 kmh 29.57 in1001.4 mb 0.00 in0.0 mm 0.00 in0.0 mm 0.17 in4.3 mm
03:14 AM 46.6°F8.1°C 42.0°F5.6°C 83% Calm Calm -- 29.57 in1001.4 mb 0.00 in0.0 mm 0.00 in0.0 mm 0.17 in4.3 mm
03:13 AM 46.6°F8.1°C 42.0°F5.6°C 83% Calm Calm -- 29.57 in1001.4 mb 0.00 in0.0 mm 0.00 in0.0 mm 0.17 in4.3 mm
03:12 AM 46.6°F8.1°C 42.0°F5.6°C 83% Calm Calm -- 29.57 in1001.4 mb 0.00 in0.0 mm 0.00 in0.0 mm 0.17 in4.3 mm
03:11 AM 46.6°F8.1°C 42.0°F5.6°C 83% Calm Calm -- 29.57 in1001.4 mb 0.00 in0.0 mm 0.00 in0.0 mm 0.17 in4.3 mm
03:10 AM 46.6°F8.1°C 42.0°F5.6°C 83% Calm Calm -- 29.57 in1001.4 mb 0.00 in0.0 mm 0.00 in0.0 mm 0.17 in4.3 mm
03:09 AM 46.6°F8.1°C 42.0°F5.6°C 84% 1.1 mph WSW1.8 kmh WSW 2.5 mph4.0 kmh 29.57 in1001.4 mb 0.00 in0.0 mm 0.00 in0.0 mm 0.17 in4.3 mm
03:08 AM 46.6°F8.1°C 42.0°F5.6°C 84% 1.1 mph WSW1.8 kmh WSW 2.5 mph4.0 kmh 29.57 in1001.4 mb 0.00 in0.0 mm 0.00 in0.0 mm 0.17 in4.3 mm
03:07 AM 46.6°F8.1°C 42.0°F5.6°C 84% 1.1 mph WSW1.8 kmh WSW 2.5 mph4.0 kmh 29.57 in1001.4 mb 0.00 in0.0 mm 0.00 in0.0 mm 0.17 in4.3 mm
03:06 AM 46.6°F8.1°C 42.0°F5.6°C 84% 1.1 mph WSW1.8 kmh WSW 2.5 mph4.0 kmh 29.57 in1001.4 mb 0.00 in0.0 mm 0.00 in0.0 mm 0.17 in4.3 mm
03:05 AM 46.6°F8.1°C 42.0°F5.6°C 84% 1.1 mph WSW1.8 kmh WSW 2.5 mph4.0 kmh 29.57 in1001.4 mb 0.00 in0.0 mm 0.00 in0.0 mm 0.17 in4.3 mm
03:04 AM 46.6°F8.1°C 42.0°F5.6°C 84% 2.5 mph WSW4.0 kmh WSW 4.9 mph7.9 kmh 29.57 in1001.4 mb 0.00 in0.0 mm 0.00 in0.0 mm 0.17 in4.3 mm
03:03 AM 46.6°F8.1°C 42.0°F5.6°C 84% 2.5 mph WSW4.0 kmh WSW 4.9 mph7.9 kmh 29.57 in1001.4 mb 0.00 in0.0 mm 0.00 in0.0 mm 0.17 in4.3 mm
03:02 AM 46.6°F8.1°C 42.0°F5.6°C 84% 2.5 mph WSW4.0 kmh WSW 4.9 mph7.9 kmh 29.57 in1001.4 mb 0.00 in0.0 mm 0.00 in0.0 mm 0.17 in4.3 mm
03:01 AM 46.6°F8.1°C 42.0°F5.6°C 84% 2.5 mph WSW4.0 kmh WSW 4.9 mph7.9 kmh 29.57 in1001.4 mb 0.00 in0.0 mm 0.00 in0.0 mm 0.17 in4.3 mm
03:00 AM 46.6°F8.1°C 42.0°F5.6°C 84% 2.5 mph WSW4.0 kmh WSW 4.9 mph7.9 kmh 29.57 in1001.4 mb 0.00 in0.0 mm 0.00 in0.0 mm 0.17 in4.3 mm
02:59 AM 46.8°F8.2°C 42.0°F5.6°C 84% 2.0 mph SW3.2 kmh SW 2.5 mph4.0 kmh 29.57 in1001.4 mb 0.00 in0.0 mm 0.00 in0.0 mm 0.17 in4.3 mm
02:58 AM 46.8°F8.2°C 42.0°F5.6°C 84% 2.0 mph SW3.2 kmh SW 2.5 mph4.0 kmh 29.57 in1001.4 mb 0.00 in0.0 mm 0.00 in0.0 mm 0.17 in4.3 mm
02:57 AM 46.8°F8.2°C 42.0°F5.6°C 84% 2.0 mph SW3.2 kmh SW 2.5 mph4.0 kmh 29.57 in1001.4 mb 0.00 in0.0 mm 0.00 in0.0 mm 0.17 in4.3 mm
02:56 AM 46.8°F8.2°C 42.0°F5.6°C 84% 2.0 mph SW3.2 kmh SW 2.5 mph4.0 kmh 29.57 in1001.4 mb 0.00 in0.0 mm 0.00 in0.0 mm 0.17 in4.3 mm
02:55 AM 46.8°F8.2°C 42.0°F5.6°C 84% 2.0 mph SW3.2 kmh SW 2.5 mph4.0 kmh 29.57 in1001.4 mb 0.00 in0.0 mm 0.00 in0.0 mm 0.17 in4.3 mm
02:54 AM 46.9°F8.3°C 42.0°F5.6°C 84% Calm Calm -- 29.57 in1001.4 mb 0.00 in0.0 mm 0.00 in0.0 mm 0.17 in4.3 mm
02:53 AM 46.9°F8.3°C 42.0°F5.6°C 84% Calm Calm -- 29.57 in1001.4 mb 0.00 in0.0 mm 0.00 in0.0 mm 0.17 in4.3 mm
02:52 AM 46.9°F8.3°C 42.0°F5.6°C 84% Calm Calm -- 29.57 in1001.4 mb 0.00 in0.0 mm 0.00 in0.0 mm 0.17 in4.3 mm
02:51 AM 46.9°F8.3°C 42.0°F5.6°C 84% Calm Calm -- 29.57 in1001.4 mb 0.00 in0.0 mm 0.00 in0.0 mm 0.17 in4.3 mm
02:50 AM 46.9°F8.3°C 42.0°F5.6°C 84% Calm Calm -- 29.57 in1001.4 mb 0.00 in0.0 mm 0.00 in0.0 mm 0.17 in4.3 mm
02:49 AM 46.9°F8.3°C 42.0°F5.6°C 84% Calm Calm -- 29.57 in1001.4 mb 0.00 in0.0 mm 0.00 in0.0 mm 0.17 in4.3 mm
02:48 AM 46.9°F8.3°C 42.0°F5.6°C 84% Calm Calm -- 29.57 in1001.4 mb 0.00 in0.0 mm 0.00 in0.0 mm 0.17 in4.3 mm
02:47 AM 46.9°F8.3°C 42.0°F5.6°C 84% Calm Calm -- 29.57 in1001.4 mb 0.00 in0.0 mm 0.00 in0.0 mm 0.17 in4.3 mm
02:46 AM 46.9°F8.3°C 42.0°F5.6°C 84% Calm Calm -- 29.57 in1001.4 mb 0.00 in0.0 mm 0.00 in0.0 mm 0.17 in4.3 mm
02:45 AM 46.9°F8.3°C 42.0°F5.6°C 84% Calm Calm -- 29.57 in1001.4 mb 0.00 in0.0 mm 0.00 in0.0 mm 0.17 in4.3 mm
02:44 AM 47.1°F8.4°C 43.0°F6.1°C 84% 0.9 mph WSW1.4 kmh WSW 2.5 mph4.0 kmh 29.57 in1001.4 mb 0.00 in0.0 mm 0.00 in0.0 mm 0.17 in4.3 mm
02:43 AM 47.1°F8.4°C 43.0°F6.1°C 84% 0.9 mph WSW1.4 kmh WSW 2.5 mph4.0 kmh 29.57 in1001.4 mb 0.00 in0.0 mm 0.00 in0.0 mm 0.17 in4.3 mm
02:42 AM 47.1°F8.4°C 43.0°F6.1°C 84% 0.9 mph WSW1.4 kmh WSW 2.5 mph4.0 kmh 29.57 in1001.4 mb 0.00 in0.0 mm 0.00 in0.0 mm 0.17 in4.3 mm
02:41 AM 47.1°F8.4°C 43.0°F6.1°C 84% 0.9 mph WSW1.4 kmh WSW 2.5 mph4.0 kmh 29.57 in1001.4 mb 0.00 in0.0 mm 0.00 in0.0 mm 0.17 in4.3 mm
02:40 AM 47.1°F8.4°C 43.0°F6.1°C 84% 0.9 mph WSW1.4 kmh WSW 2.5 mph4.0 kmh 29.57 in1001.4 mb 0.00 in0.0 mm 0.00 in0.0 mm 0.17 in4.3 mm
02:39 AM 47.3°F8.5°C 43.0°F6.1°C 84% 1.8 mph SW2.9 kmh SW 2.5 mph4.0 kmh 29.57 in1001.4 mb 0.00 in0.0 mm 0.00 in0.0 mm 0.17 in4.3 mm
02:38 AM 47.3°F8.5°C 43.0°F6.1°C 84% 1.8 mph SW2.9 kmh SW 2.5 mph4.0 kmh 29.57 in1001.4 mb 0.00 in0.0 mm 0.00 in0.0 mm 0.17 in4.3 mm
02:37 AM 47.3°F8.5°C 43.0°F6.1°C 84% 1.8 mph SW2.9 kmh SW 2.5 mph4.0 kmh 29.57 in1001.4 mb 0.00 in0.0 mm 0.00 in0.0 mm 0.17 in4.3 mm
02:36 AM 47.3°F8.5°C 43.0°F6.1°C 84% 1.8 mph SW2.9 kmh SW 2.5 mph4.0 kmh 29.57 in1001.4 mb 0.00 in0.0 mm 0.00 in0.0 mm 0.17 in4.3 mm
02:35 AM 47.3°F8.5°C 43.0°F6.1°C 84% 1.8 mph SW2.9 kmh SW 2.5 mph4.0 kmh 29.57 in1001.4 mb 0.00 in0.0 mm 0.00 in0.0 mm 0.17 in4.3 mm
02:34 AM 47.5°F8.6°C 43.0°F6.1°C 85% 2.9 mph WSW4.7 kmh WSW 4.9 mph7.9 kmh 29.57 in1001.4 mb 0.00 in0.0 mm 0.00 in0.0 mm 0.17 in4.3 mm
02:33 AM 47.5°F8.6°C 43.0°F6.1°C 85% 2.9 mph WSW4.7 kmh WSW 4.9 mph7.9 kmh 29.57 in1001.4 mb 0.00 in0.0 mm 0.00 in0.0 mm 0.17 in4.3 mm
02:32 AM 47.5°F8.6°C 43.0°F6.1°C 85% 2.9 mph WSW4.7 kmh WSW 4.9 mph7.9 kmh 29.57 in1001.4 mb 0.00 in0.0 mm 0.00 in0.0 mm 0.17 in4.3 mm
02:31 AM 47.5°F8.6°C 43.0°F6.1°C 85% 2.9 mph WSW4.7 kmh WSW 4.9 mph7.9 kmh 29.57 in1001.4 mb 0.00 in0.0 mm 0.00 in0.0 mm 0.17 in4.3 mm
02:30 AM 47.5°F8.6°C 43.0°F6.1°C 85% 2.9 mph WSW4.7 kmh WSW 4.9 mph7.9 kmh 29.57 in1001.4 mb 0.00 in0.0 mm 0.00 in0.0 mm 0.17 in4.3 mm
02:29 AM 47.5°F8.6°C 43.0°F6.1°C 85% 2.9 mph WSW4.7 kmh WSW 4.9 mph7.9 kmh 29.57 in1001.4 mb 0.00 in0.0 mm 0.00 in0.0 mm 0.17 in4.3 mm
02:28 AM 47.5°F8.6°C 43.0°F6.1°C 85% 2.9 mph WSW4.7 kmh WSW 4.9 mph7.9 kmh 29.57 in1001.4 mb 0.00 in0.0 mm 0.00 in0.0 mm 0.17 in4.3 mm
02:27 AM 47.5°F8.6°C 43.0°F6.1°C 85% 2.9 mph WSW4.7 kmh WSW 4.9 mph7.9 kmh 29.57 in1001.4 mb 0.00 in0.0 mm 0.00 in0.0 mm 0.17 in4.3 mm
02:26 AM 47.5°F8.6°C 43.0°F6.1°C 85% 2.9 mph WSW4.7 kmh WSW 4.9 mph7.9 kmh 29.57 in1001.4 mb 0.00 in0.0 mm 0.00 in0.0 mm 0.17 in4.3 mm
02:25 AM 47.5°F8.6°C 43.0°F6.1°C 85% 2.9 mph WSW4.7 kmh WSW 4.9 mph7.9 kmh 29.57 in1001.4 mb 0.00 in0.0 mm 0.00 in0.0 mm 0.17 in4.3 mm
02:24 AM 47.5°F8.6°C 43.0°F6.1°C 85% 0.9 mph SSW1.4 kmh SSW 2.5 mph4.0 kmh 29.57 in1001.4 mb 0.00 in0.0 mm 0.00 in0.0 mm 0.17 in4.3 mm
02:23 AM 47.5°F8.6°C 43.0°F6.1°C 85% 0.9 mph SSW1.4 kmh SSW 2.5 mph4.0 kmh 29.57 in1001.4 mb 0.00 in0.0 mm 0.00 in0.0 mm 0.17 in4.3 mm
02:22 AM 47.5°F8.6°C 43.0°F6.1°C 85% 0.9 mph SSW1.4 kmh SSW 2.5 mph4.0 kmh 29.57 in1001.4 mb 0.00 in0.0 mm 0.00 in0.0 mm 0.17 in4.3 mm
02:21 AM 47.5°F8.6°C 43.0°F6.1°C 85% 0.9 mph SSW1.4 kmh SSW 2.5 mph4.0 kmh 29.57 in1001.4 mb 0.00 in0.0 mm 0.00 in0.0 mm 0.17 in4.3 mm
02:20 AM 47.5°F8.6°C 43.0°F6.1°C 85% 0.9 mph SSW1.4 kmh SSW 2.5 mph4.0 kmh 29.57 in1001.4 mb 0.00 in0.0 mm 0.00 in0.0 mm 0.17 in4.3 mm
02:19 AM 47.5°F8.6°C 44.0°F6.7°C 86% Calm Calm -- 29.57 in1001.4 mb 0.00 in0.0 mm 0.00 in0.0 mm 0.17 in4.3 mm
02:18 AM 47.5°F8.6°C 44.0°F6.7°C 86% Calm Calm -- 29.57 in1001.4 mb 0.00 in0.0 mm 0.00 in0.0 mm 0.17 in4.3 mm
02:17 AM 47.5°F8.6°C 44.0°F6.7°C 86% Calm Calm -- 29.57 in1001.4 mb 0.00 in0.0 mm 0.00 in0.0 mm 0.17 in4.3 mm
02:16 AM 47.5°F8.6°C 44.0°F6.7°C 86% Calm Calm -- 29.57 in1001.4 mb 0.00 in0.0 mm 0.00 in0.0 mm 0.17 in4.3 mm
02:15 AM 47.5°F8.6°C 44.0°F6.7°C 86% Calm Calm -- 29.57 in1001.4 mb 0.00 in0.0 mm 0.00 in0.0 mm 0.17 in4.3 mm
02:14 AM 47.3°F8.5°C 44.0°F6.7°C 87% 0.2 mph WSW0.3 kmh WSW 2.5 mph4.0 kmh 29.57 in1001.4 mb 0.00 in0.0 mm 0.00 in0.0 mm 0.17 in4.3 mm
02:13 AM 47.3°F8.5°C 44.0°F6.7°C 87% 0.2 mph WSW0.3 kmh WSW 2.5 mph4.0 kmh 29.57 in1001.4 mb 0.00 in0.0 mm 0.00 in0.0 mm 0.17 in4.3 mm
02:12 AM 47.3°F8.5°C 44.0°F6.7°C 87% 0.2 mph WSW0.3 kmh WSW 2.5 mph4.0 kmh 29.57 in1001.4 mb 0.00 in0.0 mm 0.00 in0.0 mm 0.17 in4.3 mm
02:11 AM 47.3°F8.5°C 44.0°F6.7°C 87% 0.2 mph WSW0.3 kmh WSW 2.5 mph4.0 kmh 29.57 in1001.4 mb 0.00 in0.0 mm 0.00 in0.0 mm 0.17 in4.3 mm
02:10 AM 47.3°F8.5°C 44.0°F6.7°C 87% 0.2 mph WSW0.3 kmh WSW 2.5 mph4.0 kmh 29.57 in1001.4 mb 0.00 in0.0 mm 0.00 in0.0 mm 0.17 in4.3 mm
02:09 AM 47.1°F8.4°C 44.0°F6.7°C 88% 1.8 mph WSW2.9 kmh WSW 4.9 mph7.9 kmh 29.57 in1001.4 mb 0.00 in0.0 mm 0.00 in0.0 mm 0.17 in4.3 mm
02:08 AM 47.1°F8.4°C 44.0°F6.7°C 88% 1.8 mph WSW2.9 kmh WSW 4.9 mph7.9 kmh 29.57 in1001.4 mb 0.00 in0.0 mm 0.00 in0.0 mm 0.17 in4.3 mm
02:07 AM 47.1°F8.4°C 44.0°F6.7°C 88% 1.8 mph WSW2.9 kmh WSW 4.9 mph7.9 kmh 29.57 in1001.4 mb 0.00 in0.0 mm 0.00 in0.0 mm 0.17 in4.3 mm
02:06 AM 47.1°F8.4°C 44.0°F6.7°C 88% 1.8 mph WSW2.9 kmh WSW 4.9 mph7.9 kmh 29.57 in1001.4 mb 0.00 in0.0 mm 0.00 in0.0 mm 0.17 in4.3 mm
02:05 AM 47.1°F8.4°C 44.0°F6.7°C 88% 1.8 mph WSW2.9 kmh WSW 4.9 mph7.9 kmh 29.57 in1001.4 mb 0.00 in0.0 mm 0.00 in0.0 mm 0.17 in4.3 mm
02:04 AM 47.1°F8.4°C 44.0°F6.7°C 89% 3.6 mph WSW5.8 kmh WSW 4.9 mph7.9 kmh 29.57 in1001.4 mb 0.00 in0.0 mm 0.00 in0.0 mm 0.17 in4.3 mm
02:03 AM 47.1°F8.4°C 44.0°F6.7°C 89% 3.6 mph WSW5.8 kmh WSW 4.9 mph7.9 kmh 29.57 in1001.4 mb 0.00 in0.0 mm 0.00 in0.0 mm 0.17 in4.3 mm
02:02 AM 47.1°F8.4°C 44.0°F6.7°C 89% 3.6 mph WSW5.8 kmh WSW 4.9 mph7.9 kmh 29.57 in1001.4 mb 0.00 in0.0 mm 0.00 in0.0 mm 0.17 in4.3 mm
02:01 AM 47.1°F8.4°C 44.0°F6.7°C 89% 3.6 mph WSW5.8 kmh WSW 4.9 mph7.9 kmh 29.57 in1001.4 mb 0.00 in0.0 mm 0.00 in0.0 mm 0.17 in4.3 mm
02:00 AM 47.1°F8.4°C 44.0°F6.7°C 89% 3.6 mph WSW5.8 kmh WSW 4.9 mph7.9 kmh 29.57 in1001.4 mb 0.00 in0.0 mm 0.00 in0.0 mm 0.17 in4.3 mm
01:59 AM 46.9°F8.3°C 44.0°F6.7°C 90% 2.9 mph SW4.7 kmh SW 4.9 mph7.9 kmh 29.57 in1001.4 mb 0.00 in0.0 mm 0.00 in0.0 mm 0.17 in4.3 mm
01:58 AM 46.9°F8.3°C 44.0°F6.7°C 90% 2.9 mph SW4.7 kmh SW 4.9 mph7.9 kmh 29.57 in1001.4 mb 0.00 in0.0 mm 0.00 in0.0 mm 0.17 in4.3 mm
01:57 AM 46.9°F8.3°C 44.0°F6.7°C 90% 2.9 mph SW4.7 kmh SW 4.9 mph7.9 kmh 29.57 in1001.4 mb 0.00 in0.0 mm 0.00 in0.0 mm 0.17 in4.3 mm
01:56 AM 46.9°F8.3°C 44.0°F6.7°C 90% 2.9 mph SW4.7 kmh SW 4.9 mph7.9 kmh 29.57 in1001.4 mb 0.00 in0.0 mm 0.00 in0.0 mm 0.17 in4.3 mm
01:55 AM 46.9°F8.3°C 44.0°F6.7°C 90% 2.9 mph SW4.7 kmh SW 4.9 mph7.9 kmh 29.57 in1001.4 mb 0.00 in0.0 mm 0.00 in0.0 mm 0.17 in4.3 mm
01:54 AM 46.9°F8.3°C 44.0°F6.7°C 90% 2.5 mph WSW4.0 kmh WSW 4.9 mph7.9 kmh 29.57 in1001.4 mb 0.00 in0.0 mm 0.00 in0.0 mm 0.17 in4.3 mm
01:53 AM 46.9°F8.3°C 44.0°F6.7°C 90% 2.5 mph WSW4.0 kmh WSW 4.9 mph7.9 kmh 29.57 in1001.4 mb 0.00 in0.0 mm 0.00 in0.0 mm 0.17 in4.3 mm
01:52 AM 46.9°F8.3°C 44.0°F6.7°C 90% 2.5 mph WSW4.0 kmh WSW 4.9 mph7.9 kmh 29.57 in1001.4 mb 0.00 in0.0 mm 0.00 in0.0 mm 0.17 in4.3 mm
01:51 AM 46.9°F8.3°C 44.0°F6.7°C 90% 2.5 mph WSW4.0 kmh WSW 4.9 mph7.9 kmh 29.57 in1001.4 mb 0.00 in0.0 mm 0.00 in0.0 mm 0.17 in4.3 mm
01:50 AM 46.9°F8.3°C 44.0°F6.7°C 90% 2.5 mph WSW4.0 kmh WSW 4.9 mph7.9 kmh 29.57 in1001.4 mb 0.00 in0.0 mm 0.00 in0.0 mm 0.17 in4.3 mm
01:49 AM 46.9°F8.3°C 44.0°F6.7°C 90% 1.1 mph SW1.8 kmh SW 2.5 mph4.0 kmh 29.57 in1001.4 mb 0.00 in0.0 mm 0.00 in0.0 mm 0.17 in4.3 mm
01:48 AM 46.9°F8.3°C 44.0°F6.7°C 90% 1.1 mph SW1.8 kmh SW 2.5 mph4.0 kmh 29.57 in1001.4 mb 0.00 in0.0 mm 0.00 in0.0 mm 0.17 in4.3 mm
01:47 AM 46.9°F8.3°C 44.0°F6.7°C 90% 1.1 mph SW1.8 kmh SW 2.5 mph4.0 kmh 29.57 in1001.4 mb 0.00 in0.0 mm 0.00 in0.0 mm 0.17 in4.3 mm
01:46 AM 46.9°F8.3°C 44.0°F6.7°C 90% 1.1 mph SW1.8 kmh SW 2.5 mph4.0 kmh 29.57 in1001.4 mb 0.00 in0.0 mm 0.00 in0.0 mm 0.17 in4.3 mm
01:45 AM 46.9°F8.3°C 44.0°F6.7°C 90% 1.1 mph SW1.8 kmh SW 2.5 mph4.0 kmh 29.57 in1001.4 mb 0.00 in0.0 mm 0.00 in0.0 mm 0.17 in4.3 mm
01:44 AM 46.9°F8.3°C 44.0°F6.7°C 90% 1.1 mph SW1.8 kmh SW 2.5 mph4.0 kmh 29.57 in1001.4 mb 0.00 in0.0 mm 0.00 in0.0 mm 0.17 in4.3 mm
01:43 AM 46.9°F8.3°C 44.0°F6.7°C 90% 1.1 mph SW1.8 kmh SW 2.5 mph4.0 kmh 29.57 in1001.4 mb 0.00 in0.0 mm 0.00 in0.0 mm 0.17 in4.3 mm
01:42 AM 46.9°F8.3°C 44.0°F6.7°C 90% 1.1 mph SW1.8 kmh SW 2.5 mph4.0 kmh 29.57 in1001.4 mb 0.00 in0.0 mm 0.00 in0.0 mm 0.17 in4.3 mm
01:41 AM 46.9°F8.3°C 44.0°F6.7°C 90% 1.1 mph SW1.8 kmh SW 2.5 mph4.0 kmh 29.57 in1001.4 mb 0.00 in0.0 mm 0.00 in0.0 mm 0.17 in4.3 mm
01:40 AM 46.9°F8.3°C 44.0°F6.7°C 90% 1.1 mph SW1.8 kmh SW 2.5 mph4.0 kmh 29.57 in1001.4 mb 0.00 in0.0 mm 0.00 in0.0 mm 0.17 in4.3 mm
01:39 AM 46.9°F8.3°C 44.0°F6.7°C 90% 2.0 mph SW3.2 kmh SW 2.5 mph4.0 kmh 29.57 in1001.4 mb 0.00 in0.0 mm 0.00 in0.0 mm 0.17 in4.3 mm
01:38 AM 46.9°F8.3°C 44.0°F6.7°C 90% 2.0 mph SW3.2 kmh SW 2.5 mph4.0 kmh 29.57 in1001.4 mb 0.00 in0.0 mm 0.00 in0.0 mm 0.17 in4.3 mm
01:37 AM 46.9°F8.3°C 44.0°F6.7°C 90% 2.0 mph SW3.2 kmh SW 2.5 mph4.0 kmh 29.57 in1001.4 mb 0.00 in0.0 mm 0.00 in0.0 mm 0.17 in4.3 mm
01:36 AM 46.9°F8.3°C 44.0°F6.7°C 90% 2.0 mph SW3.2 kmh SW 2.5 mph4.0 kmh 29.57 in1001.4 mb 0.00 in0.0 mm 0.00 in0.0 mm 0.17 in4.3 mm
01:35 AM 46.9°F8.3°C 44.0°F6.7°C 90% 2.0 mph SW3.2 kmh SW 2.5 mph4.0 kmh 29.57 in1001.4 mb 0.00 in0.0 mm 0.00 in0.0 mm 0.17 in4.3 mm
01:34 AM 46.9°F8.3°C 44.0°F6.7°C 90% 4.5 mph WSW7.2 kmh WSW 4.9 mph7.9 kmh 29.57 in1001.4 mb 0.00 in0.0 mm 0.00 in0.0 mm 0.17 in4.3 mm
01:33 AM 46.9°F8.3°C 44.0°F6.7°C 90% 4.5 mph WSW7.2 kmh WSW 4.9 mph7.9 kmh 29.57 in1001.4 mb 0.00 in0.0 mm 0.00 in0.0 mm 0.17 in4.3 mm
01:32 AM 46.9°F8.3°C 44.0°F6.7°C 90% 4.5 mph WSW7.2 kmh WSW 4.9 mph7.9 kmh 29.57 in1001.4 mb 0.00 in0.0 mm 0.00 in0.0 mm 0.17 in4.3 mm
01:31 AM 46.9°F8.3°C 44.0°F6.7°C 90% 4.5 mph WSW7.2 kmh WSW 4.9 mph7.9 kmh 29.57 in1001.4 mb 0.00 in0.0 mm 0.00 in0.0 mm 0.17 in4.3 mm
01:30 AM 46.9°F8.3°C 44.0°F6.7°C 90% 4.5 mph WSW7.2 kmh WSW 4.9 mph7.9 kmh 29.57 in1001.4 mb 0.00 in0.0 mm 0.00 in0.0 mm 0.17 in4.3 mm
01:29 AM 46.9°F8.3°C 44.0°F6.7°C 90% 2.7 mph SW4.3 kmh SW 4.9 mph7.9 kmh 29.57 in1001.4 mb 0.00 in0.0 mm 0.00 in0.0 mm 0.17 in4.3 mm
01:28 AM 46.9°F8.3°C 44.0°F6.7°C 90% 2.7 mph SW4.3 kmh SW 4.9 mph7.9 kmh 29.57 in1001.4 mb 0.00 in0.0 mm 0.00 in0.0 mm 0.17 in4.3 mm
01:27 AM 46.9°F8.3°C 44.0°F6.7°C 90% 2.7 mph SW4.3 kmh SW 4.9 mph7.9 kmh 29.57 in1001.4 mb 0.00 in0.0 mm 0.00 in0.0 mm 0.17 in4.3 mm
01:26 AM 46.9°F8.3°C 44.0°F6.7°C 90% 2.7 mph SW4.3 kmh SW 4.9 mph7.9 kmh 29.57 in1001.4 mb 0.00 in0.0 mm 0.00 in0.0 mm 0.17 in4.3 mm
01:25 AM 46.9°F8.3°C 44.0°F6.7°C 90% 2.7 mph SW4.3 kmh SW 4.9 mph7.9 kmh 29.57 in1001.4 mb 0.00 in0.0 mm 0.00 in0.0 mm 0.17 in4.3 mm
01:24 AM 47.1°F8.4°C 44.0°F6.7°C 90% 0.2 mph SSW0.3 kmh SSW 2.5 mph4.0 kmh 29.57 in1001.4 mb 0.00 in0.0 mm 0.00 in0.0 mm 0.17 in4.3 mm
01:23 AM 47.1°F8.4°C 44.0°F6.7°C 90% 0.2 mph SSW0.3 kmh SSW 2.5 mph4.0 kmh 29.57 in1001.4 mb 0.00 in0.0 mm 0.00 in0.0 mm 0.17 in4.3 mm
01:22 AM 47.1°F8.4°C 44.0°F6.7°C 90% 0.2 mph SSW0.3 kmh SSW 2.5 mph4.0 kmh 29.57 in1001.4 mb 0.00 in0.0 mm 0.00 in0.0 mm 0.17 in4.3 mm
01:21 AM 47.1°F8.4°C 44.0°F6.7°C 90% 0.2 mph SSW0.3 kmh SSW 2.5 mph4.0 kmh 29.57 in1001.4 mb 0.00 in0.0 mm 0.00 in0.0 mm 0.17 in4.3 mm
01:20 AM 47.1°F8.4°C 44.0°F6.7°C 90% 0.2 mph SSW0.3 kmh SSW 2.5 mph4.0 kmh 29.57 in1001.4 mb 0.00 in0.0 mm 0.00 in0.0 mm 0.17 in4.3 mm
01:19 AM 47.1°F8.4°C 44.0°F6.7°C 90% 1.1 mph WSW1.8 kmh WSW 2.5 mph4.0 kmh 29.57 in1001.4 mb 0.00 in0.0 mm 0.00 in0.0 mm 0.17 in4.3 mm
01:18 AM 47.1°F8.4°C 44.0°F6.7°C 90% 1.1 mph WSW1.8 kmh WSW 2.5 mph4.0 kmh 29.57 in1001.4 mb 0.00 in0.0 mm 0.00 in0.0 mm 0.17 in4.3 mm
01:17 AM 47.1°F8.4°C 44.0°F6.7°C 90% 1.1 mph WSW1.8 kmh WSW 2.5 mph4.0 kmh 29.57 in1001.4 mb 0.00 in0.0 mm 0.00 in0.0 mm 0.17 in4.3 mm
01:16 AM 47.1°F8.4°C 44.0°F6.7°C 90% 1.1 mph WSW1.8 kmh WSW 2.5 mph4.0 kmh 29.57 in1001.4 mb 0.00 in0.0 mm 0.00 in0.0 mm 0.17 in4.3 mm
01:15 AM 47.1°F8.4°C 44.0°F6.7°C 90% 1.1 mph WSW1.8 kmh WSW 2.5 mph4.0 kmh 29.57 in1001.4 mb 0.00 in0.0 mm 0.00 in0.0 mm 0.17 in4.3 mm
01:14 AM 46.9°F8.3°C 44.0°F6.7°C 90% 2.7 mph WSW4.3 kmh WSW 4.9 mph7.9 kmh 29.57 in1001.4 mb 0.00 in0.0 mm 0.00 in0.0 mm 0.17 in4.3 mm
01:13 AM 46.9°F8.3°C 44.0°F6.7°C 90% 2.7 mph WSW4.3 kmh WSW 4.9 mph7.9 kmh 29.57 in1001.4 mb 0.00 in0.0 mm 0.00 in0.0 mm 0.17 in4.3 mm
01:12 AM 46.9°F8.3°C 44.0°F6.7°C 90% 2.7 mph WSW4.3 kmh WSW 4.9 mph7.9 kmh 29.57 in1001.4 mb 0.00 in0.0 mm 0.00 in0.0 mm 0.17 in4.3 mm
01:11 AM 46.9°F8.3°C 44.0°F6.7°C 90% 2.7 mph WSW4.3 kmh WSW 4.9 mph7.9 kmh 29.57 in1001.4 mb 0.00 in0.0 mm 0.00 in0.0 mm 0.17 in4.3 mm
01:10 AM 46.9°F8.3°C 44.0°F6.7°C 90% 2.7 mph WSW4.3 kmh WSW 4.9 mph7.9 kmh 29.57 in1001.4 mb 0.00 in0.0 mm 0.00 in0.0 mm 0.17 in4.3 mm
01:09 AM 46.9°F8.3°C 44.0°F6.7°C 89% 0.2 mph SW0.3 kmh SW 2.5 mph4.0 kmh 29.57 in1001.4 mb 0.00 in0.0 mm 0.00 in0.0 mm 0.17 in4.3 mm
01:08 AM 46.9°F8.3°C 44.0°F6.7°C 89% 0.2 mph SW0.3 kmh SW 2.5 mph4.0 kmh 29.57 in1001.4 mb 0.00 in0.0 mm 0.00 in0.0 mm 0.17 in4.3 mm
01:07 AM 46.9°F8.3°C 44.0°F6.7°C 89% 0.2 mph SW0.3 kmh SW 2.5 mph4.0 kmh 29.57 in1001.4 mb 0.00 in0.0 mm 0.00 in0.0 mm 0.17 in4.3 mm
01:06 AM 46.9°F8.3°C 44.0°F6.7°C 89% 0.2 mph SW0.3 kmh SW 2.5 mph4.0 kmh 29.57 in1001.4 mb 0.00 in0.0 mm 0.00 in0.0 mm 0.17 in4.3 mm
01:05 AM 46.9°F8.3°C 44.0°F6.7°C 89% 0.2 mph SW0.3 kmh SW 2.5 mph4.0 kmh 29.57 in1001.4 mb 0.00 in0.0 mm 0.00 in0.0 mm 0.17 in4.3 mm
01:04 AM 46.9°F8.3°C 44.0°F6.7°C 90% 3.4 mph WSW5.5 kmh WSW 4.9 mph7.9 kmh 29.57 in1001.4 mb 0.00 in0.0 mm 0.00 in0.0 mm 0.17 in4.3 mm
01:03 AM 46.9°F8.3°C 44.0°F6.7°C 90% 3.4 mph WSW5.5 kmh WSW 4.9 mph7.9 kmh 29.57 in1001.4 mb 0.00 in0.0 mm 0.00 in0.0 mm 0.17 in4.3 mm
01:02 AM 46.9°F8.3°C 44.0°F6.7°C 90% 3.4 mph WSW5.5 kmh WSW 4.9 mph7.9 kmh 29.57 in1001.4 mb 0.00 in0.0 mm 0.00 in0.0 mm 0.17 in4.3 mm
01:01 AM 46.9°F8.3°C 44.0°F6.7°C 90% 3.4 mph WSW5.5 kmh WSW 4.9 mph7.9 kmh 29.57 in1001.4 mb 0.00 in0.0 mm 0.00 in0.0 mm 0.17 in4.3 mm
01:00 AM 46.9°F8.3°C 44.0°F6.7°C 90% 3.4 mph WSW5.5 kmh WSW 4.9 mph7.9 kmh 29.57 in1001.4 mb 0.00 in0.0 mm 0.00 in0.0 mm 0.17 in4.3 mm
12:59 AM 46.8°F8.2°C 44.0°F6.7°C 90% 3.6 mph WSW5.8 kmh WSW 4.9 mph7.9 kmh 29.58 in1001.7 mb 0.00 in0.0 mm 0.00 in0.0 mm 0.17 in4.3 mm
12:58 AM 46.8°F8.2°C 44.0°F6.7°C 90% 3.6 mph WSW5.8 kmh WSW 4.9 mph7.9 kmh 29.58 in1001.7 mb 0.00 in0.0 mm 0.00 in0.0 mm 0.17 in4.3 mm
12:57 AM 46.8°F8.2°C 44.0°F6.7°C 90% 3.6 mph WSW5.8 kmh WSW 4.9 mph7.9 kmh 29.58 in1001.7 mb 0.00 in0.0 mm 0.00 in0.0 mm 0.17 in4.3 mm
12:56 AM 46.8°F8.2°C 44.0°F6.7°C 90% 3.6 mph WSW5.8 kmh WSW 4.9 mph7.9 kmh 29.58 in1001.7 mb 0.00 in0.0 mm 0.00 in0.0 mm 0.17 in4.3 mm
12:55 AM 46.8°F8.2°C 44.0°F6.7°C 90% 3.6 mph WSW5.8 kmh WSW 4.9 mph7.9 kmh 29.58 in1001.7 mb 0.00 in0.0 mm 0.00 in0.0 mm 0.17 in4.3 mm
12:54 AM 46.8°F8.2°C 44.0°F6.7°C 90% 3.6 mph WSW5.8 kmh WSW 4.9 mph7.9 kmh 29.58 in1001.7 mb 0.00 in0.0 mm 0.00 in0.0 mm 0.17 in4.3 mm
12:53 AM 46.8°F8.2°C 44.0°F6.7°C 90% 3.4 mph WSW5.5 kmh WSW 4.9 mph7.9 kmh 29.58 in1001.7 mb 0.00 in0.0 mm 0.00 in0.0 mm 0.15 in3.8 mm
12:52 AM 46.8°F8.2°C 44.0°F6.7°C 90% 3.4 mph WSW5.5 kmh WSW 4.9 mph7.9 kmh 29.58 in1001.7 mb 0.00 in0.0 mm 0.00 in0.0 mm 0.15 in3.8 mm
12:51 AM 46.8°F8.2°C 44.0°F6.7°C 90% 3.4 mph WSW5.5 kmh WSW 4.9 mph7.9 kmh 29.58 in1001.7 mb 0.00 in0.0 mm 0.00 in0.0 mm 0.15 in3.8 mm
12:50 AM 46.8°F8.2°C 44.0°F6.7°C 90% 3.4 mph WSW5.5 kmh WSW 4.9 mph7.9 kmh 29.58 in1001.7 mb 0.00 in0.0 mm 0.00 in0.0 mm 0.15 in3.8 mm
12:49 AM 46.8°F8.2°C 44.0°F6.7°C 90% 3.4 mph WSW5.5 kmh WSW 4.9 mph7.9 kmh 29.58 in1001.7 mb 0.00 in0.0 mm 0.00 in0.0 mm 0.15 in3.8 mm
12:48 AM 46.8°F8.2°C 44.0°F6.7°C 89% 1.1 mph SW1.8 kmh SW 2.5 mph4.0 kmh 29.58 in1001.7 mb 0.00 in0.0 mm 0.00 in0.0 mm 0.15 in3.8 mm
12:47 AM 46.8°F8.2°C 44.0°F6.7°C 89% 1.1 mph SW1.8 kmh SW 2.5 mph4.0 kmh 29.58 in1001.7 mb 0.00 in0.0 mm 0.00 in0.0 mm 0.15 in3.8 mm
12:46 AM 46.8°F8.2°C 44.0°F6.7°C 89% 1.1 mph SW1.8 kmh SW 2.5 mph4.0 kmh 29.58 in1001.7 mb 0.00 in0.0 mm 0.00 in0.0 mm 0.15 in3.8 mm
12:45 AM 46.8°F8.2°C 44.0°F6.7°C 89% 1.1 mph SW1.8 kmh SW 2.5 mph4.0 kmh 29.58 in1001.7 mb 0.00 in0.0 mm 0.00 in0.0 mm 0.15 in3.8 mm
12:44 AM 46.8°F8.2°C 44.0°F6.7°C 89% 1.1 mph SW1.8 kmh SW 2.5 mph4.0 kmh 29.58 in1001.7 mb 0.00 in0.0 mm 0.00 in0.0 mm 0.15 in3.8 mm
12:43 AM 46.6°F8.1°C 44.0°F6.7°C 89% 1.3 mph SW2.1 kmh SW 2.5 mph4.0 kmh 29.57 in1001.4 mb 0.00 in0.0 mm 0.00 in0.0 mm 0.14 in3.6 mm
12:42 AM 46.6°F8.1°C 44.0°F6.7°C 89% 1.3 mph SW2.1 kmh SW 2.5 mph4.0 kmh 29.57 in1001.4 mb 0.00 in0.0 mm 0.00 in0.0 mm 0.14 in3.6 mm
12:41 AM 46.6°F8.1°C 44.0°F6.7°C 89% 1.3 mph SW2.1 kmh SW 2.5 mph4.0 kmh 29.57 in1001.4 mb 0.00 in0.0 mm 0.00 in0.0 mm 0.14 in3.6 mm
12:40 AM 46.6°F8.1°C 44.0°F6.7°C 89% 1.3 mph SW2.1 kmh SW 2.5 mph4.0 kmh 29.57 in1001.4 mb 0.00 in0.0 mm 0.00 in0.0 mm 0.14 in3.6 mm
12:39 AM 46.6°F8.1°C 44.0°F6.7°C 89% 1.3 mph SW2.1 kmh SW 2.5 mph4.0 kmh 29.57 in1001.4 mb 0.00 in0.0 mm 0.00 in0.0 mm 0.14 in3.6 mm
12:38 AM 46.6°F8.1°C 43.0°F6.1°C 88% 2.0 mph WSW3.2 kmh WSW 2.5 mph4.0 kmh 29.57 in1001.4 mb 0.00 in0.0 mm 0.00 in0.0 mm 0.11 in2.8 mm
12:37 AM 46.6°F8.1°C 43.0°F6.1°C 88% 2.0 mph WSW3.2 kmh WSW 2.5 mph4.0 kmh 29.57 in1001.4 mb 0.00 in0.0 mm 0.00 in0.0 mm 0.11 in2.8 mm
12:36 AM 46.6°F8.1°C 43.0°F6.1°C 88% 2.0 mph WSW3.2 kmh WSW 2.5 mph4.0 kmh 29.57 in1001.4 mb 0.00 in0.0 mm 0.00 in0.0 mm 0.11 in2.8 mm
12:35 AM 46.6°F8.1°C 43.0°F6.1°C 88% 2.0 mph WSW3.2 kmh WSW 2.5 mph4.0 kmh 29.57 in1001.4 mb 0.00 in0.0 mm 0.00 in0.0 mm 0.11 in2.8 mm
12:34 AM 46.6°F8.1°C 43.0°F6.1°C 88% 2.0 mph WSW3.2 kmh WSW 2.5 mph4.0 kmh 29.57 in1001.4 mb 0.00 in0.0 mm 0.00 in0.0 mm 0.11 in2.8 mm
12:33 AM 46.6°F8.1°C 43.0°F6.1°C 88% 0.4 mph SW0.6 kmh SW 2.5 mph4.0 kmh 29.60 in1002.4 mb 0.00 in0.0 mm 0.00 in0.0 mm 0.07 in1.8 mm
12:32 AM 46.6°F8.1°C 43.0°F6.1°C 88% 0.4 mph SW0.6 kmh SW 2.5 mph4.0 kmh 29.60 in1002.4 mb 0.00 in0.0 mm 0.00 in0.0 mm 0.07 in1.8 mm
12:31 AM 46.6°F8.1°C 43.0°F6.1°C 88% 0.4 mph SW0.6 kmh SW 2.5 mph4.0 kmh 29.60 in1002.4 mb 0.00 in0.0 mm 0.00 in0.0 mm 0.07 in1.8 mm
12:30 AM 46.6°F8.1°C 43.0°F6.1°C 88% 0.4 mph SW0.6 kmh SW 2.5 mph4.0 kmh 29.60 in1002.4 mb 0.00 in0.0 mm 0.00 in0.0 mm 0.07 in1.8 mm
12:29 AM 46.6°F8.1°C 43.0°F6.1°C 88% 0.4 mph SW0.6 kmh SW 2.5 mph4.0 kmh 29.60 in1002.4 mb 0.00 in0.0 mm 0.00 in0.0 mm 0.07 in1.8 mm
12:28 AM 46.4°F8.0°C 43.0°F6.1°C 88% 4.5 mph W7.2 kmh W 4.9 mph7.9 kmh 29.60 in1002.4 mb 0.00 in0.0 mm 0.00 in0.0 mm 0.07 in1.8 mm
12:27 AM 46.4°F8.0°C 43.0°F6.1°C 88% 4.5 mph W7.2 kmh W 4.9 mph7.9 kmh 29.60 in1002.4 mb 0.00 in0.0 mm 0.00 in0.0 mm 0.07 in1.8 mm
12:26 AM 46.4°F8.0°C 43.0°F6.1°C 88% 4.5 mph W7.2 kmh W 4.9 mph7.9 kmh 29.60 in1002.4 mb 0.00 in0.0 mm 0.00 in0.0 mm 0.07 in1.8 mm
12:25 AM 46.4°F8.0°C 43.0°F6.1°C 88% 4.5 mph W7.2 kmh W 4.9 mph7.9 kmh 29.60 in1002.4 mb 0.00 in0.0 mm 0.00 in0.0 mm 0.07 in1.8 mm
12:24 AM 46.4°F8.0°C 43.0°F6.1°C 88% 4.5 mph W7.2 kmh W 4.9 mph7.9 kmh 29.60 in1002.4 mb 0.00 in0.0 mm 0.00 in0.0 mm 0.07 in1.8 mm
12:23 AM 46.4°F8.0°C 43.0°F6.1°C 87% 3.6 mph WSW5.8 kmh WSW 4.9 mph7.9 kmh 29.60 in1002.4 mb 0.00 in0.0 mm 0.00 in0.0 mm 0.05 in1.3 mm
12:22 AM 46.4°F8.0°C 43.0°F6.1°C 87% 3.6 mph WSW5.8 kmh WSW 4.9 mph7.9 kmh 29.60 in1002.4 mb 0.00 in0.0 mm 0.00 in0.0 mm 0.05 in1.3 mm
12:21 AM 46.4°F8.0°C 43.0°F6.1°C 87% 3.6 mph WSW5.8 kmh WSW 4.9 mph7.9 kmh 29.60 in1002.4 mb 0.00 in0.0 mm 0.00 in0.0 mm 0.05 in1.3 mm
12:20 AM 46.4°F8.0°C 43.0°F6.1°C 87% 3.6 mph WSW5.8 kmh WSW 4.9 mph7.9 kmh 29.60 in1002.4 mb 0.00 in0.0 mm 0.00 in0.0 mm 0.05 in1.3 mm
12:19 AM 46.4°F8.0°C 43.0°F6.1°C 87% 3.6 mph WSW5.8 kmh WSW 4.9 mph7.9 kmh 29.60 in1002.4 mb 0.00 in0.0 mm 0.00 in0.0 mm 0.05 in1.3 mm
12:18 AM 46.4°F8.0°C 43.0°F6.1°C 87% 2.7 mph W4.3 kmh W 4.9 mph7.9 kmh 29.60 in1002.4 mb 0.00 in0.0 mm 0.00 in0.0 mm 0.04 in1.0 mm
12:17 AM 46.4°F8.0°C 43.0°F6.1°C 87% 2.7 mph W4.3 kmh W 4.9 mph7.9 kmh 29.60 in1002.4 mb 0.00 in0.0 mm 0.00 in0.0 mm 0.04 in1.0 mm
12:16 AM 46.4°F8.0°C 43.0°F6.1°C 87% 2.7 mph W4.3 kmh W 4.9 mph7.9 kmh 29.60 in1002.4 mb 0.00 in0.0 mm 0.00 in0.0 mm 0.04 in1.0 mm
12:15 AM 46.4°F8.0°C 43.0°F6.1°C 87% 2.7 mph W4.3 kmh W 4.9 mph7.9 kmh 29.60 in1002.4 mb 0.00 in0.0 mm 0.00 in0.0 mm 0.04 in1.0 mm
12:14 AM 46.4°F8.0°C 43.0°F6.1°C 87% 2.7 mph W4.3 kmh W 4.9 mph7.9 kmh 29.60 in1002.4 mb 0.00 in0.0 mm 0.00 in0.0 mm 0.04 in1.0 mm
12:13 AM 46.6°F8.1°C 43.0°F6.1°C 87% 5.6 mph W9.0 kmh W 7.4 mph11.9 kmh 29.60 in1002.4 mb 0.00 in0.0 mm 0.00 in0.0 mm 0.02 in0.5 mm
12:12 AM 46.6°F8.1°C 43.0°F6.1°C 87% 5.6 mph W9.0 kmh W 7.4 mph11.9 kmh 29.60 in1002.4 mb 0.00 in0.0 mm 0.00 in0.0 mm 0.02 in0.5 mm
12:11 AM 46.6°F8.1°C 43.0°F6.1°C 87% 5.6 mph W9.0 kmh W 7.4 mph11.9 kmh 29.60 in1002.4 mb 0.00 in0.0 mm 0.00 in0.0 mm 0.02 in0.5 mm
12:10 AM 46.6°F8.1°C 43.0°F6.1°C 87% 5.6 mph W9.0 kmh W 7.4 mph11.9 kmh 29.60 in1002.4 mb 0.00 in0.0 mm 0.00 in0.0 mm 0.02 in0.5 mm
12:09 AM 46.6°F8.1°C 43.0°F6.1°C 87% 5.6 mph W9.0 kmh W 7.4 mph11.9 kmh 29.60 in1002.4 mb 0.00 in0.0 mm 0.00 in0.0 mm 0.02 in0.5 mm
12:08 AM 47.5°F8.6°C 44.0°F6.7°C 86% 4.3 mph WSW6.9 kmh WSW 4.9 mph7.9 kmh 29.60 in1002.4 mb 0.00 in0.0 mm 0.00 in0.0 mm 0.00 in0.0 mm
12:07 AM 47.5°F8.6°C 44.0°F6.7°C 86% 4.3 mph WSW6.9 kmh WSW 4.9 mph7.9 kmh 29.60 in1002.4 mb 0.00 in0.0 mm 0.00 in0.0 mm 0.00 in0.0 mm
12:06 AM 47.5°F8.6°C 44.0°F6.7°C 86% 4.3 mph WSW6.9 kmh WSW 4.9 mph7.9 kmh 29.60 in1002.4 mb 0.00 in0.0 mm 0.00 in0.0 mm 0.00 in0.0 mm
12:05 AM 47.5°F8.6°C 44.0°F6.7°C 86% 4.3 mph WSW6.9 kmh WSW 4.9 mph7.9 kmh 29.60 in1002.4 mb 0.00 in0.0 mm 0.00 in0.0 mm 0.00 in0.0 mm
12:04 AM 47.5°F8.6°C 44.0°F6.7°C 86% 4.3 mph WSW6.9 kmh WSW 4.9 mph7.9 kmh 29.60 in1002.4 mb 0.00 in0.0 mm 0.00 in0.0 mm 0.00 in0.0 mm
12:03 AM 48.7°F9.3°C 45.0°F7.2°C 86% 4.9 mph WSW7.9 kmh WSW 7.4 mph11.9 kmh 29.60 in1002.4 mb 0.00 in0.0 mm 0.00 in0.0 mm 0.27 in6.9 mm
12:02 AM 48.7°F9.3°C 45.0°F7.2°C 86% 4.9 mph WSW7.9 kmh WSW 7.4 mph11.9 kmh 29.60 in1002.4 mb 0.00 in0.0 mm 0.00 in0.0 mm 0.27 in6.9 mm
12:01 AM 48.7°F9.3°C 45.0°F7.2°C 86% 4.9 mph WSW7.9 kmh WSW 7.4 mph11.9 kmh 29.60 in1002.4 mb 0.00 in0.0 mm 0.00 in0.0 mm 0.27 in6.9 mm
12:00 AM 48.7°F9.3°C 45.0°F7.2°C 86% 4.9 mph WSW7.9 kmh WSW 7.4 mph11.9 kmh 29.60 in1002.4 mb 0.00 in0.0 mm 0.00 in0.0 mm 0.27 in6.9 mm